<?xml version="1.0" encoding="UTF-8" standalone="no" ?>
<gpx xmlns="http://www.topografix.com/GPX/1/1" xmlns:xsi="http://www.w3.org/2001/XMLSchema-instance" xsi:schemaLocation="http://www.topografix.com/GPX/1/1 http://www.topografix.com/GPX/1/1/gpx.xsd" version="1.1" creator="VisuGPX - https://www.visugpx.com">
  <metadata>
    <name>Lac Noir(Lacs de Bassia)</name>
    <desc><![CDATA[Circuit des lacs de Bassin (Lac Noir et lac Blanc) depuis la cabane du Plaa de Prat. Plus d'infos et de photos en cliquant sur ce lien: <https://www.o2rando.com/lac-noir-lacs-de-bassias-2160m>]]></desc>
  </metadata>
  <trk>
    <name><![CDATA[Lac de Bassia]]></name>
    <trkseg>
      <trkpt lat="42.86085" lon="-0.22861">
        <ele>1637.8</ele>
        <time>2021-08-06T07:43:16Z</time>
      </trkpt>
      <trkpt lat="42.86086" lon="-0.22861">
        <ele>1637.8</ele>
        <time>2021-08-06T07:43:17Z</time>
      </trkpt>
      <trkpt lat="42.86098" lon="-0.22855">
        <ele>1637.8</ele>
        <time>2021-08-06T07:43:52Z</time>
      </trkpt>
      <trkpt lat="42.86083" lon="-0.22863">
        <ele>1636.4</ele>
        <time>2021-08-06T07:44:23Z</time>
      </trkpt>
      <trkpt lat="42.86079" lon="-0.22865">
        <ele>1636.4</ele>
        <time>2021-08-06T07:44:35Z</time>
      </trkpt>
      <trkpt lat="42.86078" lon="-0.22871">
        <ele>1636.4</ele>
        <time>2021-08-06T07:45:21Z</time>
      </trkpt>
      <trkpt lat="42.8608" lon="-0.22872">
        <ele>1636.4</ele>
        <time>2021-08-06T07:45:50Z</time>
      </trkpt>
      <trkpt lat="42.86067" lon="-0.2288">
        <ele>1637.2</ele>
        <time>2021-08-06T07:46:11Z</time>
      </trkpt>
      <trkpt lat="42.86064" lon="-0.22883">
        <ele>1638.1</ele>
        <time>2021-08-06T07:46:13Z</time>
      </trkpt>
      <trkpt lat="42.86063" lon="-0.22884">
        <ele>1638.3</ele>
        <time>2021-08-06T07:46:14Z</time>
      </trkpt>
      <trkpt lat="42.86056" lon="-0.22876">
        <ele>1639.5</ele>
        <time>2021-08-06T07:46:34Z</time>
      </trkpt>
      <trkpt lat="42.86049" lon="-0.22866">
        <ele>1642.8</ele>
        <time>2021-08-06T07:46:49Z</time>
      </trkpt>
      <trkpt lat="42.86035" lon="-0.22864">
        <ele>1645.8</ele>
        <time>2021-08-06T07:47:06Z</time>
      </trkpt>
      <trkpt lat="42.86024" lon="-0.22857">
        <ele>1648.8</ele>
        <time>2021-08-06T07:47:22Z</time>
      </trkpt>
      <trkpt lat="42.86026" lon="-0.2284">
        <ele>1651.9</ele>
        <time>2021-08-06T07:47:39Z</time>
      </trkpt>
      <trkpt lat="42.86027" lon="-0.22828">
        <ele>1655.1</ele>
        <time>2021-08-06T07:47:56Z</time>
      </trkpt>
      <trkpt lat="42.86014" lon="-0.22829">
        <ele>1658.2</ele>
        <time>2021-08-06T07:48:09Z</time>
      </trkpt>
      <trkpt lat="42.86002" lon="-0.22832">
        <ele>1661.3</ele>
        <time>2021-08-06T07:48:26Z</time>
      </trkpt>
      <trkpt lat="42.86007" lon="-0.22817">
        <ele>1664.3</ele>
        <time>2021-08-06T07:48:46Z</time>
      </trkpt>
      <trkpt lat="42.85999" lon="-0.22806">
        <ele>1667.4</ele>
        <time>2021-08-06T07:49:05Z</time>
      </trkpt>
      <trkpt lat="42.85987" lon="-0.22801">
        <ele>1670.5</ele>
        <time>2021-08-06T07:49:24Z</time>
      </trkpt>
      <trkpt lat="42.85976" lon="-0.22796">
        <ele>1673.5</ele>
        <time>2021-08-06T07:49:38Z</time>
      </trkpt>
      <trkpt lat="42.85973" lon="-0.22782">
        <ele>1676.7</ele>
        <time>2021-08-06T07:49:54Z</time>
      </trkpt>
      <trkpt lat="42.8596" lon="-0.2277">
        <ele>1679.7</ele>
        <time>2021-08-06T07:50:18Z</time>
      </trkpt>
      <trkpt lat="42.8596" lon="-0.2277">
        <ele>1679.8</ele>
        <time>2021-08-06T07:50:46Z</time>
      </trkpt>
      <trkpt lat="42.8596" lon="-0.2277">
        <ele>1680.6</ele>
        <time>2021-08-06T07:51:50Z</time>
      </trkpt>
      <trkpt lat="42.85959" lon="-0.22771">
        <ele>1680.6</ele>
        <time>2021-08-06T07:52:19Z</time>
      </trkpt>
      <trkpt lat="42.85945" lon="-0.22781">
        <ele>1680.6</ele>
        <time>2021-08-06T07:52:54Z</time>
      </trkpt>
      <trkpt lat="42.85935" lon="-0.22781">
        <ele>1683.8</ele>
        <time>2021-08-06T07:53:06Z</time>
      </trkpt>
      <trkpt lat="42.85934" lon="-0.22781">
        <ele>1684.4</ele>
        <time>2021-08-06T07:53:08Z</time>
      </trkpt>
      <trkpt lat="42.85928" lon="-0.22775">
        <ele>1687.5</ele>
        <time>2021-08-06T07:53:22Z</time>
      </trkpt>
      <trkpt lat="42.85922" lon="-0.22772">
        <ele>1690.6</ele>
        <time>2021-08-06T07:53:38Z</time>
      </trkpt>
      <trkpt lat="42.85918" lon="-0.22769">
        <ele>1691.6</ele>
        <time>2021-08-06T07:54:15Z</time>
      </trkpt>
      <trkpt lat="42.85913" lon="-0.22768">
        <ele>1694.7</ele>
        <time>2021-08-06T07:54:46Z</time>
      </trkpt>
      <trkpt lat="42.85915" lon="-0.22753">
        <ele>1697.8</ele>
        <time>2021-08-06T07:55:01Z</time>
      </trkpt>
      <trkpt lat="42.85906" lon="-0.22743">
        <ele>1700.8</ele>
        <time>2021-08-06T07:55:20Z</time>
      </trkpt>
      <trkpt lat="42.85909" lon="-0.22739">
        <ele>1703.8</ele>
        <time>2021-08-06T07:55:39Z</time>
      </trkpt>
      <trkpt lat="42.85919" lon="-0.22733">
        <ele>1707</ele>
        <time>2021-08-06T07:55:58Z</time>
      </trkpt>
      <trkpt lat="42.85928" lon="-0.22725">
        <ele>1708.8</ele>
        <time>2021-08-06T07:56:40Z</time>
      </trkpt>
      <trkpt lat="42.85929" lon="-0.22727">
        <ele>1708.9</ele>
        <time>2021-08-06T07:57:25Z</time>
      </trkpt>
      <trkpt lat="42.8593" lon="-0.22729">
        <ele>1709</ele>
        <time>2021-08-06T07:58:04Z</time>
      </trkpt>
      <trkpt lat="42.85922" lon="-0.22726">
        <ele>1709</ele>
        <time>2021-08-06T07:58:26Z</time>
      </trkpt>
      <trkpt lat="42.8591" lon="-0.22716">
        <ele>1715.2</ele>
        <time>2021-08-06T07:58:48Z</time>
      </trkpt>
      <trkpt lat="42.85909" lon="-0.22715">
        <ele>1715.2</ele>
        <time>2021-08-06T07:58:49Z</time>
      </trkpt>
      <trkpt lat="42.85896" lon="-0.22716">
        <ele>1717.3</ele>
        <time>2021-08-06T07:59:05Z</time>
      </trkpt>
      <trkpt lat="42.85904" lon="-0.22716">
        <ele>1720.5</ele>
        <time>2021-08-06T07:59:24Z</time>
      </trkpt>
      <trkpt lat="42.85915" lon="-0.22708">
        <ele>1723.7</ele>
        <time>2021-08-06T07:59:42Z</time>
      </trkpt>
      <trkpt lat="42.85917" lon="-0.22703">
        <ele>1726.7</ele>
        <time>2021-08-06T08:00:16Z</time>
      </trkpt>
      <trkpt lat="42.85918" lon="-0.22705">
        <ele>1726.3</ele>
        <time>2021-08-06T08:01:00Z</time>
      </trkpt>
      <trkpt lat="42.85918" lon="-0.22705">
        <ele>1725.3</ele>
        <time>2021-08-06T08:01:35Z</time>
      </trkpt>
      <trkpt lat="42.85905" lon="-0.22693">
        <ele>1726.3</ele>
        <time>2021-08-06T08:01:59Z</time>
      </trkpt>
      <trkpt lat="42.85899" lon="-0.22679">
        <ele>1726.3</ele>
        <time>2021-08-06T08:02:29Z</time>
      </trkpt>
      <trkpt lat="42.8591" lon="-0.22677">
        <ele>1726.3</ele>
        <time>2021-08-06T08:02:51Z</time>
      </trkpt>
      <trkpt lat="42.8591" lon="-0.22674">
        <ele>1740.6</ele>
        <time>2021-08-06T08:02:52Z</time>
      </trkpt>
      <trkpt lat="42.8591" lon="-0.22673">
        <ele>1740.7</ele>
        <time>2021-08-06T08:02:53Z</time>
      </trkpt>
      <trkpt lat="42.85904" lon="-0.22662">
        <ele>1743.2</ele>
        <time>2021-08-06T08:03:09Z</time>
      </trkpt>
      <trkpt lat="42.85905" lon="-0.22659">
        <ele>1746.2</ele>
        <time>2021-08-06T08:03:22Z</time>
      </trkpt>
      <trkpt lat="42.85903" lon="-0.22654">
        <ele>1747.9</ele>
        <time>2021-08-06T08:03:29Z</time>
      </trkpt>
      <trkpt lat="42.85906" lon="-0.22655">
        <ele>1749.1</ele>
        <time>2021-08-06T08:03:35Z</time>
      </trkpt>
      <trkpt lat="42.85907" lon="-0.22654">
        <ele>1749.5</ele>
        <time>2021-08-06T08:03:37Z</time>
      </trkpt>
      <trkpt lat="42.85911" lon="-0.22658">
        <ele>1751.9</ele>
        <time>2021-08-06T08:03:50Z</time>
      </trkpt>
      <trkpt lat="42.85906" lon="-0.22666">
        <ele>1754</ele>
        <time>2021-08-06T08:04:01Z</time>
      </trkpt>
      <trkpt lat="42.85909" lon="-0.22664">
        <ele>1754.9</ele>
        <time>2021-08-06T08:04:04Z</time>
      </trkpt>
      <trkpt lat="42.8591" lon="-0.2266">
        <ele>1755.7</ele>
        <time>2021-08-06T08:04:09Z</time>
      </trkpt>
      <trkpt lat="42.85898" lon="-0.2264">
        <ele>1758.7</ele>
        <time>2021-08-06T08:04:26Z</time>
      </trkpt>
      <trkpt lat="42.85897" lon="-0.22637">
        <ele>1760.6</ele>
        <time>2021-08-06T08:04:36Z</time>
      </trkpt>
      <trkpt lat="42.85899" lon="-0.22625">
        <ele>1763.8</ele>
        <time>2021-08-06T08:04:52Z</time>
      </trkpt>
      <trkpt lat="42.85904" lon="-0.22625">
        <ele>1766.8</ele>
        <time>2021-08-06T08:05:05Z</time>
      </trkpt>
      <trkpt lat="42.85907" lon="-0.2262">
        <ele>1769.9</ele>
        <time>2021-08-06T08:05:21Z</time>
      </trkpt>
      <trkpt lat="42.85905" lon="-0.22618">
        <ele>1770.6</ele>
        <time>2021-08-06T08:05:25Z</time>
      </trkpt>
      <trkpt lat="42.85913" lon="-0.22608">
        <ele>1773.8</ele>
        <time>2021-08-06T08:05:45Z</time>
      </trkpt>
      <trkpt lat="42.85911" lon="-0.22605">
        <ele>1775.4</ele>
        <time>2021-08-06T08:05:50Z</time>
      </trkpt>
      <trkpt lat="42.85918" lon="-0.22568">
        <ele>1778.1</ele>
        <time>2021-08-06T08:06:15Z</time>
      </trkpt>
      <trkpt lat="42.85924" lon="-0.22558">
        <ele>1778</ele>
        <time>2021-08-06T08:06:22Z</time>
      </trkpt>
      <trkpt lat="42.85917" lon="-0.22558">
        <ele>1777.9</ele>
        <time>2021-08-06T08:06:47Z</time>
      </trkpt>
      <trkpt lat="42.85916" lon="-0.22563">
        <ele>1781.1</ele>
        <time>2021-08-06T08:07:06Z</time>
      </trkpt>
      <trkpt lat="42.85916" lon="-0.22567">
        <ele>1781.4</ele>
        <time>2021-08-06T08:07:08Z</time>
      </trkpt>
      <trkpt lat="42.85917" lon="-0.22571">
        <ele>1783</ele>
        <time>2021-08-06T08:07:17Z</time>
      </trkpt>
      <trkpt lat="42.85908" lon="-0.22562">
        <ele>1785</ele>
        <time>2021-08-06T08:07:25Z</time>
      </trkpt>
      <trkpt lat="42.85907" lon="-0.22563">
        <ele>1785.7</ele>
        <time>2021-08-06T08:07:28Z</time>
      </trkpt>
      <trkpt lat="42.85906" lon="-0.22559">
        <ele>1788.7</ele>
        <time>2021-08-06T08:07:41Z</time>
      </trkpt>
      <trkpt lat="42.85904" lon="-0.22552">
        <ele>1791.5</ele>
        <time>2021-08-06T08:07:59Z</time>
      </trkpt>
      <trkpt lat="42.85902" lon="-0.22546">
        <ele>1794.6</ele>
        <time>2021-08-06T08:08:31Z</time>
      </trkpt>
      <trkpt lat="42.85892" lon="-0.2253">
        <ele>1797.7</ele>
        <time>2021-08-06T08:08:51Z</time>
      </trkpt>
      <trkpt lat="42.85885" lon="-0.22524">
        <ele>1800.9</ele>
        <time>2021-08-06T08:09:06Z</time>
      </trkpt>
      <trkpt lat="42.85878" lon="-0.22526">
        <ele>1803.3</ele>
        <time>2021-08-06T08:09:28Z</time>
      </trkpt>
      <trkpt lat="42.8588" lon="-0.22527">
        <ele>1802.5</ele>
        <time>2021-08-06T08:10:10Z</time>
      </trkpt>
      <trkpt lat="42.85879" lon="-0.22528">
        <ele>1802.5</ele>
        <time>2021-08-06T08:10:17Z</time>
      </trkpt>
      <trkpt lat="42.85872" lon="-0.2252">
        <ele>1802.8</ele>
        <time>2021-08-06T08:10:32Z</time>
      </trkpt>
      <trkpt lat="42.85872" lon="-0.22516">
        <ele>1806</ele>
        <time>2021-08-06T08:10:47Z</time>
      </trkpt>
      <trkpt lat="42.85878" lon="-0.22521">
        <ele>1807.8</ele>
        <time>2021-08-06T08:11:14Z</time>
      </trkpt>
      <trkpt lat="42.85889" lon="-0.2251">
        <ele>1810.8</ele>
        <time>2021-08-06T08:11:35Z</time>
      </trkpt>
      <trkpt lat="42.85888" lon="-0.22508">
        <ele>1811.3</ele>
        <time>2021-08-06T08:11:40Z</time>
      </trkpt>
      <trkpt lat="42.85887" lon="-0.22509">
        <ele>1811.3</ele>
        <time>2021-08-06T08:11:41Z</time>
      </trkpt>
      <trkpt lat="42.85884" lon="-0.22513">
        <ele>1811.8</ele>
        <time>2021-08-06T08:12:13Z</time>
      </trkpt>
      <trkpt lat="42.8589" lon="-0.2251">
        <ele>1813.7</ele>
        <time>2021-08-06T08:12:40Z</time>
      </trkpt>
      <trkpt lat="42.85887" lon="-0.22498">
        <ele>1816.4</ele>
        <time>2021-08-06T08:12:55Z</time>
      </trkpt>
      <trkpt lat="42.85882" lon="-0.22497">
        <ele>1818.6</ele>
        <time>2021-08-06T08:13:21Z</time>
      </trkpt>
      <trkpt lat="42.85881" lon="-0.225">
        <ele>1818.1</ele>
        <time>2021-08-06T08:13:40Z</time>
      </trkpt>
      <trkpt lat="42.85878" lon="-0.22497">
        <ele>1817.7</ele>
        <time>2021-08-06T08:13:59Z</time>
      </trkpt>
      <trkpt lat="42.85877" lon="-0.22495">
        <ele>1817.9</ele>
        <time>2021-08-06T08:14:39Z</time>
      </trkpt>
      <trkpt lat="42.8587" lon="-0.22494">
        <ele>1819.9</ele>
        <time>2021-08-06T08:15:08Z</time>
      </trkpt>
      <trkpt lat="42.85874" lon="-0.225">
        <ele>1817.7</ele>
        <time>2021-08-06T08:15:33Z</time>
      </trkpt>
      <trkpt lat="42.85875" lon="-0.22491">
        <ele>1817.7</ele>
        <time>2021-08-06T08:16:03Z</time>
      </trkpt>
      <trkpt lat="42.85875" lon="-0.22489">
        <ele>1820.2</ele>
        <time>2021-08-06T08:16:39Z</time>
      </trkpt>
      <trkpt lat="42.85872" lon="-0.22486">
        <ele>1821.7</ele>
        <time>2021-08-06T08:16:58Z</time>
      </trkpt>
      <trkpt lat="42.85874" lon="-0.22484">
        <ele>1823.2</ele>
        <time>2021-08-06T08:17:24Z</time>
      </trkpt>
      <trkpt lat="42.85872" lon="-0.22482">
        <ele>1825</ele>
        <time>2021-08-06T08:18:03Z</time>
      </trkpt>
      <trkpt lat="42.85874" lon="-0.22481">
        <ele>1822.4</ele>
        <time>2021-08-06T08:18:40Z</time>
      </trkpt>
      <trkpt lat="42.85876" lon="-0.22478">
        <ele>1824</ele>
        <time>2021-08-06T08:19:11Z</time>
      </trkpt>
      <trkpt lat="42.85879" lon="-0.22472">
        <ele>1824</ele>
        <time>2021-08-06T08:19:32Z</time>
      </trkpt>
      <trkpt lat="42.85882" lon="-0.2246">
        <ele>1824</ele>
        <time>2021-08-06T08:19:51Z</time>
      </trkpt>
      <trkpt lat="42.85883" lon="-0.22458">
        <ele>1824</ele>
        <time>2021-08-06T08:20:14Z</time>
      </trkpt>
      <trkpt lat="42.85883" lon="-0.22458">
        <ele>1828.4</ele>
        <time>2021-08-06T08:20:32Z</time>
      </trkpt>
      <trkpt lat="42.85883" lon="-0.22458">
        <ele>1828.4</ele>
        <time>2021-08-06T08:20:33Z</time>
      </trkpt>
      <trkpt lat="42.85881" lon="-0.22454">
        <ele>1828.4</ele>
        <time>2021-08-06T08:20:50Z</time>
      </trkpt>
      <trkpt lat="42.8588" lon="-0.22452">
        <ele>1828.4</ele>
        <time>2021-08-06T08:20:51Z</time>
      </trkpt>
      <trkpt lat="42.85884" lon="-0.22442">
        <ele>1830.3</ele>
        <time>2021-08-06T08:21:08Z</time>
      </trkpt>
      <trkpt lat="42.85889" lon="-0.22424">
        <ele>1833.5</ele>
        <time>2021-08-06T08:21:23Z</time>
      </trkpt>
      <trkpt lat="42.85884" lon="-0.22413">
        <ele>1835.6</ele>
        <time>2021-08-06T08:21:31Z</time>
      </trkpt>
      <trkpt lat="42.85879" lon="-0.22406">
        <ele>1838.6</ele>
        <time>2021-08-06T08:21:41Z</time>
      </trkpt>
      <trkpt lat="42.85872" lon="-0.22391">
        <ele>1841.8</ele>
        <time>2021-08-06T08:21:54Z</time>
      </trkpt>
      <trkpt lat="42.85867" lon="-0.2238">
        <ele>1845</ele>
        <time>2021-08-06T08:22:07Z</time>
      </trkpt>
      <trkpt lat="42.85878" lon="-0.22385">
        <ele>1848.1</ele>
        <time>2021-08-06T08:22:23Z</time>
      </trkpt>
      <trkpt lat="42.85883" lon="-0.22373">
        <ele>1851.2</ele>
        <time>2021-08-06T08:22:41Z</time>
      </trkpt>
      <trkpt lat="42.85879" lon="-0.22358">
        <ele>1854.2</ele>
        <time>2021-08-06T08:23:01Z</time>
      </trkpt>
      <trkpt lat="42.8587" lon="-0.22346">
        <ele>1854.3</ele>
        <time>2021-08-06T08:23:21Z</time>
      </trkpt>
      <trkpt lat="42.85857" lon="-0.22335">
        <ele>1852.3</ele>
        <time>2021-08-06T08:23:43Z</time>
      </trkpt>
      <trkpt lat="42.85845" lon="-0.22329">
        <ele>1849.6</ele>
        <time>2021-08-06T08:24:02Z</time>
      </trkpt>
      <trkpt lat="42.85839" lon="-0.22333">
        <ele>1846.4</ele>
        <time>2021-08-06T08:24:14Z</time>
      </trkpt>
      <trkpt lat="42.85835" lon="-0.22335">
        <ele>1843.3</ele>
        <time>2021-08-06T08:24:24Z</time>
      </trkpt>
      <trkpt lat="42.85828" lon="-0.22332">
        <ele>1840.3</ele>
        <time>2021-08-06T08:24:35Z</time>
      </trkpt>
      <trkpt lat="42.85819" lon="-0.22337">
        <ele>1838.1</ele>
        <time>2021-08-06T08:25:06Z</time>
      </trkpt>
      <trkpt lat="42.85818" lon="-0.22336">
        <ele>1837.7</ele>
        <time>2021-08-06T08:25:08Z</time>
      </trkpt>
      <trkpt lat="42.85813" lon="-0.22329">
        <ele>1836.8</ele>
        <time>2021-08-06T08:25:16Z</time>
      </trkpt>
      <trkpt lat="42.85803" lon="-0.22314">
        <ele>1836.7</ele>
        <time>2021-08-06T08:25:39Z</time>
      </trkpt>
      <trkpt lat="42.85795" lon="-0.22309">
        <ele>1838.1</ele>
        <time>2021-08-06T08:25:59Z</time>
      </trkpt>
      <trkpt lat="42.85784" lon="-0.22306">
        <ele>1840.6</ele>
        <time>2021-08-06T08:26:21Z</time>
      </trkpt>
      <trkpt lat="42.85778" lon="-0.22292">
        <ele>1842.5</ele>
        <time>2021-08-06T08:26:39Z</time>
      </trkpt>
      <trkpt lat="42.85777" lon="-0.22291">
        <ele>1842.7</ele>
        <time>2021-08-06T08:26:47Z</time>
      </trkpt>
      <trkpt lat="42.85776" lon="-0.22289">
        <ele>1842.9</ele>
        <time>2021-08-06T08:26:49Z</time>
      </trkpt>
      <trkpt lat="42.85769" lon="-0.22278">
        <ele>1845.1</ele>
        <time>2021-08-06T08:27:08Z</time>
      </trkpt>
      <trkpt lat="42.8576" lon="-0.22271">
        <ele>1846.8</ele>
        <time>2021-08-06T08:27:26Z</time>
      </trkpt>
      <trkpt lat="42.8575" lon="-0.22267">
        <ele>1848.1</ele>
        <time>2021-08-06T08:27:44Z</time>
      </trkpt>
      <trkpt lat="42.85749" lon="-0.22264">
        <ele>1849.2</ele>
        <time>2021-08-06T08:28:05Z</time>
      </trkpt>
      <trkpt lat="42.85744" lon="-0.22254">
        <ele>1850.8</ele>
        <time>2021-08-06T08:28:28Z</time>
      </trkpt>
      <trkpt lat="42.85744" lon="-0.2225">
        <ele>1851.4</ele>
        <time>2021-08-06T08:28:42Z</time>
      </trkpt>
      <trkpt lat="42.85739" lon="-0.22238">
        <ele>1852.9</ele>
        <time>2021-08-06T08:29:02Z</time>
      </trkpt>
      <trkpt lat="42.85732" lon="-0.22244">
        <ele>1853.8</ele>
        <time>2021-08-06T08:29:19Z</time>
      </trkpt>
      <trkpt lat="42.85726" lon="-0.22241">
        <ele>1855.1</ele>
        <time>2021-08-06T08:29:38Z</time>
      </trkpt>
      <trkpt lat="42.85724" lon="-0.22236">
        <ele>1858.2</ele>
        <time>2021-08-06T08:30:01Z</time>
      </trkpt>
      <trkpt lat="42.85717" lon="-0.2222">
        <ele>1861.2</ele>
        <time>2021-08-06T08:30:19Z</time>
      </trkpt>
      <trkpt lat="42.85711" lon="-0.22216">
        <ele>1864.3</ele>
        <time>2021-08-06T08:30:35Z</time>
      </trkpt>
      <trkpt lat="42.85711" lon="-0.22208">
        <ele>1867.2</ele>
        <time>2021-08-06T08:30:53Z</time>
      </trkpt>
      <trkpt lat="42.85713" lon="-0.2221">
        <ele>1866.9</ele>
        <time>2021-08-06T08:31:16Z</time>
      </trkpt>
      <trkpt lat="42.85718" lon="-0.22204">
        <ele>1866.3</ele>
        <time>2021-08-06T08:31:34Z</time>
      </trkpt>
      <trkpt lat="42.85716" lon="-0.222">
        <ele>1868</ele>
        <time>2021-08-06T08:32:01Z</time>
      </trkpt>
      <trkpt lat="42.85718" lon="-0.22191">
        <ele>1870.1</ele>
        <time>2021-08-06T08:32:17Z</time>
      </trkpt>
      <trkpt lat="42.85714" lon="-0.22187">
        <ele>1873.3</ele>
        <time>2021-08-06T08:32:28Z</time>
      </trkpt>
      <trkpt lat="42.85713" lon="-0.22186">
        <ele>1876.2</ele>
        <time>2021-08-06T08:32:52Z</time>
      </trkpt>
      <trkpt lat="42.85702" lon="-0.22182">
        <ele>1877.1</ele>
        <time>2021-08-06T08:33:16Z</time>
      </trkpt>
      <trkpt lat="42.85697" lon="-0.22175">
        <ele>1880.1</ele>
        <time>2021-08-06T08:33:29Z</time>
      </trkpt>
      <trkpt lat="42.85693" lon="-0.22158">
        <ele>1882.4</ele>
        <time>2021-08-06T08:33:49Z</time>
      </trkpt>
      <trkpt lat="42.85686" lon="-0.22149">
        <ele>1884.4</ele>
        <time>2021-08-06T08:34:08Z</time>
      </trkpt>
      <trkpt lat="42.85676" lon="-0.22139">
        <ele>1887.5</ele>
        <time>2021-08-06T08:34:25Z</time>
      </trkpt>
      <trkpt lat="42.85669" lon="-0.22136">
        <ele>1890.7</ele>
        <time>2021-08-06T08:34:38Z</time>
      </trkpt>
      <trkpt lat="42.85654" lon="-0.22129">
        <ele>1893.7</ele>
        <time>2021-08-06T08:35:01Z</time>
      </trkpt>
      <trkpt lat="42.8564" lon="-0.22119">
        <ele>1896.8</ele>
        <time>2021-08-06T08:35:25Z</time>
      </trkpt>
      <trkpt lat="42.85633" lon="-0.22118">
        <ele>1899.9</ele>
        <time>2021-08-06T08:35:41Z</time>
      </trkpt>
      <trkpt lat="42.85627" lon="-0.22112">
        <ele>1902.9</ele>
        <time>2021-08-06T08:36:01Z</time>
      </trkpt>
      <trkpt lat="42.85614" lon="-0.22117">
        <ele>1905.8</ele>
        <time>2021-08-06T08:36:24Z</time>
      </trkpt>
      <trkpt lat="42.85604" lon="-0.22118">
        <ele>1908.1</ele>
        <time>2021-08-06T08:36:45Z</time>
      </trkpt>
      <trkpt lat="42.85592" lon="-0.22125">
        <ele>1911</ele>
        <time>2021-08-06T08:37:06Z</time>
      </trkpt>
      <trkpt lat="42.85589" lon="-0.22127">
        <ele>1913.2</ele>
        <time>2021-08-06T08:37:36Z</time>
      </trkpt>
      <trkpt lat="42.85588" lon="-0.22128">
        <ele>1914.3</ele>
        <time>2021-08-06T08:38:14Z</time>
      </trkpt>
      <trkpt lat="42.85579" lon="-0.22129">
        <ele>1915.1</ele>
        <time>2021-08-06T08:38:34Z</time>
      </trkpt>
      <trkpt lat="42.85577" lon="-0.22131">
        <ele>1914.6</ele>
        <time>2021-08-06T08:39:03Z</time>
      </trkpt>
      <trkpt lat="42.85576" lon="-0.22132">
        <ele>1914</ele>
        <time>2021-08-06T08:39:09Z</time>
      </trkpt>
      <trkpt lat="42.85567" lon="-0.22132">
        <ele>1914.3</ele>
        <time>2021-08-06T08:39:23Z</time>
      </trkpt>
      <trkpt lat="42.8556" lon="-0.22132">
        <ele>1915.7</ele>
        <time>2021-08-06T08:39:31Z</time>
      </trkpt>
      <trkpt lat="42.8555" lon="-0.2213">
        <ele>1919.2</ele>
        <time>2021-08-06T08:39:46Z</time>
      </trkpt>
      <trkpt lat="42.85541" lon="-0.22133">
        <ele>1922.2</ele>
        <time>2021-08-06T08:40:01Z</time>
      </trkpt>
      <trkpt lat="42.85534" lon="-0.22128">
        <ele>1924.5</ele>
        <time>2021-08-06T08:40:23Z</time>
      </trkpt>
      <trkpt lat="42.8552" lon="-0.22126">
        <ele>1926.7</ele>
        <time>2021-08-06T08:40:44Z</time>
      </trkpt>
      <trkpt lat="42.85514" lon="-0.2213">
        <ele>1927.6</ele>
        <time>2021-08-06T08:41:00Z</time>
      </trkpt>
      <trkpt lat="42.85502" lon="-0.22121">
        <ele>1929.1</ele>
        <time>2021-08-06T08:41:20Z</time>
      </trkpt>
      <trkpt lat="42.85483" lon="-0.22115">
        <ele>1931.1</ele>
        <time>2021-08-06T08:41:44Z</time>
      </trkpt>
      <trkpt lat="42.85467" lon="-0.2211">
        <ele>1933.8</ele>
        <time>2021-08-06T08:42:06Z</time>
      </trkpt>
      <trkpt lat="42.8546" lon="-0.221">
        <ele>1936.8</ele>
        <time>2021-08-06T08:42:22Z</time>
      </trkpt>
      <trkpt lat="42.85451" lon="-0.22096">
        <ele>1939.8</ele>
        <time>2021-08-06T08:42:37Z</time>
      </trkpt>
      <trkpt lat="42.85443" lon="-0.22089">
        <ele>1942.9</ele>
        <time>2021-08-06T08:42:52Z</time>
      </trkpt>
      <trkpt lat="42.85425" lon="-0.22092">
        <ele>1945.9</ele>
        <time>2021-08-06T08:43:18Z</time>
      </trkpt>
      <trkpt lat="42.85408" lon="-0.22095">
        <ele>1947.5</ele>
        <time>2021-08-06T08:43:40Z</time>
      </trkpt>
      <trkpt lat="42.85399" lon="-0.22097">
        <ele>1949.4</ele>
        <time>2021-08-06T08:43:59Z</time>
      </trkpt>
      <trkpt lat="42.85387" lon="-0.22095">
        <ele>1950.3</ele>
        <time>2021-08-06T08:44:21Z</time>
      </trkpt>
      <trkpt lat="42.85374" lon="-0.22088">
        <ele>1953.4</ele>
        <time>2021-08-06T08:44:40Z</time>
      </trkpt>
      <trkpt lat="42.85363" lon="-0.22086">
        <ele>1956.5</ele>
        <time>2021-08-06T08:44:54Z</time>
      </trkpt>
      <trkpt lat="42.85352" lon="-0.2208">
        <ele>1959.6</ele>
        <time>2021-08-06T08:45:12Z</time>
      </trkpt>
      <trkpt lat="42.85337" lon="-0.22083">
        <ele>1962.6</ele>
        <time>2021-08-06T08:45:34Z</time>
      </trkpt>
      <trkpt lat="42.8534" lon="-0.22082">
        <ele>1963.3</ele>
        <time>2021-08-06T08:46:00Z</time>
      </trkpt>
      <trkpt lat="42.85332" lon="-0.22083">
        <ele>1964.3</ele>
        <time>2021-08-06T08:46:25Z</time>
      </trkpt>
      <trkpt lat="42.85316" lon="-0.22089">
        <ele>1966.3</ele>
        <time>2021-08-06T08:46:50Z</time>
      </trkpt>
      <trkpt lat="42.85302" lon="-0.22093">
        <ele>1969.4</ele>
        <time>2021-08-06T08:47:10Z</time>
      </trkpt>
      <trkpt lat="42.85294" lon="-0.22087">
        <ele>1972.5</ele>
        <time>2021-08-06T08:47:32Z</time>
      </trkpt>
      <trkpt lat="42.85282" lon="-0.22081">
        <ele>1975.6</ele>
        <time>2021-08-06T08:47:52Z</time>
      </trkpt>
      <trkpt lat="42.85271" lon="-0.22077">
        <ele>1978.6</ele>
        <time>2021-08-06T08:48:12Z</time>
      </trkpt>
      <trkpt lat="42.85262" lon="-0.22072">
        <ele>1981.7</ele>
        <time>2021-08-06T08:48:32Z</time>
      </trkpt>
      <trkpt lat="42.85254" lon="-0.22072">
        <ele>1984.7</ele>
        <time>2021-08-06T08:48:53Z</time>
      </trkpt>
      <trkpt lat="42.85252" lon="-0.2207">
        <ele>1985.4</ele>
        <time>2021-08-06T08:49:36Z</time>
      </trkpt>
      <trkpt lat="42.85251" lon="-0.2207">
        <ele>1985.7</ele>
        <time>2021-08-06T08:50:17Z</time>
      </trkpt>
      <trkpt lat="42.85251" lon="-0.22069">
        <ele>1987.1</ele>
        <time>2021-08-06T08:50:54Z</time>
      </trkpt>
      <trkpt lat="42.85251" lon="-0.22069">
        <ele>1987.1</ele>
        <time>2021-08-06T08:51:36Z</time>
      </trkpt>
      <trkpt lat="42.85252" lon="-0.22069">
        <ele>1987.1</ele>
        <time>2021-08-06T08:52:27Z</time>
      </trkpt>
      <trkpt lat="42.85244" lon="-0.22067">
        <ele>1987.1</ele>
        <time>2021-08-06T08:52:57Z</time>
      </trkpt>
      <trkpt lat="42.85232" lon="-0.22068">
        <ele>1987.1</ele>
        <time>2021-08-06T08:53:19Z</time>
      </trkpt>
      <trkpt lat="42.85217" lon="-0.22065">
        <ele>1987.1</ele>
        <time>2021-08-06T08:53:44Z</time>
      </trkpt>
      <trkpt lat="42.85214" lon="-0.22061">
        <ele>1995.1</ele>
        <time>2021-08-06T08:53:51Z</time>
      </trkpt>
      <trkpt lat="42.85213" lon="-0.22061">
        <ele>1995</ele>
        <time>2021-08-06T08:53:52Z</time>
      </trkpt>
      <trkpt lat="42.85195" lon="-0.22049">
        <ele>1998</ele>
        <time>2021-08-06T08:54:22Z</time>
      </trkpt>
      <trkpt lat="42.85184" lon="-0.22039">
        <ele>1999.5</ele>
        <time>2021-08-06T08:54:45Z</time>
      </trkpt>
      <trkpt lat="42.85175" lon="-0.22036">
        <ele>2002.5</ele>
        <time>2021-08-06T08:55:03Z</time>
      </trkpt>
      <trkpt lat="42.85165" lon="-0.22029">
        <ele>2004.3</ele>
        <time>2021-08-06T08:55:25Z</time>
      </trkpt>
      <trkpt lat="42.8515" lon="-0.22018">
        <ele>2006.3</ele>
        <time>2021-08-06T08:55:52Z</time>
      </trkpt>
      <trkpt lat="42.85143" lon="-0.22015">
        <ele>2008.2</ele>
        <time>2021-08-06T08:56:13Z</time>
      </trkpt>
      <trkpt lat="42.85143" lon="-0.22014">
        <ele>2006.6</ele>
        <time>2021-08-06T08:56:46Z</time>
      </trkpt>
      <trkpt lat="42.85138" lon="-0.22024">
        <ele>2008.3</ele>
        <time>2021-08-06T08:57:04Z</time>
      </trkpt>
      <trkpt lat="42.85131" lon="-0.22036">
        <ele>2011.4</ele>
        <time>2021-08-06T08:57:21Z</time>
      </trkpt>
      <trkpt lat="42.85127" lon="-0.22042">
        <ele>2013.6</ele>
        <time>2021-08-06T08:57:39Z</time>
      </trkpt>
      <trkpt lat="42.85118" lon="-0.2205">
        <ele>2014.6</ele>
        <time>2021-08-06T08:57:55Z</time>
      </trkpt>
      <trkpt lat="42.85098" lon="-0.22056">
        <ele>2017.8</ele>
        <time>2021-08-06T08:58:18Z</time>
      </trkpt>
      <trkpt lat="42.85085" lon="-0.22063">
        <ele>2021</ele>
        <time>2021-08-06T08:58:37Z</time>
      </trkpt>
      <trkpt lat="42.85072" lon="-0.22067">
        <ele>2023.2</ele>
        <time>2021-08-06T08:58:57Z</time>
      </trkpt>
      <trkpt lat="42.85066" lon="-0.22067">
        <ele>2023.3</ele>
        <time>2021-08-06T08:59:18Z</time>
      </trkpt>
      <trkpt lat="42.85066" lon="-0.22067">
        <ele>2021.7</ele>
        <time>2021-08-06T08:59:44Z</time>
      </trkpt>
      <trkpt lat="42.85066" lon="-0.22067">
        <ele>2020.9</ele>
        <time>2021-08-06T09:00:25Z</time>
      </trkpt>
      <trkpt lat="42.85057" lon="-0.22065">
        <ele>2020.9</ele>
        <time>2021-08-06T09:00:51Z</time>
      </trkpt>
      <trkpt lat="42.85044" lon="-0.2207">
        <ele>2024.2</ele>
        <time>2021-08-06T09:01:09Z</time>
      </trkpt>
      <trkpt lat="42.85039" lon="-0.2207">
        <ele>2027.2</ele>
        <time>2021-08-06T09:01:22Z</time>
      </trkpt>
      <trkpt lat="42.85033" lon="-0.22077">
        <ele>2030.3</ele>
        <time>2021-08-06T09:01:35Z</time>
      </trkpt>
      <trkpt lat="42.8503" lon="-0.22096">
        <ele>2033.4</ele>
        <time>2021-08-06T09:01:54Z</time>
      </trkpt>
      <trkpt lat="42.85023" lon="-0.22107">
        <ele>2036.5</ele>
        <time>2021-08-06T09:02:09Z</time>
      </trkpt>
      <trkpt lat="42.85018" lon="-0.22114">
        <ele>2039.5</ele>
        <time>2021-08-06T09:02:25Z</time>
      </trkpt>
      <trkpt lat="42.85011" lon="-0.22118">
        <ele>2042.5</ele>
        <time>2021-08-06T09:02:40Z</time>
      </trkpt>
      <trkpt lat="42.85011" lon="-0.22119">
        <ele>2044.6</ele>
        <time>2021-08-06T09:03:05Z</time>
      </trkpt>
      <trkpt lat="42.85011" lon="-0.22119">
        <ele>2045.2</ele>
        <time>2021-08-06T09:03:27Z</time>
      </trkpt>
      <trkpt lat="42.8501" lon="-0.22121">
        <ele>2046</ele>
        <time>2021-08-06T09:03:51Z</time>
      </trkpt>
      <trkpt lat="42.85007" lon="-0.22128">
        <ele>2045.7</ele>
        <time>2021-08-06T09:04:37Z</time>
      </trkpt>
      <trkpt lat="42.85008" lon="-0.22135">
        <ele>2045.7</ele>
        <time>2021-08-06T09:05:04Z</time>
      </trkpt>
      <trkpt lat="42.85005" lon="-0.22141">
        <ele>2053.1</ele>
        <time>2021-08-06T09:05:28Z</time>
      </trkpt>
      <trkpt lat="42.85004" lon="-0.22142">
        <ele>2053.4</ele>
        <time>2021-08-06T09:05:29Z</time>
      </trkpt>
      <trkpt lat="42.84999" lon="-0.22146">
        <ele>2056.5</ele>
        <time>2021-08-06T09:05:49Z</time>
      </trkpt>
      <trkpt lat="42.84994" lon="-0.22147">
        <ele>2059.6</ele>
        <time>2021-08-06T09:06:03Z</time>
      </trkpt>
      <trkpt lat="42.84995" lon="-0.22151">
        <ele>2061.9</ele>
        <time>2021-08-06T09:06:27Z</time>
      </trkpt>
      <trkpt lat="42.84995" lon="-0.2215">
        <ele>2061.8</ele>
        <time>2021-08-06T09:06:59Z</time>
      </trkpt>
      <trkpt lat="42.84987" lon="-0.22152">
        <ele>2062.1</ele>
        <time>2021-08-06T09:07:17Z</time>
      </trkpt>
      <trkpt lat="42.84982" lon="-0.22159">
        <ele>2063.3</ele>
        <time>2021-08-06T09:07:37Z</time>
      </trkpt>
      <trkpt lat="42.8498" lon="-0.22174">
        <ele>2064.4</ele>
        <time>2021-08-06T09:08:00Z</time>
      </trkpt>
      <trkpt lat="42.84981" lon="-0.22185">
        <ele>2063.6</ele>
        <time>2021-08-06T09:08:20Z</time>
      </trkpt>
      <trkpt lat="42.84984" lon="-0.22188">
        <ele>2064.6</ele>
        <time>2021-08-06T09:08:39Z</time>
      </trkpt>
      <trkpt lat="42.84984" lon="-0.22188">
        <ele>2063.7</ele>
        <time>2021-08-06T09:09:13Z</time>
      </trkpt>
      <trkpt lat="42.84987" lon="-0.222">
        <ele>2064.5</ele>
        <time>2021-08-06T09:09:34Z</time>
      </trkpt>
      <trkpt lat="42.84988" lon="-0.22214">
        <ele>2064.5</ele>
        <time>2021-08-06T09:09:54Z</time>
      </trkpt>
      <trkpt lat="42.8499" lon="-0.22218">
        <ele>2064.5</ele>
        <time>2021-08-06T09:10:19Z</time>
      </trkpt>
      <trkpt lat="42.8499" lon="-0.22218">
        <ele>2067</ele>
        <time>2021-08-06T09:10:34Z</time>
      </trkpt>
      <trkpt lat="42.84992" lon="-0.22224">
        <ele>2066.6</ele>
        <time>2021-08-06T09:10:56Z</time>
      </trkpt>
      <trkpt lat="42.84992" lon="-0.22229">
        <ele>2066.1</ele>
        <time>2021-08-06T09:11:16Z</time>
      </trkpt>
      <trkpt lat="42.84992" lon="-0.22229">
        <ele>2066</ele>
        <time>2021-08-06T09:11:17Z</time>
      </trkpt>
      <trkpt lat="42.84995" lon="-0.2224">
        <ele>2065.5</ele>
        <time>2021-08-06T09:11:35Z</time>
      </trkpt>
      <trkpt lat="42.84995" lon="-0.22248">
        <ele>2064.6</ele>
        <time>2021-08-06T09:11:55Z</time>
      </trkpt>
      <trkpt lat="42.84995" lon="-0.22257">
        <ele>2062.2</ele>
        <time>2021-08-06T09:12:15Z</time>
      </trkpt>
      <trkpt lat="42.84994" lon="-0.22268">
        <ele>2061.8</ele>
        <time>2021-08-06T09:12:39Z</time>
      </trkpt>
      <trkpt lat="42.84991" lon="-0.22281">
        <ele>2060.6</ele>
        <time>2021-08-06T09:12:59Z</time>
      </trkpt>
      <trkpt lat="42.84995" lon="-0.22292">
        <ele>2059.4</ele>
        <time>2021-08-06T09:13:19Z</time>
      </trkpt>
      <trkpt lat="42.84995" lon="-0.22293">
        <ele>2057.6</ele>
        <time>2021-08-06T09:13:57Z</time>
      </trkpt>
      <trkpt lat="42.84995" lon="-0.22298">
        <ele>2059</ele>
        <time>2021-08-06T09:14:43Z</time>
      </trkpt>
      <trkpt lat="42.84996" lon="-0.22305">
        <ele>2059</ele>
        <time>2021-08-06T09:15:05Z</time>
      </trkpt>
      <trkpt lat="42.84997" lon="-0.22317">
        <ele>2059</ele>
        <time>2021-08-06T09:15:26Z</time>
      </trkpt>
      <trkpt lat="42.85" lon="-0.22331">
        <ele>2059.2</ele>
        <time>2021-08-06T09:15:50Z</time>
      </trkpt>
      <trkpt lat="42.85" lon="-0.22343">
        <ele>2061.3</ele>
        <time>2021-08-06T09:16:13Z</time>
      </trkpt>
      <trkpt lat="42.85" lon="-0.22344">
        <ele>2058.5</ele>
        <time>2021-08-06T09:16:50Z</time>
      </trkpt>
      <trkpt lat="42.85003" lon="-0.22352">
        <ele>2059.8</ele>
        <time>2021-08-06T09:17:24Z</time>
      </trkpt>
      <trkpt lat="42.85002" lon="-0.22351">
        <ele>2060.1</ele>
        <time>2021-08-06T09:18:05Z</time>
      </trkpt>
      <trkpt lat="42.84996" lon="-0.22356">
        <ele>2060.6</ele>
        <time>2021-08-06T09:18:36Z</time>
      </trkpt>
      <trkpt lat="42.84992" lon="-0.22369">
        <ele>2063.7</ele>
        <time>2021-08-06T09:18:52Z</time>
      </trkpt>
      <trkpt lat="42.84987" lon="-0.2238">
        <ele>2066.9</ele>
        <time>2021-08-06T09:19:06Z</time>
      </trkpt>
      <trkpt lat="42.84983" lon="-0.22391">
        <ele>2070</ele>
        <time>2021-08-06T09:19:22Z</time>
      </trkpt>
      <trkpt lat="42.84979" lon="-0.22401">
        <ele>2073</ele>
        <time>2021-08-06T09:19:40Z</time>
      </trkpt>
      <trkpt lat="42.84977" lon="-0.22411">
        <ele>2075.6</ele>
        <time>2021-08-06T09:19:58Z</time>
      </trkpt>
      <trkpt lat="42.84975" lon="-0.22418">
        <ele>2078.7</ele>
        <time>2021-08-06T09:20:17Z</time>
      </trkpt>
      <trkpt lat="42.84977" lon="-0.22426">
        <ele>2081.8</ele>
        <time>2021-08-06T09:20:37Z</time>
      </trkpt>
      <trkpt lat="42.84974" lon="-0.22433">
        <ele>2084.9</ele>
        <time>2021-08-06T09:20:52Z</time>
      </trkpt>
      <trkpt lat="42.84972" lon="-0.22437">
        <ele>2088.1</ele>
        <time>2021-08-06T09:21:11Z</time>
      </trkpt>
      <trkpt lat="42.84969" lon="-0.22443">
        <ele>2091.1</ele>
        <time>2021-08-06T09:21:28Z</time>
      </trkpt>
      <trkpt lat="42.84963" lon="-0.2245">
        <ele>2094.1</ele>
        <time>2021-08-06T09:21:44Z</time>
      </trkpt>
      <trkpt lat="42.84962" lon="-0.22457">
        <ele>2097.2</ele>
        <time>2021-08-06T09:22:04Z</time>
      </trkpt>
      <trkpt lat="42.84962" lon="-0.22459">
        <ele>2097</ele>
        <time>2021-08-06T09:22:33Z</time>
      </trkpt>
      <trkpt lat="42.84962" lon="-0.2246">
        <ele>2097</ele>
        <time>2021-08-06T09:23:26Z</time>
      </trkpt>
      <trkpt lat="42.84962" lon="-0.22458">
        <ele>2096</ele>
        <time>2021-08-06T09:24:03Z</time>
      </trkpt>
      <trkpt lat="42.84962" lon="-0.22458">
        <ele>2096</ele>
        <time>2021-08-06T09:24:53Z</time>
      </trkpt>
      <trkpt lat="42.84961" lon="-0.2246">
        <ele>2096</ele>
        <time>2021-08-06T09:25:31Z</time>
      </trkpt>
      <trkpt lat="42.84961" lon="-0.22466">
        <ele>2099.7</ele>
        <time>2021-08-06T09:25:46Z</time>
      </trkpt>
      <trkpt lat="42.84962" lon="-0.22467">
        <ele>2099.9</ele>
        <time>2021-08-06T09:25:47Z</time>
      </trkpt>
      <trkpt lat="42.84966" lon="-0.22475">
        <ele>2103</ele>
        <time>2021-08-06T09:26:05Z</time>
      </trkpt>
      <trkpt lat="42.84965" lon="-0.22483">
        <ele>2106</ele>
        <time>2021-08-06T09:26:19Z</time>
      </trkpt>
      <trkpt lat="42.84966" lon="-0.22495">
        <ele>2109.1</ele>
        <time>2021-08-06T09:26:39Z</time>
      </trkpt>
      <trkpt lat="42.84966" lon="-0.22504">
        <ele>2112.2</ele>
        <time>2021-08-06T09:26:58Z</time>
      </trkpt>
      <trkpt lat="42.84968" lon="-0.22507">
        <ele>2113.8</ele>
        <time>2021-08-06T09:27:08Z</time>
      </trkpt>
      <trkpt lat="42.84972" lon="-0.22511">
        <ele>2115.9</ele>
        <time>2021-08-06T09:27:41Z</time>
      </trkpt>
      <trkpt lat="42.84971" lon="-0.22507">
        <ele>2118.9</ele>
        <time>2021-08-06T09:28:06Z</time>
      </trkpt>
      <trkpt lat="42.84966" lon="-0.2251">
        <ele>2122.1</ele>
        <time>2021-08-06T09:28:23Z</time>
      </trkpt>
      <trkpt lat="42.8496" lon="-0.22513">
        <ele>2125.3</ele>
        <time>2021-08-06T09:28:39Z</time>
      </trkpt>
      <trkpt lat="42.84954" lon="-0.22517">
        <ele>2128.5</ele>
        <time>2021-08-06T09:28:53Z</time>
      </trkpt>
      <trkpt lat="42.84949" lon="-0.22535">
        <ele>2130.4</ele>
        <time>2021-08-06T09:29:16Z</time>
      </trkpt>
      <trkpt lat="42.84952" lon="-0.22537">
        <ele>2130.8</ele>
        <time>2021-08-06T09:29:35Z</time>
      </trkpt>
      <trkpt lat="42.84952" lon="-0.22538">
        <ele>2131</ele>
        <time>2021-08-06T09:30:08Z</time>
      </trkpt>
      <trkpt lat="42.84952" lon="-0.2254">
        <ele>2129.4</ele>
        <time>2021-08-06T09:30:31Z</time>
      </trkpt>
      <trkpt lat="42.84955" lon="-0.22543">
        <ele>2129.9</ele>
        <time>2021-08-06T09:30:53Z</time>
      </trkpt>
      <trkpt lat="42.8496" lon="-0.22547">
        <ele>2132.9</ele>
        <time>2021-08-06T09:31:13Z</time>
      </trkpt>
      <trkpt lat="42.84962" lon="-0.22542">
        <ele>2133.9</ele>
        <time>2021-08-06T09:31:38Z</time>
      </trkpt>
      <trkpt lat="42.84963" lon="-0.22544">
        <ele>2132.9</ele>
        <time>2021-08-06T09:31:57Z</time>
      </trkpt>
      <trkpt lat="42.84963" lon="-0.22544">
        <ele>2130.8</ele>
        <time>2021-08-06T09:32:46Z</time>
      </trkpt>
      <trkpt lat="42.84965" lon="-0.22544">
        <ele>2132.4</ele>
        <time>2021-08-06T09:33:28Z</time>
      </trkpt>
      <trkpt lat="42.84966" lon="-0.22546">
        <ele>2131.8</ele>
        <time>2021-08-06T09:34:22Z</time>
      </trkpt>
      <trkpt lat="42.84963" lon="-0.22546">
        <ele>2131.1</ele>
        <time>2021-08-06T09:34:55Z</time>
      </trkpt>
      <trkpt lat="42.84962" lon="-0.22558">
        <ele>2134</ele>
        <time>2021-08-06T09:35:18Z</time>
      </trkpt>
      <trkpt lat="42.84963" lon="-0.22561">
        <ele>2135.6</ele>
        <time>2021-08-06T09:35:27Z</time>
      </trkpt>
      <trkpt lat="42.8497" lon="-0.22565">
        <ele>2136.9</ele>
        <time>2021-08-06T09:35:43Z</time>
      </trkpt>
      <trkpt lat="42.84974" lon="-0.22566">
        <ele>2137.5</ele>
        <time>2021-08-06T09:35:48Z</time>
      </trkpt>
      <trkpt lat="42.84979" lon="-0.2257">
        <ele>2139.7</ele>
        <time>2021-08-06T09:36:16Z</time>
      </trkpt>
      <trkpt lat="42.84985" lon="-0.22591">
        <ele>2141.2</ele>
        <time>2021-08-06T09:36:41Z</time>
      </trkpt>
      <trkpt lat="42.84987" lon="-0.22601">
        <ele>2140.8</ele>
        <time>2021-08-06T09:36:57Z</time>
      </trkpt>
      <trkpt lat="42.8499" lon="-0.22607">
        <ele>2139.5</ele>
        <time>2021-08-06T09:37:17Z</time>
      </trkpt>
      <trkpt lat="42.84992" lon="-0.22613">
        <ele>2139.5</ele>
        <time>2021-08-06T09:37:49Z</time>
      </trkpt>
      <trkpt lat="42.84998" lon="-0.22622">
        <ele>2138.9</ele>
        <time>2021-08-06T09:38:07Z</time>
      </trkpt>
      <trkpt lat="42.84991" lon="-0.22618">
        <ele>2138.1</ele>
        <time>2021-08-06T09:38:27Z</time>
      </trkpt>
      <trkpt lat="42.84989" lon="-0.2262">
        <ele>2137.9</ele>
        <time>2021-08-06T09:38:29Z</time>
      </trkpt>
      <trkpt lat="42.84982" lon="-0.22627">
        <ele>2137.4</ele>
        <time>2021-08-06T09:38:36Z</time>
      </trkpt>
      <trkpt lat="42.84976" lon="-0.22642">
        <ele>2139.6</ele>
        <time>2021-08-06T09:39:00Z</time>
      </trkpt>
      <trkpt lat="42.84975" lon="-0.22646">
        <ele>2139.2</ele>
        <time>2021-08-06T09:39:24Z</time>
      </trkpt>
      <trkpt lat="42.84979" lon="-0.2266">
        <ele>2139.3</ele>
        <time>2021-08-06T09:39:40Z</time>
      </trkpt>
      <trkpt lat="42.84981" lon="-0.22664">
        <ele>2138.9</ele>
        <time>2021-08-06T09:39:45Z</time>
      </trkpt>
      <trkpt lat="42.84989" lon="-0.22674">
        <ele>2137.6</ele>
        <time>2021-08-06T09:39:58Z</time>
      </trkpt>
      <trkpt lat="42.84996" lon="-0.22668">
        <ele>2138.4</ele>
        <time>2021-08-06T09:40:17Z</time>
      </trkpt>
      <trkpt lat="42.85007" lon="-0.22675">
        <ele>2140.3</ele>
        <time>2021-08-06T09:40:34Z</time>
      </trkpt>
      <trkpt lat="42.85015" lon="-0.22683">
        <ele>2143.6</ele>
        <time>2021-08-06T09:40:49Z</time>
      </trkpt>
      <trkpt lat="42.85017" lon="-0.22686">
        <ele>2144.4</ele>
        <time>2021-08-06T09:40:52Z</time>
      </trkpt>
      <trkpt lat="42.85028" lon="-0.22702">
        <ele>2144.8</ele>
        <time>2021-08-06T09:41:06Z</time>
      </trkpt>
      <trkpt lat="42.8503" lon="-0.22713">
        <ele>2143.8</ele>
        <time>2021-08-06T09:41:13Z</time>
      </trkpt>
      <trkpt lat="42.85036" lon="-0.22721">
        <ele>2142.9</ele>
        <time>2021-08-06T09:41:30Z</time>
      </trkpt>
      <trkpt lat="42.85036" lon="-0.22721">
        <ele>2142.9</ele>
        <time>2021-08-06T09:41:31Z</time>
      </trkpt>
      <trkpt lat="42.85038" lon="-0.2272">
        <ele>2142.9</ele>
        <time>2021-08-06T09:41:33Z</time>
      </trkpt>
      <trkpt lat="42.85044" lon="-0.22715">
        <ele>2142.4</ele>
        <time>2021-08-06T09:41:52Z</time>
      </trkpt>
      <trkpt lat="42.85044" lon="-0.22714">
        <ele>2142.3</ele>
        <time>2021-08-06T09:42:20Z</time>
      </trkpt>
      <trkpt lat="42.85045" lon="-0.22714">
        <ele>2139.8</ele>
        <time>2021-08-06T09:43:00Z</time>
      </trkpt>
      <trkpt lat="42.85046" lon="-0.22713">
        <ele>2140.4</ele>
        <time>2021-08-06T09:43:35Z</time>
      </trkpt>
      <trkpt lat="42.85045" lon="-0.22713">
        <ele>2140.9</ele>
        <time>2021-08-06T09:44:18Z</time>
      </trkpt>
      <trkpt lat="42.85044" lon="-0.22715">
        <ele>2140.4</ele>
        <time>2021-08-06T09:44:38Z</time>
      </trkpt>
      <trkpt lat="42.85047" lon="-0.22717">
        <ele>2138.8</ele>
        <time>2021-08-06T09:45:04Z</time>
      </trkpt>
      <trkpt lat="42.85047" lon="-0.22715">
        <ele>2138.3</ele>
        <time>2021-08-06T09:45:35Z</time>
      </trkpt>
      <trkpt lat="42.85048" lon="-0.22716">
        <ele>2139.1</ele>
        <time>2021-08-06T09:46:23Z</time>
      </trkpt>
      <trkpt lat="42.85036" lon="-0.22717">
        <ele>2140.3</ele>
        <time>2021-08-06T09:46:39Z</time>
      </trkpt>
      <trkpt lat="42.85025" lon="-0.22717">
        <ele>2143.4</ele>
        <time>2021-08-06T09:46:54Z</time>
      </trkpt>
      <trkpt lat="42.85009" lon="-0.22718">
        <ele>2146.5</ele>
        <time>2021-08-06T09:47:13Z</time>
      </trkpt>
      <trkpt lat="42.85002" lon="-0.22729">
        <ele>2149.6</ele>
        <time>2021-08-06T09:47:28Z</time>
      </trkpt>
      <trkpt lat="42.84989" lon="-0.22746">
        <ele>2152.2</ele>
        <time>2021-08-06T09:47:51Z</time>
      </trkpt>
      <trkpt lat="42.84978" lon="-0.22759">
        <ele>2155.3</ele>
        <time>2021-08-06T09:48:14Z</time>
      </trkpt>
      <trkpt lat="42.84972" lon="-0.22763">
        <ele>2158.4</ele>
        <time>2021-08-06T09:48:30Z</time>
      </trkpt>
      <trkpt lat="42.84963" lon="-0.22778">
        <ele>2161.3</ele>
        <time>2021-08-06T09:48:53Z</time>
      </trkpt>
      <trkpt lat="42.84954" lon="-0.22781">
        <ele>2164.4</ele>
        <time>2021-08-06T09:49:13Z</time>
      </trkpt>
      <trkpt lat="42.84954" lon="-0.22777">
        <ele>2166.2</ele>
        <time>2021-08-06T09:49:35Z</time>
      </trkpt>
      <trkpt lat="42.84944" lon="-0.22783">
        <ele>2167.9</ele>
        <time>2021-08-06T09:49:55Z</time>
      </trkpt>
      <trkpt lat="42.84936" lon="-0.22787">
        <ele>2171</ele>
        <time>2021-08-06T09:50:11Z</time>
      </trkpt>
      <trkpt lat="42.84927" lon="-0.22797">
        <ele>2174.1</ele>
        <time>2021-08-06T09:50:32Z</time>
      </trkpt>
      <trkpt lat="42.84925" lon="-0.22811">
        <ele>2175.6</ele>
        <time>2021-08-06T09:50:57Z</time>
      </trkpt>
      <trkpt lat="42.84912" lon="-0.22815">
        <ele>2177.1</ele>
        <time>2021-08-06T09:51:19Z</time>
      </trkpt>
      <trkpt lat="42.84905" lon="-0.22814">
        <ele>2180.3</ele>
        <time>2021-08-06T09:51:30Z</time>
      </trkpt>
      <trkpt lat="42.84897" lon="-0.22818">
        <ele>2183.3</ele>
        <time>2021-08-06T09:51:41Z</time>
      </trkpt>
      <trkpt lat="42.84884" lon="-0.22819">
        <ele>2186.4</ele>
        <time>2021-08-06T09:52:00Z</time>
      </trkpt>
      <trkpt lat="42.84868" lon="-0.22832">
        <ele>2188.6</ele>
        <time>2021-08-06T09:52:26Z</time>
      </trkpt>
      <trkpt lat="42.84858" lon="-0.22839">
        <ele>2191.1</ele>
        <time>2021-08-06T09:52:50Z</time>
      </trkpt>
      <trkpt lat="42.84848" lon="-0.22837">
        <ele>2193</ele>
        <time>2021-08-06T09:53:14Z</time>
      </trkpt>
      <trkpt lat="42.84843" lon="-0.22835">
        <ele>2194</ele>
        <time>2021-08-06T09:53:43Z</time>
      </trkpt>
      <trkpt lat="42.84838" lon="-0.22835">
        <ele>2194.5</ele>
        <time>2021-08-06T09:54:06Z</time>
      </trkpt>
      <trkpt lat="42.84829" lon="-0.22829">
        <ele>2197.7</ele>
        <time>2021-08-06T09:54:23Z</time>
      </trkpt>
      <trkpt lat="42.84825" lon="-0.22829">
        <ele>2199.2</ele>
        <time>2021-08-06T09:54:51Z</time>
      </trkpt>
      <trkpt lat="42.84825" lon="-0.2283">
        <ele>2200.2</ele>
        <time>2021-08-06T09:55:24Z</time>
      </trkpt>
      <trkpt lat="42.84825" lon="-0.22829">
        <ele>2201.7</ele>
        <time>2021-08-06T09:55:53Z</time>
      </trkpt>
      <trkpt lat="42.84825" lon="-0.22829">
        <ele>2202.4</ele>
        <time>2021-08-06T09:56:31Z</time>
      </trkpt>
      <trkpt lat="42.84824" lon="-0.2283">
        <ele>2202.9</ele>
        <time>2021-08-06T09:56:55Z</time>
      </trkpt>
      <trkpt lat="42.84823" lon="-0.2283">
        <ele>2203.6</ele>
        <time>2021-08-06T09:57:35Z</time>
      </trkpt>
      <trkpt lat="42.84822" lon="-0.22831">
        <ele>2203.9</ele>
        <time>2021-08-06T09:58:05Z</time>
      </trkpt>
      <trkpt lat="42.84821" lon="-0.22832">
        <ele>2203.3</ele>
        <time>2021-08-06T09:58:45Z</time>
      </trkpt>
      <trkpt lat="42.84821" lon="-0.22832">
        <ele>2201.2</ele>
        <time>2021-08-06T09:59:28Z</time>
      </trkpt>
      <trkpt lat="42.84815" lon="-0.22832">
        <ele>2201.4</ele>
        <time>2021-08-06T09:59:43Z</time>
      </trkpt>
      <trkpt lat="42.84803" lon="-0.22828">
        <ele>2204.6</ele>
        <time>2021-08-06T10:00:01Z</time>
      </trkpt>
      <trkpt lat="42.84796" lon="-0.22828">
        <ele>2207.8</ele>
        <time>2021-08-06T10:00:15Z</time>
      </trkpt>
      <trkpt lat="42.84791" lon="-0.22829">
        <ele>2210.8</ele>
        <time>2021-08-06T10:00:27Z</time>
      </trkpt>
      <trkpt lat="42.84785" lon="-0.22826">
        <ele>2214.1</ele>
        <time>2021-08-06T10:00:45Z</time>
      </trkpt>
      <trkpt lat="42.84783" lon="-0.22824">
        <ele>2217.2</ele>
        <time>2021-08-06T10:00:55Z</time>
      </trkpt>
      <trkpt lat="42.84779" lon="-0.22819">
        <ele>2220.3</ele>
        <time>2021-08-06T10:01:13Z</time>
      </trkpt>
      <trkpt lat="42.84776" lon="-0.22816">
        <ele>2223.3</ele>
        <time>2021-08-06T10:01:32Z</time>
      </trkpt>
      <trkpt lat="42.84773" lon="-0.22811">
        <ele>2226</ele>
        <time>2021-08-06T10:01:52Z</time>
      </trkpt>
      <trkpt lat="42.84772" lon="-0.22808">
        <ele>2227.1</ele>
        <time>2021-08-06T10:01:59Z</time>
      </trkpt>
      <trkpt lat="42.84766" lon="-0.22801">
        <ele>2230.3</ele>
        <time>2021-08-06T10:02:19Z</time>
      </trkpt>
      <trkpt lat="42.84765" lon="-0.228">
        <ele>2230.6</ele>
        <time>2021-08-06T10:02:20Z</time>
      </trkpt>
      <trkpt lat="42.84764" lon="-0.22795">
        <ele>2233.8</ele>
        <time>2021-08-06T10:02:39Z</time>
      </trkpt>
      <trkpt lat="42.84762" lon="-0.22789">
        <ele>2236.9</ele>
        <time>2021-08-06T10:02:59Z</time>
      </trkpt>
      <trkpt lat="42.84754" lon="-0.22778">
        <ele>2240</ele>
        <time>2021-08-06T10:03:21Z</time>
      </trkpt>
      <trkpt lat="42.84752" lon="-0.22764">
        <ele>2243</ele>
        <time>2021-08-06T10:03:42Z</time>
      </trkpt>
      <trkpt lat="42.84746" lon="-0.22761">
        <ele>2245.2</ele>
        <time>2021-08-06T10:04:04Z</time>
      </trkpt>
      <trkpt lat="42.8474" lon="-0.22757">
        <ele>2246.9</ele>
        <time>2021-08-06T10:04:24Z</time>
      </trkpt>
      <trkpt lat="42.84734" lon="-0.22754">
        <ele>2250.1</ele>
        <time>2021-08-06T10:04:38Z</time>
      </trkpt>
      <trkpt lat="42.84729" lon="-0.22757">
        <ele>2253.1</ele>
        <time>2021-08-06T10:04:47Z</time>
      </trkpt>
      <trkpt lat="42.84723" lon="-0.22762">
        <ele>2256.1</ele>
        <time>2021-08-06T10:04:58Z</time>
      </trkpt>
      <trkpt lat="42.84723" lon="-0.2277">
        <ele>2258.4</ele>
        <time>2021-08-06T10:05:17Z</time>
      </trkpt>
      <trkpt lat="42.8472" lon="-0.22773">
        <ele>2259.2</ele>
        <time>2021-08-06T10:05:38Z</time>
      </trkpt>
      <trkpt lat="42.84719" lon="-0.22772">
        <ele>2259.2</ele>
        <time>2021-08-06T10:06:06Z</time>
      </trkpt>
      <trkpt lat="42.8472" lon="-0.22772">
        <ele>2256.2</ele>
        <time>2021-08-06T10:06:34Z</time>
      </trkpt>
      <trkpt lat="42.8472" lon="-0.22773">
        <ele>2256.1</ele>
        <time>2021-08-06T10:07:04Z</time>
      </trkpt>
      <trkpt lat="42.84716" lon="-0.22775">
        <ele>2255.9</ele>
        <time>2021-08-06T10:07:30Z</time>
      </trkpt>
      <trkpt lat="42.84715" lon="-0.22776">
        <ele>2256.9</ele>
        <time>2021-08-06T10:08:02Z</time>
      </trkpt>
      <trkpt lat="42.84714" lon="-0.22776">
        <ele>2257.4</ele>
        <time>2021-08-06T10:08:29Z</time>
      </trkpt>
      <trkpt lat="42.84715" lon="-0.22777">
        <ele>2259.4</ele>
        <time>2021-08-06T10:08:52Z</time>
      </trkpt>
      <trkpt lat="42.84715" lon="-0.22776">
        <ele>2259.1</ele>
        <time>2021-08-06T10:09:28Z</time>
      </trkpt>
      <trkpt lat="42.84713" lon="-0.2279">
        <ele>2258.5</ele>
        <time>2021-08-06T10:09:44Z</time>
      </trkpt>
      <trkpt lat="42.84708" lon="-0.22809">
        <ele>2258.5</ele>
        <time>2021-08-06T10:10:08Z</time>
      </trkpt>
      <trkpt lat="42.84707" lon="-0.22819">
        <ele>2258.5</ele>
        <time>2021-08-06T10:10:31Z</time>
      </trkpt>
      <trkpt lat="42.84702" lon="-0.22828">
        <ele>2260.4</ele>
        <time>2021-08-06T10:10:50Z</time>
      </trkpt>
      <trkpt lat="42.84695" lon="-0.22846">
        <ele>2261.9</ele>
        <time>2021-08-06T10:11:12Z</time>
      </trkpt>
      <trkpt lat="42.84687" lon="-0.22856">
        <ele>2260.3</ele>
        <time>2021-08-06T10:11:27Z</time>
      </trkpt>
      <trkpt lat="42.84684" lon="-0.22865">
        <ele>2258.3</ele>
        <time>2021-08-06T10:11:41Z</time>
      </trkpt>
      <trkpt lat="42.84686" lon="-0.22869">
        <ele>2258.2</ele>
        <time>2021-08-06T10:11:44Z</time>
      </trkpt>
      <trkpt lat="42.84682" lon="-0.22883">
        <ele>2257.9</ele>
        <time>2021-08-06T10:11:58Z</time>
      </trkpt>
      <trkpt lat="42.84669" lon="-0.229">
        <ele>2257.8</ele>
        <time>2021-08-06T10:12:19Z</time>
      </trkpt>
      <trkpt lat="42.84657" lon="-0.22908">
        <ele>2257.1</ele>
        <time>2021-08-06T10:12:39Z</time>
      </trkpt>
      <trkpt lat="42.84647" lon="-0.22926">
        <ele>2260.1</ele>
        <time>2021-08-06T10:13:03Z</time>
      </trkpt>
      <trkpt lat="42.84642" lon="-0.22939">
        <ele>2263.2</ele>
        <time>2021-08-06T10:13:19Z</time>
      </trkpt>
      <trkpt lat="42.84638" lon="-0.22948">
        <ele>2266.4</ele>
        <time>2021-08-06T10:13:34Z</time>
      </trkpt>
      <trkpt lat="42.8464" lon="-0.22957">
        <ele>2269.5</ele>
        <time>2021-08-06T10:13:56Z</time>
      </trkpt>
      <trkpt lat="42.8463" lon="-0.22968">
        <ele>2269.6</ele>
        <time>2021-08-06T10:14:17Z</time>
      </trkpt>
      <trkpt lat="42.84625" lon="-0.2298">
        <ele>2272.7</ele>
        <time>2021-08-06T10:14:37Z</time>
      </trkpt>
      <trkpt lat="42.84619" lon="-0.22984">
        <ele>2275.8</ele>
        <time>2021-08-06T10:14:53Z</time>
      </trkpt>
      <trkpt lat="42.84618" lon="-0.22982">
        <ele>2279</ele>
        <time>2021-08-06T10:15:07Z</time>
      </trkpt>
      <trkpt lat="42.84613" lon="-0.22979">
        <ele>2282.1</ele>
        <time>2021-08-06T10:15:27Z</time>
      </trkpt>
      <trkpt lat="42.84611" lon="-0.22991">
        <ele>2283.8</ele>
        <time>2021-08-06T10:15:55Z</time>
      </trkpt>
      <trkpt lat="42.84611" lon="-0.23005">
        <ele>2287</ele>
        <time>2021-08-06T10:16:10Z</time>
      </trkpt>
      <trkpt lat="42.84602" lon="-0.23003">
        <ele>2289.3</ele>
        <time>2021-08-06T10:16:32Z</time>
      </trkpt>
      <trkpt lat="42.84597" lon="-0.23009">
        <ele>2290.1</ele>
        <time>2021-08-06T10:16:55Z</time>
      </trkpt>
      <trkpt lat="42.84599" lon="-0.23005">
        <ele>2289.3</ele>
        <time>2021-08-06T10:17:12Z</time>
      </trkpt>
      <trkpt lat="42.84598" lon="-0.23005">
        <ele>2288.8</ele>
        <time>2021-08-06T10:17:39Z</time>
      </trkpt>
      <trkpt lat="42.846" lon="-0.23007">
        <ele>2288.6</ele>
        <time>2021-08-06T10:17:57Z</time>
      </trkpt>
      <trkpt lat="42.84596" lon="-0.23011">
        <ele>2290.5</ele>
        <time>2021-08-06T10:18:26Z</time>
      </trkpt>
      <trkpt lat="42.84581" lon="-0.2302">
        <ele>2293.6</ele>
        <time>2021-08-06T10:18:52Z</time>
      </trkpt>
      <trkpt lat="42.84578" lon="-0.23021">
        <ele>2294.9</ele>
        <time>2021-08-06T10:19:18Z</time>
      </trkpt>
      <trkpt lat="42.84566" lon="-0.23026">
        <ele>2297.3</ele>
        <time>2021-08-06T10:19:43Z</time>
      </trkpt>
      <trkpt lat="42.84564" lon="-0.23029">
        <ele>2298.2</ele>
        <time>2021-08-06T10:20:26Z</time>
      </trkpt>
      <trkpt lat="42.84555" lon="-0.23035">
        <ele>2301.4</ele>
        <time>2021-08-06T10:20:44Z</time>
      </trkpt>
      <trkpt lat="42.84544" lon="-0.23035">
        <ele>2304.6</ele>
        <time>2021-08-06T10:21:00Z</time>
      </trkpt>
      <trkpt lat="42.84534" lon="-0.23041">
        <ele>2305.1</ele>
        <time>2021-08-06T10:21:24Z</time>
      </trkpt>
      <trkpt lat="42.84534" lon="-0.2304">
        <ele>2305.9</ele>
        <time>2021-08-06T10:21:49Z</time>
      </trkpt>
      <trkpt lat="42.84533" lon="-0.23042">
        <ele>2305.4</ele>
        <time>2021-08-06T10:22:14Z</time>
      </trkpt>
      <trkpt lat="42.84531" lon="-0.23051">
        <ele>2304.1</ele>
        <time>2021-08-06T10:22:36Z</time>
      </trkpt>
      <trkpt lat="42.8453" lon="-0.23055">
        <ele>2301.1</ele>
        <time>2021-08-06T10:22:53Z</time>
      </trkpt>
      <trkpt lat="42.8453" lon="-0.23056">
        <ele>2300.6</ele>
        <time>2021-08-06T10:23:36Z</time>
      </trkpt>
      <trkpt lat="42.8453" lon="-0.23056">
        <ele>2302.3</ele>
        <time>2021-08-06T10:24:36Z</time>
      </trkpt>
      <trkpt lat="42.84531" lon="-0.23056">
        <ele>2301.4</ele>
        <time>2021-08-06T10:25:14Z</time>
      </trkpt>
      <trkpt lat="42.84529" lon="-0.23057">
        <ele>2298.6</ele>
        <time>2021-08-06T10:25:50Z</time>
      </trkpt>
      <trkpt lat="42.84531" lon="-0.23078">
        <ele>2297.8</ele>
        <time>2021-08-06T10:26:13Z</time>
      </trkpt>
      <trkpt lat="42.84532" lon="-0.23082">
        <ele>2294.5</ele>
        <time>2021-08-06T10:26:23Z</time>
      </trkpt>
      <trkpt lat="42.84533" lon="-0.23084">
        <ele>2293.1</ele>
        <time>2021-08-06T10:26:46Z</time>
      </trkpt>
      <trkpt lat="42.84534" lon="-0.23093">
        <ele>2291.6</ele>
        <time>2021-08-06T10:27:13Z</time>
      </trkpt>
      <trkpt lat="42.84536" lon="-0.23104">
        <ele>2288</ele>
        <time>2021-08-06T10:27:30Z</time>
      </trkpt>
      <trkpt lat="42.84536" lon="-0.23107">
        <ele>2284.8</ele>
        <time>2021-08-06T10:27:37Z</time>
      </trkpt>
      <trkpt lat="42.84532" lon="-0.23114">
        <ele>2281.7</ele>
        <time>2021-08-06T10:27:48Z</time>
      </trkpt>
      <trkpt lat="42.84524" lon="-0.23115">
        <ele>2281</ele>
        <time>2021-08-06T10:28:07Z</time>
      </trkpt>
      <trkpt lat="42.84519" lon="-0.23111">
        <ele>2280.9</ele>
        <time>2021-08-06T10:28:22Z</time>
      </trkpt>
      <trkpt lat="42.84513" lon="-0.23106">
        <ele>2280.3</ele>
        <time>2021-08-06T10:28:36Z</time>
      </trkpt>
      <trkpt lat="42.84514" lon="-0.23105">
        <ele>2277.2</ele>
        <time>2021-08-06T10:28:44Z</time>
      </trkpt>
      <trkpt lat="42.84513" lon="-0.23114">
        <ele>2274</ele>
        <time>2021-08-06T10:29:03Z</time>
      </trkpt>
      <trkpt lat="42.84509" lon="-0.23115">
        <ele>2270.8</ele>
        <time>2021-08-06T10:29:16Z</time>
      </trkpt>
      <trkpt lat="42.84508" lon="-0.23114">
        <ele>2267.7</ele>
        <time>2021-08-06T10:29:33Z</time>
      </trkpt>
      <trkpt lat="42.84503" lon="-0.23113">
        <ele>2265</ele>
        <time>2021-08-06T10:29:57Z</time>
      </trkpt>
      <trkpt lat="42.84498" lon="-0.23108">
        <ele>2262</ele>
        <time>2021-08-06T10:30:14Z</time>
      </trkpt>
      <trkpt lat="42.84498" lon="-0.23115">
        <ele>2262.6</ele>
        <time>2021-08-06T10:30:28Z</time>
      </trkpt>
      <trkpt lat="42.84491" lon="-0.23105">
        <ele>2262</ele>
        <time>2021-08-06T10:30:54Z</time>
      </trkpt>
      <trkpt lat="42.84487" lon="-0.23104">
        <ele>2258.9</ele>
        <time>2021-08-06T10:31:07Z</time>
      </trkpt>
      <trkpt lat="42.84482" lon="-0.23111">
        <ele>2256.5</ele>
        <time>2021-08-06T10:31:30Z</time>
      </trkpt>
      <trkpt lat="42.84478" lon="-0.23122">
        <ele>2254.8</ele>
        <time>2021-08-06T10:31:48Z</time>
      </trkpt>
      <trkpt lat="42.84475" lon="-0.23133">
        <ele>2251.6</ele>
        <time>2021-08-06T10:32:07Z</time>
      </trkpt>
      <trkpt lat="42.84468" lon="-0.23135">
        <ele>2248.6</ele>
        <time>2021-08-06T10:32:23Z</time>
      </trkpt>
      <trkpt lat="42.84467" lon="-0.23139">
        <ele>2245.6</ele>
        <time>2021-08-06T10:32:43Z</time>
      </trkpt>
      <trkpt lat="42.84464" lon="-0.23142">
        <ele>2242.6</ele>
        <time>2021-08-06T10:32:57Z</time>
      </trkpt>
      <trkpt lat="42.84455" lon="-0.23145">
        <ele>2239.4</ele>
        <time>2021-08-06T10:33:14Z</time>
      </trkpt>
      <trkpt lat="42.84451" lon="-0.23146">
        <ele>2236.2</ele>
        <time>2021-08-06T10:33:25Z</time>
      </trkpt>
      <trkpt lat="42.84446" lon="-0.23146">
        <ele>2234.7</ele>
        <time>2021-08-06T10:33:36Z</time>
      </trkpt>
      <trkpt lat="42.84444" lon="-0.23152">
        <ele>2231.4</ele>
        <time>2021-08-06T10:33:51Z</time>
      </trkpt>
      <trkpt lat="42.84442" lon="-0.23159">
        <ele>2228.4</ele>
        <time>2021-08-06T10:34:05Z</time>
      </trkpt>
      <trkpt lat="42.84446" lon="-0.23173">
        <ele>2227.2</ele>
        <time>2021-08-06T10:34:22Z</time>
      </trkpt>
      <trkpt lat="42.84444" lon="-0.23183">
        <ele>2224.1</ele>
        <time>2021-08-06T10:34:32Z</time>
      </trkpt>
      <trkpt lat="42.84444" lon="-0.23182">
        <ele>2222</ele>
        <time>2021-08-06T10:34:54Z</time>
      </trkpt>
      <trkpt lat="42.84438" lon="-0.23182">
        <ele>2222.7</ele>
        <time>2021-08-06T10:35:10Z</time>
      </trkpt>
      <trkpt lat="42.84435" lon="-0.23181">
        <ele>2221.3</ele>
        <time>2021-08-06T10:35:26Z</time>
      </trkpt>
      <trkpt lat="42.84436" lon="-0.2318">
        <ele>2220.6</ele>
        <time>2021-08-06T10:36:11Z</time>
      </trkpt>
      <trkpt lat="42.84437" lon="-0.23182">
        <ele>2220.9</ele>
        <time>2021-08-06T10:36:39Z</time>
      </trkpt>
      <trkpt lat="42.84431" lon="-0.23191">
        <ele>2220.9</ele>
        <time>2021-08-06T10:37:01Z</time>
      </trkpt>
      <trkpt lat="42.84421" lon="-0.23199">
        <ele>2223.2</ele>
        <time>2021-08-06T10:37:22Z</time>
      </trkpt>
      <trkpt lat="42.84418" lon="-0.2321">
        <ele>2224.1</ele>
        <time>2021-08-06T10:37:40Z</time>
      </trkpt>
      <trkpt lat="42.84414" lon="-0.23212">
        <ele>2223.1</ele>
        <time>2021-08-06T10:38:01Z</time>
      </trkpt>
      <trkpt lat="42.84409" lon="-0.23215">
        <ele>2220.8</ele>
        <time>2021-08-06T10:38:15Z</time>
      </trkpt>
      <trkpt lat="42.84408" lon="-0.23214">
        <ele>2219.6</ele>
        <time>2021-08-06T10:38:33Z</time>
      </trkpt>
      <trkpt lat="42.84406" lon="-0.2322">
        <ele>2218.7</ele>
        <time>2021-08-06T10:39:21Z</time>
      </trkpt>
      <trkpt lat="42.84402" lon="-0.23226">
        <ele>2215.6</ele>
        <time>2021-08-06T10:39:33Z</time>
      </trkpt>
      <trkpt lat="42.84393" lon="-0.2323">
        <ele>2214.1</ele>
        <time>2021-08-06T10:39:50Z</time>
      </trkpt>
      <trkpt lat="42.84388" lon="-0.23227">
        <ele>2214.4</ele>
        <time>2021-08-06T10:40:07Z</time>
      </trkpt>
      <trkpt lat="42.84386" lon="-0.23226">
        <ele>2213.5</ele>
        <time>2021-08-06T10:40:27Z</time>
      </trkpt>
      <trkpt lat="42.84386" lon="-0.23226">
        <ele>2210.5</ele>
        <time>2021-08-06T10:41:10Z</time>
      </trkpt>
      <trkpt lat="42.84379" lon="-0.23226">
        <ele>2207.5</ele>
        <time>2021-08-06T10:41:25Z</time>
      </trkpt>
      <trkpt lat="42.84374" lon="-0.23231">
        <ele>2209.2</ele>
        <time>2021-08-06T10:41:42Z</time>
      </trkpt>
      <trkpt lat="42.84368" lon="-0.23239">
        <ele>2209.2</ele>
        <time>2021-08-06T10:41:59Z</time>
      </trkpt>
      <trkpt lat="42.84362" lon="-0.23246">
        <ele>2209.4</ele>
        <time>2021-08-06T10:42:16Z</time>
      </trkpt>
      <trkpt lat="42.84357" lon="-0.23249">
        <ele>2209.9</ele>
        <time>2021-08-06T10:42:31Z</time>
      </trkpt>
      <trkpt lat="42.84351" lon="-0.23253">
        <ele>2209.1</ele>
        <time>2021-08-06T10:42:51Z</time>
      </trkpt>
      <trkpt lat="42.8434" lon="-0.2326">
        <ele>2207.2</ele>
        <time>2021-08-06T10:43:10Z</time>
      </trkpt>
      <trkpt lat="42.84346" lon="-0.23263">
        <ele>2205.4</ele>
        <time>2021-08-06T10:43:30Z</time>
      </trkpt>
      <trkpt lat="42.8434" lon="-0.23269">
        <ele>2202.3</ele>
        <time>2021-08-06T10:43:45Z</time>
      </trkpt>
      <trkpt lat="42.84332" lon="-0.23284">
        <ele>2200.2</ele>
        <time>2021-08-06T10:44:03Z</time>
      </trkpt>
      <trkpt lat="42.84328" lon="-0.23287">
        <ele>2198.5</ele>
        <time>2021-08-06T10:44:18Z</time>
      </trkpt>
      <trkpt lat="42.84321" lon="-0.23293">
        <ele>2196.2</ele>
        <time>2021-08-06T10:44:36Z</time>
      </trkpt>
      <trkpt lat="42.84314" lon="-0.23304">
        <ele>2196</ele>
        <time>2021-08-06T10:44:50Z</time>
      </trkpt>
      <trkpt lat="42.84304" lon="-0.23307">
        <ele>2193.1</ele>
        <time>2021-08-06T10:45:09Z</time>
      </trkpt>
      <trkpt lat="42.84303" lon="-0.23307">
        <ele>2193.6</ele>
        <time>2021-08-06T10:45:28Z</time>
      </trkpt>
      <trkpt lat="42.84299" lon="-0.23304">
        <ele>2192.6</ele>
        <time>2021-08-06T10:45:45Z</time>
      </trkpt>
      <trkpt lat="42.84295" lon="-0.23312">
        <ele>2190.6</ele>
        <time>2021-08-06T10:46:03Z</time>
      </trkpt>
      <trkpt lat="42.84292" lon="-0.23321">
        <ele>2188.5</ele>
        <time>2021-08-06T10:46:20Z</time>
      </trkpt>
      <trkpt lat="42.84291" lon="-0.23324">
        <ele>2187.9</ele>
        <time>2021-08-06T10:46:38Z</time>
      </trkpt>
      <trkpt lat="42.84289" lon="-0.23337">
        <ele>2185.5</ele>
        <time>2021-08-06T10:47:02Z</time>
      </trkpt>
      <trkpt lat="42.84278" lon="-0.2335">
        <ele>2187.9</ele>
        <time>2021-08-06T10:47:24Z</time>
      </trkpt>
      <trkpt lat="42.84266" lon="-0.23362">
        <ele>2188.8</ele>
        <time>2021-08-06T10:47:44Z</time>
      </trkpt>
      <trkpt lat="42.84261" lon="-0.23369">
        <ele>2188.6</ele>
        <time>2021-08-06T10:48:05Z</time>
      </trkpt>
      <trkpt lat="42.84261" lon="-0.23371">
        <ele>2187.8</ele>
        <time>2021-08-06T10:48:35Z</time>
      </trkpt>
      <trkpt lat="42.84261" lon="-0.23371">
        <ele>2183.3</ele>
        <time>2021-08-06T10:49:21Z</time>
      </trkpt>
      <trkpt lat="42.84261" lon="-0.23371">
        <ele>2183.2</ele>
        <time>2021-08-06T10:49:22Z</time>
      </trkpt>
      <trkpt lat="42.84261" lon="-0.23371">
        <ele>2186.3</ele>
        <time>2021-08-06T10:50:06Z</time>
      </trkpt>
      <trkpt lat="42.84261" lon="-0.23372">
        <ele>2185.8</ele>
        <time>2021-08-06T10:51:46Z</time>
      </trkpt>
      <trkpt lat="42.84262" lon="-0.2337">
        <ele>2185.8</ele>
        <time>2021-08-06T10:52:38Z</time>
      </trkpt>
      <trkpt lat="42.84267" lon="-0.23379">
        <ele>2189</ele>
        <time>2021-08-06T10:52:51Z</time>
      </trkpt>
      <trkpt lat="42.84258" lon="-0.23393">
        <ele>2189.3</ele>
        <time>2021-08-06T10:53:11Z</time>
      </trkpt>
      <trkpt lat="42.8426" lon="-0.23415">
        <ele>2189</ele>
        <time>2021-08-06T10:53:33Z</time>
      </trkpt>
      <trkpt lat="42.84254" lon="-0.23441">
        <ele>2189.7</ele>
        <time>2021-08-06T10:53:56Z</time>
      </trkpt>
      <trkpt lat="42.84248" lon="-0.23449">
        <ele>2188.8</ele>
        <time>2021-08-06T10:54:17Z</time>
      </trkpt>
      <trkpt lat="42.84238" lon="-0.23453">
        <ele>2187.8</ele>
        <time>2021-08-06T10:54:35Z</time>
      </trkpt>
      <trkpt lat="42.8422" lon="-0.2347">
        <ele>2187.3</ele>
        <time>2021-08-06T10:54:59Z</time>
      </trkpt>
      <trkpt lat="42.84217" lon="-0.23478">
        <ele>2187.4</ele>
        <time>2021-08-06T10:55:13Z</time>
      </trkpt>
      <trkpt lat="42.84214" lon="-0.23489">
        <ele>2190.8</ele>
        <time>2021-08-06T10:55:33Z</time>
      </trkpt>
      <trkpt lat="42.84214" lon="-0.23491">
        <ele>2191.1</ele>
        <time>2021-08-06T10:55:35Z</time>
      </trkpt>
      <trkpt lat="42.84207" lon="-0.23517">
        <ele>2192.5</ele>
        <time>2021-08-06T10:55:59Z</time>
      </trkpt>
      <trkpt lat="42.84203" lon="-0.23528">
        <ele>2195.6</ele>
        <time>2021-08-06T10:56:15Z</time>
      </trkpt>
      <trkpt lat="42.84202" lon="-0.23538">
        <ele>2198.7</ele>
        <time>2021-08-06T10:56:28Z</time>
      </trkpt>
      <trkpt lat="42.84203" lon="-0.23562">
        <ele>2201.4</ele>
        <time>2021-08-06T10:56:53Z</time>
      </trkpt>
      <trkpt lat="42.84201" lon="-0.2357">
        <ele>2203.7</ele>
        <time>2021-08-06T10:57:13Z</time>
      </trkpt>
      <trkpt lat="42.84194" lon="-0.23582">
        <ele>2204.5</ele>
        <time>2021-08-06T10:57:30Z</time>
      </trkpt>
      <trkpt lat="42.84186" lon="-0.23596">
        <ele>2205.9</ele>
        <time>2021-08-06T10:57:49Z</time>
      </trkpt>
      <trkpt lat="42.84181" lon="-0.23607">
        <ele>2207.3</ele>
        <time>2021-08-06T10:58:06Z</time>
      </trkpt>
      <trkpt lat="42.84171" lon="-0.2362">
        <ele>2209.7</ele>
        <time>2021-08-06T10:58:27Z</time>
      </trkpt>
      <trkpt lat="42.84167" lon="-0.23626">
        <ele>2212.8</ele>
        <time>2021-08-06T10:58:38Z</time>
      </trkpt>
      <trkpt lat="42.84158" lon="-0.23628">
        <ele>2212.1</ele>
        <time>2021-08-06T10:58:51Z</time>
      </trkpt>
      <trkpt lat="42.84157" lon="-0.23629">
        <ele>2215.5</ele>
        <time>2021-08-06T10:59:00Z</time>
      </trkpt>
      <trkpt lat="42.84152" lon="-0.23632">
        <ele>2215.8</ele>
        <time>2021-08-06T10:59:23Z</time>
      </trkpt>
      <trkpt lat="42.84155" lon="-0.23627">
        <ele>2215.7</ele>
        <time>2021-08-06T10:59:33Z</time>
      </trkpt>
      <trkpt lat="42.84153" lon="-0.23613">
        <ele>2214.4</ele>
        <time>2021-08-06T10:59:52Z</time>
      </trkpt>
      <trkpt lat="42.84153" lon="-0.23596">
        <ele>2214.3</ele>
        <time>2021-08-06T11:00:13Z</time>
      </trkpt>
      <trkpt lat="42.84155" lon="-0.23576">
        <ele>2211.4</ele>
        <time>2021-08-06T11:00:32Z</time>
      </trkpt>
      <trkpt lat="42.8415" lon="-0.23566">
        <ele>2212.3</ele>
        <time>2021-08-06T11:00:52Z</time>
      </trkpt>
      <trkpt lat="42.84151" lon="-0.23566">
        <ele>2213.1</ele>
        <time>2021-08-06T11:00:58Z</time>
      </trkpt>
      <trkpt lat="42.8416" lon="-0.23553">
        <ele>2210.3</ele>
        <time>2021-08-06T11:01:18Z</time>
      </trkpt>
      <trkpt lat="42.8416" lon="-0.23546">
        <ele>2207.9</ele>
        <time>2021-08-06T11:01:35Z</time>
      </trkpt>
      <trkpt lat="42.84158" lon="-0.23539">
        <ele>2205.3</ele>
        <time>2021-08-06T11:01:50Z</time>
      </trkpt>
      <trkpt lat="42.8416" lon="-0.23534">
        <ele>2202.3</ele>
        <time>2021-08-06T11:02:04Z</time>
      </trkpt>
      <trkpt lat="42.8417" lon="-0.23522">
        <ele>2199.8</ele>
        <time>2021-08-06T11:02:24Z</time>
      </trkpt>
      <trkpt lat="42.84173" lon="-0.2352">
        <ele>2198.8</ele>
        <time>2021-08-06T11:02:29Z</time>
      </trkpt>
      <trkpt lat="42.84181" lon="-0.23512">
        <ele>2198.1</ele>
        <time>2021-08-06T11:02:43Z</time>
      </trkpt>
      <trkpt lat="42.84171" lon="-0.23505">
        <ele>2196.6</ele>
        <time>2021-08-06T11:03:01Z</time>
      </trkpt>
      <trkpt lat="42.84178" lon="-0.23498">
        <ele>2194.6</ele>
        <time>2021-08-06T11:03:20Z</time>
      </trkpt>
      <trkpt lat="42.84188" lon="-0.23489">
        <ele>2192.4</ele>
        <time>2021-08-06T11:03:44Z</time>
      </trkpt>
      <trkpt lat="42.84194" lon="-0.23486">
        <ele>2189.3</ele>
        <time>2021-08-06T11:04:02Z</time>
      </trkpt>
      <trkpt lat="42.84194" lon="-0.23481">
        <ele>2186.2</ele>
        <time>2021-08-06T11:04:15Z</time>
      </trkpt>
      <trkpt lat="42.84193" lon="-0.23484">
        <ele>2184.2</ele>
        <time>2021-08-06T11:04:43Z</time>
      </trkpt>
      <trkpt lat="42.84193" lon="-0.23484">
        <ele>2184.2</ele>
        <time>2021-08-06T11:05:14Z</time>
      </trkpt>
      <trkpt lat="42.84194" lon="-0.23448">
        <ele>2189.7</ele>
        <time>2021-08-06T11:54:44Z</time>
      </trkpt>
      <trkpt lat="42.84191" lon="-0.23465">
        <ele>2189.7</ele>
        <time>2021-08-06T11:54:45Z</time>
      </trkpt>
      <trkpt lat="42.84194" lon="-0.23484">
        <ele>2189.6</ele>
        <time>2021-08-06T11:55:49Z</time>
      </trkpt>
      <trkpt lat="42.84192" lon="-0.23484">
        <ele>2189.6</ele>
        <time>2021-08-06T11:56:33Z</time>
      </trkpt>
      <trkpt lat="42.84192" lon="-0.23485">
        <ele>2189.6</ele>
        <time>2021-08-06T11:57:09Z</time>
      </trkpt>
      <trkpt lat="42.84192" lon="-0.23484">
        <ele>2189.6</ele>
        <time>2021-08-06T11:58:25Z</time>
      </trkpt>
      <trkpt lat="42.84195" lon="-0.23487">
        <ele>2193.2</ele>
        <time>2021-08-06T11:58:42Z</time>
      </trkpt>
      <trkpt lat="42.84195" lon="-0.23488">
        <ele>2192.9</ele>
        <time>2021-08-06T11:58:43Z</time>
      </trkpt>
      <trkpt lat="42.84206" lon="-0.2349">
        <ele>2193</ele>
        <time>2021-08-06T11:59:03Z</time>
      </trkpt>
      <trkpt lat="42.8422" lon="-0.23478">
        <ele>2192.4</ele>
        <time>2021-08-06T11:59:24Z</time>
      </trkpt>
      <trkpt lat="42.84236" lon="-0.23461">
        <ele>2194.4</ele>
        <time>2021-08-06T11:59:49Z</time>
      </trkpt>
      <trkpt lat="42.84263" lon="-0.23453">
        <ele>2194.2</ele>
        <time>2021-08-06T12:00:21Z</time>
      </trkpt>
      <trkpt lat="42.84284" lon="-0.23456">
        <ele>2195.2</ele>
        <time>2021-08-06T12:00:49Z</time>
      </trkpt>
      <trkpt lat="42.84293" lon="-0.23454">
        <ele>2197.2</ele>
        <time>2021-08-06T12:01:09Z</time>
      </trkpt>
      <trkpt lat="42.84294" lon="-0.23452">
        <ele>2198</ele>
        <time>2021-08-06T12:01:34Z</time>
      </trkpt>
      <trkpt lat="42.84319" lon="-0.23435">
        <ele>2198</ele>
        <time>2021-08-06T12:02:07Z</time>
      </trkpt>
      <trkpt lat="42.84333" lon="-0.23426">
        <ele>2196.5</ele>
        <time>2021-08-06T12:02:31Z</time>
      </trkpt>
      <trkpt lat="42.84333" lon="-0.23425">
        <ele>2196.4</ele>
        <time>2021-08-06T12:02:32Z</time>
      </trkpt>
      <trkpt lat="42.8435" lon="-0.23415">
        <ele>2193.4</ele>
        <time>2021-08-06T12:02:54Z</time>
      </trkpt>
      <trkpt lat="42.84368" lon="-0.23408">
        <ele>2190.1</ele>
        <time>2021-08-06T12:03:13Z</time>
      </trkpt>
      <trkpt lat="42.84382" lon="-0.23411">
        <ele>2188.1</ele>
        <time>2021-08-06T12:03:35Z</time>
      </trkpt>
      <trkpt lat="42.84396" lon="-0.23421">
        <ele>2185</ele>
        <time>2021-08-06T12:03:55Z</time>
      </trkpt>
      <trkpt lat="42.84401" lon="-0.23424">
        <ele>2181.9</ele>
        <time>2021-08-06T12:04:15Z</time>
      </trkpt>
      <trkpt lat="42.84408" lon="-0.23425">
        <ele>2178.7</ele>
        <time>2021-08-06T12:04:29Z</time>
      </trkpt>
      <trkpt lat="42.84416" lon="-0.23426">
        <ele>2175.5</ele>
        <time>2021-08-06T12:04:44Z</time>
      </trkpt>
      <trkpt lat="42.84424" lon="-0.23432">
        <ele>2172.3</ele>
        <time>2021-08-06T12:04:57Z</time>
      </trkpt>
      <trkpt lat="42.84435" lon="-0.23438">
        <ele>2170.3</ele>
        <time>2021-08-06T12:05:08Z</time>
      </trkpt>
      <trkpt lat="42.84458" lon="-0.23451">
        <ele>2167.5</ele>
        <time>2021-08-06T12:05:36Z</time>
      </trkpt>
      <trkpt lat="42.84466" lon="-0.23465">
        <ele>2164.5</ele>
        <time>2021-08-06T12:05:52Z</time>
      </trkpt>
      <trkpt lat="42.84481" lon="-0.23471">
        <ele>2161.4</ele>
        <time>2021-08-06T12:06:18Z</time>
      </trkpt>
      <trkpt lat="42.84487" lon="-0.23464">
        <ele>2158.4</ele>
        <time>2021-08-06T12:06:32Z</time>
      </trkpt>
      <trkpt lat="42.84506" lon="-0.2348">
        <ele>2155.9</ele>
        <time>2021-08-06T12:07:03Z</time>
      </trkpt>
      <trkpt lat="42.84521" lon="-0.23488">
        <ele>2154.9</ele>
        <time>2021-08-06T12:07:28Z</time>
      </trkpt>
      <trkpt lat="42.84531" lon="-0.23497">
        <ele>2153.6</ele>
        <time>2021-08-06T12:07:53Z</time>
      </trkpt>
      <trkpt lat="42.84546" lon="-0.2351">
        <ele>2150.7</ele>
        <time>2021-08-06T12:08:16Z</time>
      </trkpt>
      <trkpt lat="42.84554" lon="-0.23526">
        <ele>2147.6</ele>
        <time>2021-08-06T12:08:41Z</time>
      </trkpt>
      <trkpt lat="42.84558" lon="-0.23534">
        <ele>2144.4</ele>
        <time>2021-08-06T12:08:54Z</time>
      </trkpt>
      <trkpt lat="42.84555" lon="-0.23539">
        <ele>2141.6</ele>
        <time>2021-08-06T12:09:12Z</time>
      </trkpt>
      <trkpt lat="42.84555" lon="-0.23539">
        <ele>2142.3</ele>
        <time>2021-08-06T12:09:57Z</time>
      </trkpt>
      <trkpt lat="42.84555" lon="-0.23542">
        <ele>2142.2</ele>
        <time>2021-08-06T12:10:52Z</time>
      </trkpt>
      <trkpt lat="42.84553" lon="-0.23546">
        <ele>2140.6</ele>
        <time>2021-08-06T12:11:21Z</time>
      </trkpt>
      <trkpt lat="42.84558" lon="-0.2355">
        <ele>2137.9</ele>
        <time>2021-08-06T12:11:49Z</time>
      </trkpt>
      <trkpt lat="42.84561" lon="-0.23548">
        <ele>2135</ele>
        <time>2021-08-06T12:12:10Z</time>
      </trkpt>
      <trkpt lat="42.84572" lon="-0.23551">
        <ele>2131.8</ele>
        <time>2021-08-06T12:12:31Z</time>
      </trkpt>
      <trkpt lat="42.84576" lon="-0.2355">
        <ele>2129.9</ele>
        <time>2021-08-06T12:12:53Z</time>
      </trkpt>
      <trkpt lat="42.84581" lon="-0.23536">
        <ele>2129.5</ele>
        <time>2021-08-06T12:13:18Z</time>
      </trkpt>
      <trkpt lat="42.84588" lon="-0.23531">
        <ele>2127.1</ele>
        <time>2021-08-06T12:13:39Z</time>
      </trkpt>
      <trkpt lat="42.84591" lon="-0.2352">
        <ele>2124.1</ele>
        <time>2021-08-06T12:14:00Z</time>
      </trkpt>
      <trkpt lat="42.84599" lon="-0.23517">
        <ele>2121.1</ele>
        <time>2021-08-06T12:14:14Z</time>
      </trkpt>
      <trkpt lat="42.84609" lon="-0.2352">
        <ele>2117.8</ele>
        <time>2021-08-06T12:14:29Z</time>
      </trkpt>
      <trkpt lat="42.84619" lon="-0.23522">
        <ele>2114.7</ele>
        <time>2021-08-06T12:14:45Z</time>
      </trkpt>
      <trkpt lat="42.84627" lon="-0.23516">
        <ele>2112</ele>
        <time>2021-08-06T12:15:05Z</time>
      </trkpt>
      <trkpt lat="42.84637" lon="-0.2352">
        <ele>2109.2</ele>
        <time>2021-08-06T12:15:24Z</time>
      </trkpt>
      <trkpt lat="42.84639" lon="-0.23522">
        <ele>2106.7</ele>
        <time>2021-08-06T12:15:49Z</time>
      </trkpt>
      <trkpt lat="42.84645" lon="-0.23527">
        <ele>2103.5</ele>
        <time>2021-08-06T12:16:04Z</time>
      </trkpt>
      <trkpt lat="42.84654" lon="-0.23526">
        <ele>2100.4</ele>
        <time>2021-08-06T12:16:24Z</time>
      </trkpt>
      <trkpt lat="42.84665" lon="-0.23531">
        <ele>2097.4</ele>
        <time>2021-08-06T12:16:41Z</time>
      </trkpt>
      <trkpt lat="42.84672" lon="-0.2353">
        <ele>2094.4</ele>
        <time>2021-08-06T12:16:55Z</time>
      </trkpt>
      <trkpt lat="42.84679" lon="-0.23527">
        <ele>2091.3</ele>
        <time>2021-08-06T12:17:07Z</time>
      </trkpt>
      <trkpt lat="42.84686" lon="-0.2352">
        <ele>2088.2</ele>
        <time>2021-08-06T12:17:20Z</time>
      </trkpt>
      <trkpt lat="42.84694" lon="-0.23517">
        <ele>2085.1</ele>
        <time>2021-08-06T12:17:33Z</time>
      </trkpt>
      <trkpt lat="42.84704" lon="-0.2352">
        <ele>2081.9</ele>
        <time>2021-08-06T12:17:48Z</time>
      </trkpt>
      <trkpt lat="42.84708" lon="-0.23524">
        <ele>2078.8</ele>
        <time>2021-08-06T12:17:58Z</time>
      </trkpt>
      <trkpt lat="42.84716" lon="-0.23523">
        <ele>2075.6</ele>
        <time>2021-08-06T12:18:14Z</time>
      </trkpt>
      <trkpt lat="42.84717" lon="-0.23526">
        <ele>2074.4</ele>
        <time>2021-08-06T12:18:22Z</time>
      </trkpt>
      <trkpt lat="42.84729" lon="-0.23524">
        <ele>2071.9</ele>
        <time>2021-08-06T12:18:43Z</time>
      </trkpt>
      <trkpt lat="42.84739" lon="-0.23515">
        <ele>2068.8</ele>
        <time>2021-08-06T12:19:00Z</time>
      </trkpt>
      <trkpt lat="42.84743" lon="-0.23517">
        <ele>2068.1</ele>
        <time>2021-08-06T12:19:04Z</time>
      </trkpt>
      <trkpt lat="42.84746" lon="-0.23518">
        <ele>2066.9</ele>
        <time>2021-08-06T12:19:09Z</time>
      </trkpt>
      <trkpt lat="42.8475" lon="-0.23519">
        <ele>2065.3</ele>
        <time>2021-08-06T12:19:14Z</time>
      </trkpt>
      <trkpt lat="42.84755" lon="-0.23517">
        <ele>2063.2</ele>
        <time>2021-08-06T12:19:22Z</time>
      </trkpt>
      <trkpt lat="42.8476" lon="-0.2352">
        <ele>2059.8</ele>
        <time>2021-08-06T12:19:33Z</time>
      </trkpt>
      <trkpt lat="42.8476" lon="-0.23524">
        <ele>2056.8</ele>
        <time>2021-08-06T12:19:50Z</time>
      </trkpt>
      <trkpt lat="42.84762" lon="-0.23532">
        <ele>2054.2</ele>
        <time>2021-08-06T12:20:23Z</time>
      </trkpt>
      <trkpt lat="42.8477" lon="-0.23531">
        <ele>2051.9</ele>
        <time>2021-08-06T12:20:40Z</time>
      </trkpt>
      <trkpt lat="42.84777" lon="-0.23526">
        <ele>2048.6</ele>
        <time>2021-08-06T12:20:53Z</time>
      </trkpt>
      <trkpt lat="42.84782" lon="-0.23527">
        <ele>2045.2</ele>
        <time>2021-08-06T12:21:02Z</time>
      </trkpt>
      <trkpt lat="42.84788" lon="-0.23526">
        <ele>2042</ele>
        <time>2021-08-06T12:21:12Z</time>
      </trkpt>
      <trkpt lat="42.84792" lon="-0.23524">
        <ele>2038.8</ele>
        <time>2021-08-06T12:21:21Z</time>
      </trkpt>
      <trkpt lat="42.84792" lon="-0.23537">
        <ele>2035.7</ele>
        <time>2021-08-06T12:21:30Z</time>
      </trkpt>
      <trkpt lat="42.84793" lon="-0.23546">
        <ele>2032.5</ele>
        <time>2021-08-06T12:21:41Z</time>
      </trkpt>
      <trkpt lat="42.84798" lon="-0.23544">
        <ele>2029.4</ele>
        <time>2021-08-06T12:21:49Z</time>
      </trkpt>
      <trkpt lat="42.848" lon="-0.23544">
        <ele>2027.3</ele>
        <time>2021-08-06T12:21:53Z</time>
      </trkpt>
      <trkpt lat="42.84804" lon="-0.23543">
        <ele>2024.1</ele>
        <time>2021-08-06T12:22:03Z</time>
      </trkpt>
      <trkpt lat="42.84806" lon="-0.2355">
        <ele>2020.8</ele>
        <time>2021-08-06T12:22:14Z</time>
      </trkpt>
      <trkpt lat="42.84807" lon="-0.23557">
        <ele>2017.4</ele>
        <time>2021-08-06T12:22:25Z</time>
      </trkpt>
      <trkpt lat="42.84812" lon="-0.23557">
        <ele>2014.2</ele>
        <time>2021-08-06T12:22:38Z</time>
      </trkpt>
      <trkpt lat="42.84817" lon="-0.23553">
        <ele>2011.1</ele>
        <time>2021-08-06T12:22:47Z</time>
      </trkpt>
      <trkpt lat="42.84822" lon="-0.23553">
        <ele>2007.8</ele>
        <time>2021-08-06T12:22:57Z</time>
      </trkpt>
      <trkpt lat="42.84825" lon="-0.2355">
        <ele>2004.7</ele>
        <time>2021-08-06T12:23:09Z</time>
      </trkpt>
      <trkpt lat="42.8483" lon="-0.23558">
        <ele>2001.5</ele>
        <time>2021-08-06T12:23:23Z</time>
      </trkpt>
      <trkpt lat="42.84832" lon="-0.23568">
        <ele>1998.2</ele>
        <time>2021-08-06T12:23:34Z</time>
      </trkpt>
      <trkpt lat="42.84833" lon="-0.23571">
        <ele>1997.8</ele>
        <time>2021-08-06T12:23:36Z</time>
      </trkpt>
      <trkpt lat="42.84838" lon="-0.23584">
        <ele>1994.5</ele>
        <time>2021-08-06T12:23:50Z</time>
      </trkpt>
      <trkpt lat="42.84838" lon="-0.23595">
        <ele>1991.2</ele>
        <time>2021-08-06T12:24:05Z</time>
      </trkpt>
      <trkpt lat="42.8484" lon="-0.23591">
        <ele>1988.1</ele>
        <time>2021-08-06T12:24:19Z</time>
      </trkpt>
      <trkpt lat="42.84846" lon="-0.23591">
        <ele>1985</ele>
        <time>2021-08-06T12:24:32Z</time>
      </trkpt>
      <trkpt lat="42.84856" lon="-0.2358">
        <ele>1981.9</ele>
        <time>2021-08-06T12:24:48Z</time>
      </trkpt>
      <trkpt lat="42.84866" lon="-0.23568">
        <ele>1978.7</ele>
        <time>2021-08-06T12:25:10Z</time>
      </trkpt>
      <trkpt lat="42.84868" lon="-0.23573">
        <ele>1977.6</ele>
        <time>2021-08-06T12:25:48Z</time>
      </trkpt>
      <trkpt lat="42.84869" lon="-0.23572">
        <ele>1978.9</ele>
        <time>2021-08-06T12:26:28Z</time>
      </trkpt>
      <trkpt lat="42.84868" lon="-0.23571">
        <ele>1976.2</ele>
        <time>2021-08-06T12:27:31Z</time>
      </trkpt>
      <trkpt lat="42.84867" lon="-0.23573">
        <ele>1975.6</ele>
        <time>2021-08-06T12:28:08Z</time>
      </trkpt>
      <trkpt lat="42.84875" lon="-0.23578">
        <ele>1976.2</ele>
        <time>2021-08-06T12:28:37Z</time>
      </trkpt>
      <trkpt lat="42.84884" lon="-0.23583">
        <ele>1976.2</ele>
        <time>2021-08-06T12:29:04Z</time>
      </trkpt>
      <trkpt lat="42.84887" lon="-0.23587">
        <ele>1968.1</ele>
        <time>2021-08-06T12:29:21Z</time>
      </trkpt>
      <trkpt lat="42.84887" lon="-0.23588">
        <ele>1968.3</ele>
        <time>2021-08-06T12:29:22Z</time>
      </trkpt>
      <trkpt lat="42.84897" lon="-0.23594">
        <ele>1965.3</ele>
        <time>2021-08-06T12:29:48Z</time>
      </trkpt>
      <trkpt lat="42.84907" lon="-0.236">
        <ele>1962.3</ele>
        <time>2021-08-06T12:30:04Z</time>
      </trkpt>
      <trkpt lat="42.84914" lon="-0.23604">
        <ele>1959.1</ele>
        <time>2021-08-06T12:30:17Z</time>
      </trkpt>
      <trkpt lat="42.8492" lon="-0.23608">
        <ele>1955.9</ele>
        <time>2021-08-06T12:30:29Z</time>
      </trkpt>
      <trkpt lat="42.84923" lon="-0.23615">
        <ele>1952.7</ele>
        <time>2021-08-06T12:30:42Z</time>
      </trkpt>
      <trkpt lat="42.8493" lon="-0.23621">
        <ele>1949.5</ele>
        <time>2021-08-06T12:30:55Z</time>
      </trkpt>
      <trkpt lat="42.84936" lon="-0.23624">
        <ele>1946.3</ele>
        <time>2021-08-06T12:31:09Z</time>
      </trkpt>
      <trkpt lat="42.8494" lon="-0.23622">
        <ele>1943.2</ele>
        <time>2021-08-06T12:31:22Z</time>
      </trkpt>
      <trkpt lat="42.84946" lon="-0.2362">
        <ele>1940.1</ele>
        <time>2021-08-06T12:31:33Z</time>
      </trkpt>
      <trkpt lat="42.84949" lon="-0.23618">
        <ele>1937.1</ele>
        <time>2021-08-06T12:31:45Z</time>
      </trkpt>
      <trkpt lat="42.84957" lon="-0.23616">
        <ele>1935.3</ele>
        <time>2021-08-06T12:32:18Z</time>
      </trkpt>
      <trkpt lat="42.84988" lon="-0.23592">
        <ele>1933.5</ele>
        <time>2021-08-06T12:32:39Z</time>
      </trkpt>
      <trkpt lat="42.8499" lon="-0.2359">
        <ele>1933.1</ele>
        <time>2021-08-06T12:33:08Z</time>
      </trkpt>
      <trkpt lat="42.8499" lon="-0.2359">
        <ele>1933</ele>
        <time>2021-08-06T12:33:40Z</time>
      </trkpt>
      <trkpt lat="42.85001" lon="-0.23575">
        <ele>1934.6</ele>
        <time>2021-08-06T12:34:16Z</time>
      </trkpt>
      <trkpt lat="42.85019" lon="-0.23568">
        <ele>1932.8</ele>
        <time>2021-08-06T12:34:39Z</time>
      </trkpt>
      <trkpt lat="42.85028" lon="-0.23562">
        <ele>1929.7</ele>
        <time>2021-08-06T12:34:53Z</time>
      </trkpt>
      <trkpt lat="42.85039" lon="-0.23559">
        <ele>1926.3</ele>
        <time>2021-08-06T12:35:06Z</time>
      </trkpt>
      <trkpt lat="42.85045" lon="-0.23558">
        <ele>1923.1</ele>
        <time>2021-08-06T12:35:18Z</time>
      </trkpt>
      <trkpt lat="42.85051" lon="-0.23564">
        <ele>1920.1</ele>
        <time>2021-08-06T12:35:33Z</time>
      </trkpt>
      <trkpt lat="42.85055" lon="-0.2356">
        <ele>1916.6</ele>
        <time>2021-08-06T12:35:50Z</time>
      </trkpt>
      <trkpt lat="42.85058" lon="-0.23558">
        <ele>1915.8</ele>
        <time>2021-08-06T12:35:52Z</time>
      </trkpt>
      <trkpt lat="42.85067" lon="-0.2356">
        <ele>1914</ele>
        <time>2021-08-06T12:36:06Z</time>
      </trkpt>
      <trkpt lat="42.85075" lon="-0.23559">
        <ele>1912.8</ele>
        <time>2021-08-06T12:36:13Z</time>
      </trkpt>
      <trkpt lat="42.85087" lon="-0.23557">
        <ele>1910.3</ele>
        <time>2021-08-06T12:36:24Z</time>
      </trkpt>
      <trkpt lat="42.8509" lon="-0.23561">
        <ele>1908.5</ele>
        <time>2021-08-06T12:36:30Z</time>
      </trkpt>
      <trkpt lat="42.85102" lon="-0.23557">
        <ele>1906</ele>
        <time>2021-08-06T12:36:43Z</time>
      </trkpt>
      <trkpt lat="42.85111" lon="-0.23565">
        <ele>1903.2</ele>
        <time>2021-08-06T12:36:56Z</time>
      </trkpt>
      <trkpt lat="42.85111" lon="-0.2356">
        <ele>1899.9</ele>
        <time>2021-08-06T12:37:11Z</time>
      </trkpt>
      <trkpt lat="42.85115" lon="-0.23559">
        <ele>1897.7</ele>
        <time>2021-08-06T12:37:27Z</time>
      </trkpt>
      <trkpt lat="42.85124" lon="-0.23555">
        <ele>1896.2</ele>
        <time>2021-08-06T12:37:40Z</time>
      </trkpt>
      <trkpt lat="42.85126" lon="-0.23552">
        <ele>1895.4</ele>
        <time>2021-08-06T12:37:44Z</time>
      </trkpt>
      <trkpt lat="42.85129" lon="-0.23547">
        <ele>1895.1</ele>
        <time>2021-08-06T12:37:50Z</time>
      </trkpt>
      <trkpt lat="42.85136" lon="-0.23546">
        <ele>1893.7</ele>
        <time>2021-08-06T12:38:03Z</time>
      </trkpt>
      <trkpt lat="42.85147" lon="-0.23542">
        <ele>1893.3</ele>
        <time>2021-08-06T12:38:19Z</time>
      </trkpt>
      <trkpt lat="42.85153" lon="-0.23544">
        <ele>1892.3</ele>
        <time>2021-08-06T12:38:32Z</time>
      </trkpt>
      <trkpt lat="42.85155" lon="-0.23545">
        <ele>1891.5</ele>
        <time>2021-08-06T12:38:47Z</time>
      </trkpt>
      <trkpt lat="42.85155" lon="-0.23545">
        <ele>1889.6</ele>
        <time>2021-08-06T12:39:08Z</time>
      </trkpt>
      <trkpt lat="42.85156" lon="-0.23544">
        <ele>1888.1</ele>
        <time>2021-08-06T12:40:02Z</time>
      </trkpt>
      <trkpt lat="42.85163" lon="-0.23541">
        <ele>1889.7</ele>
        <time>2021-08-06T12:40:11Z</time>
      </trkpt>
      <trkpt lat="42.85172" lon="-0.23536">
        <ele>1890.3</ele>
        <time>2021-08-06T12:40:30Z</time>
      </trkpt>
      <trkpt lat="42.85179" lon="-0.23534">
        <ele>1887.6</ele>
        <time>2021-08-06T12:40:47Z</time>
      </trkpt>
      <trkpt lat="42.85183" lon="-0.23531">
        <ele>1886.2</ele>
        <time>2021-08-06T12:41:05Z</time>
      </trkpt>
      <trkpt lat="42.85183" lon="-0.2353">
        <ele>1886.4</ele>
        <time>2021-08-06T12:41:42Z</time>
      </trkpt>
      <trkpt lat="42.85184" lon="-0.23528">
        <ele>1887.3</ele>
        <time>2021-08-06T12:42:17Z</time>
      </trkpt>
      <trkpt lat="42.85186" lon="-0.23521">
        <ele>1885.7</ele>
        <time>2021-08-06T12:42:39Z</time>
      </trkpt>
      <trkpt lat="42.85191" lon="-0.23513">
        <ele>1885.7</ele>
        <time>2021-08-06T12:43:13Z</time>
      </trkpt>
      <trkpt lat="42.85197" lon="-0.2351">
        <ele>1885.7</ele>
        <time>2021-08-06T12:43:39Z</time>
      </trkpt>
      <trkpt lat="42.85202" lon="-0.23491">
        <ele>1885.7</ele>
        <time>2021-08-06T12:44:00Z</time>
      </trkpt>
      <trkpt lat="42.85203" lon="-0.23493">
        <ele>1885.7</ele>
        <time>2021-08-06T12:44:21Z</time>
      </trkpt>
      <trkpt lat="42.85203" lon="-0.23493">
        <ele>1881.6</ele>
        <time>2021-08-06T12:44:27Z</time>
      </trkpt>
      <trkpt lat="42.85203" lon="-0.23493">
        <ele>1881.6</ele>
        <time>2021-08-06T12:44:28Z</time>
      </trkpt>
      <trkpt lat="42.85205" lon="-0.2348">
        <ele>1879.8</ele>
        <time>2021-08-06T12:44:53Z</time>
      </trkpt>
      <trkpt lat="42.85208" lon="-0.23481">
        <ele>1879.3</ele>
        <time>2021-08-06T12:44:55Z</time>
      </trkpt>
      <trkpt lat="42.85219" lon="-0.23479">
        <ele>1876.3</ele>
        <time>2021-08-06T12:45:08Z</time>
      </trkpt>
      <trkpt lat="42.85219" lon="-0.23478">
        <ele>1876.1</ele>
        <time>2021-08-06T12:45:09Z</time>
      </trkpt>
      <trkpt lat="42.85224" lon="-0.23474">
        <ele>1874.8</ele>
        <time>2021-08-06T12:45:15Z</time>
      </trkpt>
      <trkpt lat="42.85224" lon="-0.23477">
        <ele>1872.4</ele>
        <time>2021-08-06T12:45:38Z</time>
      </trkpt>
      <trkpt lat="42.85229" lon="-0.23475">
        <ele>1870.2</ele>
        <time>2021-08-06T12:45:56Z</time>
      </trkpt>
      <trkpt lat="42.85234" lon="-0.23477">
        <ele>1869</ele>
        <time>2021-08-06T12:46:29Z</time>
      </trkpt>
      <trkpt lat="42.85238" lon="-0.23472">
        <ele>1868.4</ele>
        <time>2021-08-06T12:46:48Z</time>
      </trkpt>
      <trkpt lat="42.85254" lon="-0.23468">
        <ele>1865.7</ele>
        <time>2021-08-06T12:47:04Z</time>
      </trkpt>
      <trkpt lat="42.85266" lon="-0.23457">
        <ele>1862.5</ele>
        <time>2021-08-06T12:47:23Z</time>
      </trkpt>
      <trkpt lat="42.85271" lon="-0.23448">
        <ele>1859.8</ele>
        <time>2021-08-06T12:47:40Z</time>
      </trkpt>
      <trkpt lat="42.85273" lon="-0.23446">
        <ele>1860</ele>
        <time>2021-08-06T12:47:44Z</time>
      </trkpt>
      <trkpt lat="42.85278" lon="-0.23439">
        <ele>1859.6</ele>
        <time>2021-08-06T12:47:55Z</time>
      </trkpt>
      <trkpt lat="42.8529" lon="-0.23446">
        <ele>1857</ele>
        <time>2021-08-06T12:48:15Z</time>
      </trkpt>
      <trkpt lat="42.85303" lon="-0.23449">
        <ele>1853.9</ele>
        <time>2021-08-06T12:48:35Z</time>
      </trkpt>
      <trkpt lat="42.85311" lon="-0.23451">
        <ele>1850.8</ele>
        <time>2021-08-06T12:48:47Z</time>
      </trkpt>
      <trkpt lat="42.85322" lon="-0.23447">
        <ele>1847.5</ele>
        <time>2021-08-06T12:49:02Z</time>
      </trkpt>
      <trkpt lat="42.85328" lon="-0.23446">
        <ele>1844.5</ele>
        <time>2021-08-06T12:49:17Z</time>
      </trkpt>
      <trkpt lat="42.85335" lon="-0.23444">
        <ele>1841.4</ele>
        <time>2021-08-06T12:49:26Z</time>
      </trkpt>
      <trkpt lat="42.85343" lon="-0.23448">
        <ele>1838.3</ele>
        <time>2021-08-06T12:49:43Z</time>
      </trkpt>
      <trkpt lat="42.85352" lon="-0.23454">
        <ele>1835.2</ele>
        <time>2021-08-06T12:50:00Z</time>
      </trkpt>
      <trkpt lat="42.85357" lon="-0.23465">
        <ele>1832.2</ele>
        <time>2021-08-06T12:50:15Z</time>
      </trkpt>
      <trkpt lat="42.85363" lon="-0.23474">
        <ele>1829.1</ele>
        <time>2021-08-06T12:50:27Z</time>
      </trkpt>
      <trkpt lat="42.85362" lon="-0.23486">
        <ele>1825.6</ele>
        <time>2021-08-06T12:50:43Z</time>
      </trkpt>
      <trkpt lat="42.85363" lon="-0.23494">
        <ele>1822.4</ele>
        <time>2021-08-06T12:50:54Z</time>
      </trkpt>
      <trkpt lat="42.85367" lon="-0.23495">
        <ele>1819.4</ele>
        <time>2021-08-06T12:51:04Z</time>
      </trkpt>
      <trkpt lat="42.85372" lon="-0.23491">
        <ele>1816.3</ele>
        <time>2021-08-06T12:51:19Z</time>
      </trkpt>
      <trkpt lat="42.85379" lon="-0.23502">
        <ele>1813.3</ele>
        <time>2021-08-06T12:51:43Z</time>
      </trkpt>
      <trkpt lat="42.85387" lon="-0.23504">
        <ele>1812.3</ele>
        <time>2021-08-06T12:51:49Z</time>
      </trkpt>
      <trkpt lat="42.85398" lon="-0.23498">
        <ele>1809.4</ele>
        <time>2021-08-06T12:52:04Z</time>
      </trkpt>
      <trkpt lat="42.85403" lon="-0.23489">
        <ele>1806.3</ele>
        <time>2021-08-06T12:52:21Z</time>
      </trkpt>
      <trkpt lat="42.85412" lon="-0.23482">
        <ele>1803.2</ele>
        <time>2021-08-06T12:52:38Z</time>
      </trkpt>
      <trkpt lat="42.85422" lon="-0.2348">
        <ele>1800</ele>
        <time>2021-08-06T12:52:54Z</time>
      </trkpt>
      <trkpt lat="42.8543" lon="-0.23475">
        <ele>1796.9</ele>
        <time>2021-08-06T12:53:09Z</time>
      </trkpt>
      <trkpt lat="42.8544" lon="-0.23458">
        <ele>1793.7</ele>
        <time>2021-08-06T12:53:31Z</time>
      </trkpt>
      <trkpt lat="42.85448" lon="-0.2345">
        <ele>1790.6</ele>
        <time>2021-08-06T12:53:51Z</time>
      </trkpt>
      <trkpt lat="42.85456" lon="-0.23449">
        <ele>1787.5</ele>
        <time>2021-08-06T12:54:04Z</time>
      </trkpt>
      <trkpt lat="42.85455" lon="-0.23449">
        <ele>1785.6</ele>
        <time>2021-08-06T12:54:26Z</time>
      </trkpt>
      <trkpt lat="42.85455" lon="-0.23438">
        <ele>1786.6</ele>
        <time>2021-08-06T12:54:46Z</time>
      </trkpt>
      <trkpt lat="42.85454" lon="-0.23437">
        <ele>1787</ele>
        <time>2021-08-06T12:55:29Z</time>
      </trkpt>
      <trkpt lat="42.85465" lon="-0.23428">
        <ele>1786.8</ele>
        <time>2021-08-06T12:56:01Z</time>
      </trkpt>
      <trkpt lat="42.85478" lon="-0.23413">
        <ele>1783.8</ele>
        <time>2021-08-06T12:56:21Z</time>
      </trkpt>
      <trkpt lat="42.85485" lon="-0.23404">
        <ele>1780.7</ele>
        <time>2021-08-06T12:56:39Z</time>
      </trkpt>
      <trkpt lat="42.85494" lon="-0.23401">
        <ele>1777.6</ele>
        <time>2021-08-06T12:56:55Z</time>
      </trkpt>
      <trkpt lat="42.85501" lon="-0.23397">
        <ele>1774.5</ele>
        <time>2021-08-06T12:57:08Z</time>
      </trkpt>
      <trkpt lat="42.85506" lon="-0.23398">
        <ele>1772.2</ele>
        <time>2021-08-06T12:57:39Z</time>
      </trkpt>
      <trkpt lat="42.85505" lon="-0.23399">
        <ele>1772.9</ele>
        <time>2021-08-06T12:58:30Z</time>
      </trkpt>
      <trkpt lat="42.85507" lon="-0.23396">
        <ele>1771.3</ele>
        <time>2021-08-06T12:58:56Z</time>
      </trkpt>
      <trkpt lat="42.8552" lon="-0.23396">
        <ele>1768.2</ele>
        <time>2021-08-06T12:59:26Z</time>
      </trkpt>
      <trkpt lat="42.85522" lon="-0.23393">
        <ele>1765.2</ele>
        <time>2021-08-06T12:59:37Z</time>
      </trkpt>
      <trkpt lat="42.85526" lon="-0.23387">
        <ele>1762.3</ele>
        <time>2021-08-06T12:59:56Z</time>
      </trkpt>
      <trkpt lat="42.85532" lon="-0.23377">
        <ele>1760.2</ele>
        <time>2021-08-06T13:00:18Z</time>
      </trkpt>
      <trkpt lat="42.85535" lon="-0.23374">
        <ele>1759.5</ele>
        <time>2021-08-06T13:00:22Z</time>
      </trkpt>
      <trkpt lat="42.8555" lon="-0.23345">
        <ele>1757.7</ele>
        <time>2021-08-06T13:00:47Z</time>
      </trkpt>
      <trkpt lat="42.8556" lon="-0.23322">
        <ele>1756.1</ele>
        <time>2021-08-06T13:01:08Z</time>
      </trkpt>
      <trkpt lat="42.8558" lon="-0.23293">
        <ele>1755</ele>
        <time>2021-08-06T13:01:35Z</time>
      </trkpt>
      <trkpt lat="42.85595" lon="-0.2327">
        <ele>1755.8</ele>
        <time>2021-08-06T13:02:02Z</time>
      </trkpt>
      <trkpt lat="42.85611" lon="-0.23265">
        <ele>1758.9</ele>
        <time>2021-08-06T13:02:30Z</time>
      </trkpt>
      <trkpt lat="42.85618" lon="-0.23259">
        <ele>1759.8</ele>
        <time>2021-08-06T13:02:55Z</time>
      </trkpt>
      <trkpt lat="42.85619" lon="-0.23265">
        <ele>1758.8</ele>
        <time>2021-08-06T13:03:13Z</time>
      </trkpt>
      <trkpt lat="42.85626" lon="-0.23271">
        <ele>1757.9</ele>
        <time>2021-08-06T13:03:22Z</time>
      </trkpt>
      <trkpt lat="42.85633" lon="-0.23275">
        <ele>1757</ele>
        <time>2021-08-06T13:03:43Z</time>
      </trkpt>
      <trkpt lat="42.85633" lon="-0.23276">
        <ele>1756</ele>
        <time>2021-08-06T13:04:23Z</time>
      </trkpt>
      <trkpt lat="42.85639" lon="-0.23263">
        <ele>1756.6</ele>
        <time>2021-08-06T13:05:03Z</time>
      </trkpt>
      <trkpt lat="42.85643" lon="-0.23238">
        <ele>1756.1</ele>
        <time>2021-08-06T13:05:23Z</time>
      </trkpt>
      <trkpt lat="42.85658" lon="-0.2321">
        <ele>1753.2</ele>
        <time>2021-08-06T13:05:52Z</time>
      </trkpt>
      <trkpt lat="42.8566" lon="-0.23202">
        <ele>1752.3</ele>
        <time>2021-08-06T13:06:22Z</time>
      </trkpt>
      <trkpt lat="42.85674" lon="-0.23201">
        <ele>1749.5</ele>
        <time>2021-08-06T13:06:41Z</time>
      </trkpt>
      <trkpt lat="42.85678" lon="-0.23202">
        <ele>1748.6</ele>
        <time>2021-08-06T13:06:47Z</time>
      </trkpt>
      <trkpt lat="42.85696" lon="-0.23208">
        <ele>1745.5</ele>
        <time>2021-08-06T13:07:06Z</time>
      </trkpt>
      <trkpt lat="42.85708" lon="-0.232">
        <ele>1742.1</ele>
        <time>2021-08-06T13:07:22Z</time>
      </trkpt>
      <trkpt lat="42.85711" lon="-0.23198">
        <ele>1741.3</ele>
        <time>2021-08-06T13:07:26Z</time>
      </trkpt>
      <trkpt lat="42.85722" lon="-0.23199">
        <ele>1738.1</ele>
        <time>2021-08-06T13:07:36Z</time>
      </trkpt>
      <trkpt lat="42.85726" lon="-0.2319">
        <ele>1734.9</ele>
        <time>2021-08-06T13:07:50Z</time>
      </trkpt>
      <trkpt lat="42.85733" lon="-0.23189">
        <ele>1731.8</ele>
        <time>2021-08-06T13:08:02Z</time>
      </trkpt>
      <trkpt lat="42.85739" lon="-0.23185">
        <ele>1728.8</ele>
        <time>2021-08-06T13:08:10Z</time>
      </trkpt>
      <trkpt lat="42.85752" lon="-0.23173">
        <ele>1725.7</ele>
        <time>2021-08-06T13:08:26Z</time>
      </trkpt>
      <trkpt lat="42.85762" lon="-0.23168">
        <ele>1725</ele>
        <time>2021-08-06T13:08:38Z</time>
      </trkpt>
      <trkpt lat="42.85774" lon="-0.2318">
        <ele>1721.4</ele>
        <time>2021-08-06T13:08:52Z</time>
      </trkpt>
      <trkpt lat="42.85779" lon="-0.23171">
        <ele>1718.6</ele>
        <time>2021-08-06T13:09:13Z</time>
      </trkpt>
      <trkpt lat="42.85784" lon="-0.23161">
        <ele>1715.4</ele>
        <time>2021-08-06T13:09:29Z</time>
      </trkpt>
      <trkpt lat="42.85791" lon="-0.23158">
        <ele>1712.3</ele>
        <time>2021-08-06T13:09:41Z</time>
      </trkpt>
      <trkpt lat="42.85797" lon="-0.23158">
        <ele>1709.1</ele>
        <time>2021-08-06T13:09:58Z</time>
      </trkpt>
      <trkpt lat="42.85804" lon="-0.23153">
        <ele>1706</ele>
        <time>2021-08-06T13:10:13Z</time>
      </trkpt>
      <trkpt lat="42.85809" lon="-0.23154">
        <ele>1703.1</ele>
        <time>2021-08-06T13:10:32Z</time>
      </trkpt>
      <trkpt lat="42.85827" lon="-0.23149">
        <ele>1701.3</ele>
        <time>2021-08-06T13:10:51Z</time>
      </trkpt>
      <trkpt lat="42.8585" lon="-0.2313">
        <ele>1699</ele>
        <time>2021-08-06T13:11:17Z</time>
      </trkpt>
      <trkpt lat="42.85879" lon="-0.23112">
        <ele>1699.2</ele>
        <time>2021-08-06T13:11:44Z</time>
      </trkpt>
      <trkpt lat="42.85892" lon="-0.23101">
        <ele>1697.8</ele>
        <time>2021-08-06T13:12:01Z</time>
      </trkpt>
      <trkpt lat="42.85898" lon="-0.23101">
        <ele>1694.3</ele>
        <time>2021-08-06T13:12:11Z</time>
      </trkpt>
      <trkpt lat="42.85905" lon="-0.23094">
        <ele>1691.5</ele>
        <time>2021-08-06T13:12:21Z</time>
      </trkpt>
      <trkpt lat="42.85913" lon="-0.23071">
        <ele>1688</ele>
        <time>2021-08-06T13:12:35Z</time>
      </trkpt>
      <trkpt lat="42.85918" lon="-0.23043">
        <ele>1684.8</ele>
        <time>2021-08-06T13:12:51Z</time>
      </trkpt>
      <trkpt lat="42.85923" lon="-0.23026">
        <ele>1683.5</ele>
        <time>2021-08-06T13:13:03Z</time>
      </trkpt>
      <trkpt lat="42.85929" lon="-0.23019">
        <ele>1681.3</ele>
        <time>2021-08-06T13:13:15Z</time>
      </trkpt>
      <trkpt lat="42.85932" lon="-0.23018">
        <ele>1680.5</ele>
        <time>2021-08-06T13:13:24Z</time>
      </trkpt>
      <trkpt lat="42.85935" lon="-0.23023">
        <ele>1680.2</ele>
        <time>2021-08-06T13:13:46Z</time>
      </trkpt>
      <trkpt lat="42.85939" lon="-0.23019">
        <ele>1678.8</ele>
        <time>2021-08-06T13:14:13Z</time>
      </trkpt>
      <trkpt lat="42.8594" lon="-0.23011">
        <ele>1677.3</ele>
        <time>2021-08-06T13:14:41Z</time>
      </trkpt>
      <trkpt lat="42.85948" lon="-0.23004">
        <ele>1674.2</ele>
        <time>2021-08-06T13:14:59Z</time>
      </trkpt>
      <trkpt lat="42.85955" lon="-0.23004">
        <ele>1672.4</ele>
        <time>2021-08-06T13:15:09Z</time>
      </trkpt>
      <trkpt lat="42.85959" lon="-0.22998">
        <ele>1671.6</ele>
        <time>2021-08-06T13:15:13Z</time>
      </trkpt>
      <trkpt lat="42.85971" lon="-0.22963">
        <ele>1672</ele>
        <time>2021-08-06T13:15:39Z</time>
      </trkpt>
      <trkpt lat="42.85977" lon="-0.2294">
        <ele>1673.4</ele>
        <time>2021-08-06T13:16:05Z</time>
      </trkpt>
      <trkpt lat="42.8598" lon="-0.22937">
        <ele>1674.9</ele>
        <time>2021-08-06T13:16:25Z</time>
      </trkpt>
      <trkpt lat="42.8598" lon="-0.22938">
        <ele>1674.8</ele>
        <time>2021-08-06T13:16:29Z</time>
      </trkpt>
      <trkpt lat="42.85994" lon="-0.22943">
        <ele>1675.4</ele>
        <time>2021-08-06T13:16:51Z</time>
      </trkpt>
      <trkpt lat="42.85996" lon="-0.22935">
        <ele>1676.2</ele>
        <time>2021-08-06T13:17:04Z</time>
      </trkpt>
      <trkpt lat="42.8602" lon="-0.22922">
        <ele>1675.7</ele>
        <time>2021-08-06T13:17:30Z</time>
      </trkpt>
      <trkpt lat="42.86048" lon="-0.22899">
        <ele>1675.5</ele>
        <time>2021-08-06T13:17:58Z</time>
      </trkpt>
      <trkpt lat="42.86061" lon="-0.22887">
        <ele>1674.4</ele>
        <time>2021-08-06T13:18:17Z</time>
      </trkpt>
      <trkpt lat="42.86067" lon="-0.22883">
        <ele>1674.7</ele>
        <time>2021-08-06T13:18:38Z</time>
      </trkpt>
      <trkpt lat="42.86069" lon="-0.22874">
        <ele>1674.7</ele>
        <time>2021-08-06T13:19:00Z</time>
      </trkpt>
      <trkpt lat="42.86072" lon="-0.22881">
        <ele>1673.3</ele>
        <time>2021-08-06T13:19:43Z</time>
      </trkpt>
      <trkpt lat="42.86072" lon="-0.22883">
        <ele>1670.9</ele>
        <time>2021-08-06T13:20:14Z</time>
      </trkpt>
      <trkpt lat="42.86071" lon="-0.22883">
        <ele>1668.7</ele>
        <time>2021-08-06T13:20:58Z</time>
      </trkpt>
      <trkpt lat="42.86075" lon="-0.22886">
        <ele>1670.7</ele>
        <time>2021-08-06T13:21:47Z</time>
      </trkpt>
      <trkpt lat="42.86079" lon="-0.22889">
        <ele>1672.2</ele>
        <time>2021-08-06T13:22:28Z</time>
      </trkpt>
      <trkpt lat="42.86077" lon="-0.22899">
        <ele>1671.6</ele>
        <time>2021-08-06T13:23:04Z</time>
      </trkpt>
      <trkpt lat="42.86071" lon="-0.22884">
        <ele>1671.3</ele>
        <time>2021-08-06T13:23:29Z</time>
      </trkpt>
      <trkpt lat="42.86074" lon="-0.22899">
        <ele>1670.4</ele>
        <time>2021-08-06T13:24:09Z</time>
      </trkpt>
      <trkpt lat="42.86077" lon="-0.22908">
        <ele>1670.6</ele>
        <time>2021-08-06T13:24:47Z</time>
      </trkpt>
      <trkpt lat="42.86074" lon="-0.22886">
        <ele>1670.9</ele>
        <time>2021-08-06T13:25:22Z</time>
      </trkpt>
      <trkpt lat="42.86074" lon="-0.22885">
        <ele>1671.9</ele>
        <time>2021-08-06T13:25:57Z</time>
      </trkpt>
      <trkpt lat="42.86077" lon="-0.22885">
        <ele>1673.4</ele>
        <time>2021-08-06T13:26:34Z</time>
      </trkpt>
      <trkpt lat="42.86079" lon="-0.22884">
        <ele>1673.4</ele>
        <time>2021-08-06T13:27:07Z</time>
      </trkpt>
      <trkpt lat="42.86081" lon="-0.22889">
        <ele>1673.2</ele>
        <time>2021-08-06T13:27:54Z</time>
      </trkpt>
      <trkpt lat="42.8608" lon="-0.22893">
        <ele>1673.2</ele>
        <time>2021-08-06T13:28:40Z</time>
      </trkpt>
      <trkpt lat="42.8608" lon="-0.22899">
        <ele>1673.2</ele>
        <time>2021-08-06T13:29:14Z</time>
      </trkpt>
      <trkpt lat="42.8608" lon="-0.22905">
        <ele>1673.2</ele>
        <time>2021-08-06T13:30:11Z</time>
      </trkpt>
      <trkpt lat="42.86081" lon="-0.22898">
        <ele>1673.2</ele>
        <time>2021-08-06T13:30:53Z</time>
      </trkpt>
      <trkpt lat="42.86092" lon="-0.22906">
        <ele>1673.4</ele>
        <time>2021-08-06T13:31:26Z</time>
      </trkpt>
      <trkpt lat="42.86083" lon="-0.22895">
        <ele>1672.9</ele>
        <time>2021-08-06T13:31:47Z</time>
      </trkpt>
      <trkpt lat="42.86071" lon="-0.22873">
        <ele>1674.2</ele>
        <time>2021-08-06T13:32:17Z</time>
      </trkpt>
      <trkpt lat="42.86072" lon="-0.22874">
        <ele>1675.9</ele>
        <time>2021-08-06T13:32:41Z</time>
      </trkpt>
      <trkpt lat="42.86072" lon="-0.22879">
        <ele>1676.6</ele>
        <time>2021-08-06T13:33:08Z</time>
      </trkpt>
      <trkpt lat="42.86088" lon="-0.2287">
        <ele>1675.5</ele>
        <time>2021-08-06T13:33:30Z</time>
      </trkpt>
      <trkpt lat="42.86096" lon="-0.22876">
        <ele>1675.3</ele>
        <time>2021-08-06T13:33:53Z</time>
      </trkpt>
      <trkpt lat="42.86119" lon="-0.22856">
        <ele>1674.4</ele>
        <time>2021-08-06T13:34:16Z</time>
      </trkpt>
      <trkpt lat="42.86138" lon="-0.22844">
        <ele>1673</ele>
        <time>2021-08-06T13:34:37Z</time>
      </trkpt>
      <trkpt lat="42.86157" lon="-0.22826">
        <ele>1675</ele>
        <time>2021-08-06T13:35:06Z</time>
      </trkpt>
      <trkpt lat="42.86177" lon="-0.2282">
        <ele>1678</ele>
        <time>2021-08-06T13:35:32Z</time>
      </trkpt>
      <trkpt lat="42.86186" lon="-0.22813">
        <ele>1681.2</ele>
        <time>2021-08-06T13:35:47Z</time>
      </trkpt>
      <trkpt lat="42.86205" lon="-0.22811">
        <ele>1683.5</ele>
        <time>2021-08-06T13:36:10Z</time>
      </trkpt>
      <trkpt lat="42.86226" lon="-0.22808">
        <ele>1682.5</ele>
        <time>2021-08-06T13:36:36Z</time>
      </trkpt>
      <trkpt lat="42.86239" lon="-0.22803">
        <ele>1679.5</ele>
        <time>2021-08-06T13:36:51Z</time>
      </trkpt>
      <trkpt lat="42.86254" lon="-0.22804">
        <ele>1676.5</ele>
        <time>2021-08-06T13:37:09Z</time>
      </trkpt>
      <trkpt lat="42.86254" lon="-0.22806">
        <ele>1676</ele>
        <time>2021-08-06T13:37:11Z</time>
      </trkpt>
      <trkpt lat="42.86253" lon="-0.22825">
        <ele>1672.5</ele>
        <time>2021-08-06T13:37:26Z</time>
      </trkpt>
      <trkpt lat="42.86256" lon="-0.22828">
        <ele>1671.2</ele>
        <time>2021-08-06T13:37:29Z</time>
      </trkpt>
      <trkpt lat="42.86264" lon="-0.22829">
        <ele>1669.8</ele>
        <time>2021-08-06T13:37:35Z</time>
      </trkpt>
      <trkpt lat="42.86283" lon="-0.22838">
        <ele>1669.3</ele>
        <time>2021-08-06T13:38:00Z</time>
      </trkpt>
      <trkpt lat="42.86301" lon="-0.22846">
        <ele>1669.4</ele>
        <time>2021-08-06T13:38:21Z</time>
      </trkpt>
      <trkpt lat="42.86318" lon="-0.22847">
        <ele>1670.5</ele>
        <time>2021-08-06T13:38:46Z</time>
      </trkpt>
      <trkpt lat="42.86326" lon="-0.22852">
        <ele>1670.2</ele>
        <time>2021-08-06T13:38:55Z</time>
      </trkpt>
      <trkpt lat="42.86344" lon="-0.22867">
        <ele>1670.2</ele>
        <time>2021-08-06T13:39:21Z</time>
      </trkpt>
      <trkpt lat="42.86351" lon="-0.22882">
        <ele>1670.3</ele>
        <time>2021-08-06T13:39:45Z</time>
      </trkpt>
      <trkpt lat="42.86351" lon="-0.22883">
        <ele>1670.3</ele>
        <time>2021-08-06T13:39:46Z</time>
      </trkpt>
      <trkpt lat="42.8635" lon="-0.22886">
        <ele>1670.2</ele>
        <time>2021-08-06T13:39:54Z</time>
      </trkpt>
      <trkpt lat="42.86365" lon="-0.2289">
        <ele>1670.4</ele>
        <time>2021-08-06T13:40:08Z</time>
      </trkpt>
      <trkpt lat="42.86402" lon="-0.22894">
        <ele>1670.7</ele>
        <time>2021-08-06T13:40:38Z</time>
      </trkpt>
      <trkpt lat="42.86421" lon="-0.22905">
        <ele>1668.9</ele>
        <time>2021-08-06T13:41:02Z</time>
      </trkpt>
      <trkpt lat="42.86438" lon="-0.22908">
        <ele>1665.8</ele>
        <time>2021-08-06T13:41:21Z</time>
      </trkpt>
      <trkpt lat="42.86444" lon="-0.22907">
        <ele>1664.9</ele>
        <time>2021-08-06T13:41:27Z</time>
      </trkpt>
      <trkpt lat="42.86467" lon="-0.22909">
        <ele>1661.7</ele>
        <time>2021-08-06T13:41:52Z</time>
      </trkpt>
      <trkpt lat="42.8648" lon="-0.22923">
        <ele>1658.5</ele>
        <time>2021-08-06T13:42:10Z</time>
      </trkpt>
      <trkpt lat="42.86491" lon="-0.22929">
        <ele>1657.1</ele>
        <time>2021-08-06T13:42:22Z</time>
      </trkpt>
      <trkpt lat="42.86502" lon="-0.22934">
        <ele>1655.9</ele>
        <time>2021-08-06T13:42:34Z</time>
      </trkpt>
      <trkpt lat="42.86528" lon="-0.22949">
        <ele>1653.2</ele>
        <time>2021-08-06T13:43:01Z</time>
      </trkpt>
      <trkpt lat="42.8655" lon="-0.22946">
        <ele>1650.1</ele>
        <time>2021-08-06T13:43:25Z</time>
      </trkpt>
      <trkpt lat="42.86569" lon="-0.22943">
        <ele>1647</ele>
        <time>2021-08-06T13:43:46Z</time>
      </trkpt>
      <trkpt lat="42.8658" lon="-0.22947">
        <ele>1645</ele>
        <time>2021-08-06T13:44:04Z</time>
      </trkpt>
      <trkpt lat="42.86603" lon="-0.22939">
        <ele>1643.6</ele>
        <time>2021-08-06T13:44:29Z</time>
      </trkpt>
      <trkpt lat="42.86617" lon="-0.22928">
        <ele>1644.4</ele>
        <time>2021-08-06T13:44:45Z</time>
      </trkpt>
      <trkpt lat="42.86637" lon="-0.22909">
        <ele>1642.6</ele>
        <time>2021-08-06T13:45:14Z</time>
      </trkpt>
      <trkpt lat="42.86647" lon="-0.22916">
        <ele>1639.4</ele>
        <time>2021-08-06T13:45:27Z</time>
      </trkpt>
      <trkpt lat="42.8665" lon="-0.22917">
        <ele>1636.4</ele>
        <time>2021-08-06T13:45:43Z</time>
      </trkpt>
      <trkpt lat="42.8665" lon="-0.22917">
        <ele>1634.5</ele>
        <time>2021-08-06T13:46:20Z</time>
      </trkpt>
      <trkpt lat="42.86656" lon="-0.22913">
        <ele>1633.7</ele>
        <time>2021-08-06T13:46:53Z</time>
      </trkpt>
      <trkpt lat="42.86677" lon="-0.22897">
        <ele>1632.8</ele>
        <time>2021-08-06T13:47:20Z</time>
      </trkpt>
      <trkpt lat="42.86698" lon="-0.229">
        <ele>1629.6</ele>
        <time>2021-08-06T13:47:43Z</time>
      </trkpt>
      <trkpt lat="42.86712" lon="-0.22906">
        <ele>1626.6</ele>
        <time>2021-08-06T13:47:56Z</time>
      </trkpt>
      <trkpt lat="42.8672" lon="-0.22907">
        <ele>1624.6</ele>
        <time>2021-08-06T13:48:06Z</time>
      </trkpt>
      <trkpt lat="42.86725" lon="-0.22905">
        <ele>1623.7</ele>
        <time>2021-08-06T13:48:10Z</time>
      </trkpt>
      <trkpt lat="42.86754" lon="-0.22893">
        <ele>1621.6</ele>
        <time>2021-08-06T13:48:40Z</time>
      </trkpt>
      <trkpt lat="42.86776" lon="-0.22891">
        <ele>1620.3</ele>
        <time>2021-08-06T13:49:03Z</time>
      </trkpt>
      <trkpt lat="42.868" lon="-0.22873">
        <ele>1618.3</ele>
        <time>2021-08-06T13:49:28Z</time>
      </trkpt>
      <trkpt lat="42.86823" lon="-0.22853">
        <ele>1618.2</ele>
        <time>2021-08-06T13:49:57Z</time>
      </trkpt>
      <trkpt lat="42.86849" lon="-0.22846">
        <ele>1616.7</ele>
        <time>2021-08-06T13:50:20Z</time>
      </trkpt>
      <trkpt lat="42.86869" lon="-0.22867">
        <ele>1617.1</ele>
        <time>2021-08-06T13:50:41Z</time>
      </trkpt>
      <trkpt lat="42.86881" lon="-0.22875">
        <ele>1617.8</ele>
        <time>2021-08-06T13:50:55Z</time>
      </trkpt>
      <trkpt lat="42.86887" lon="-0.22877">
        <ele>1617.8</ele>
        <time>2021-08-06T13:51:01Z</time>
      </trkpt>
      <trkpt lat="42.86906" lon="-0.22886">
        <ele>1617.7</ele>
        <time>2021-08-06T13:51:26Z</time>
      </trkpt>
      <trkpt lat="42.86932" lon="-0.22909">
        <ele>1619.2</ele>
        <time>2021-08-06T13:51:55Z</time>
      </trkpt>
      <trkpt lat="42.86959" lon="-0.22922">
        <ele>1621.6</ele>
        <time>2021-08-06T13:52:23Z</time>
      </trkpt>
      <trkpt lat="42.86957" lon="-0.22923">
        <ele>1621.8</ele>
        <time>2021-08-06T13:52:28Z</time>
      </trkpt>
      <trkpt lat="42.86974" lon="-0.2291">
        <ele>1621.1</ele>
        <time>2021-08-06T13:52:46Z</time>
      </trkpt>
      <trkpt lat="42.87007" lon="-0.22905">
        <ele>1620.8</ele>
        <time>2021-08-06T13:53:16Z</time>
      </trkpt>
      <trkpt lat="42.87028" lon="-0.22916">
        <ele>1619.8</ele>
        <time>2021-08-06T13:53:38Z</time>
      </trkpt>
      <trkpt lat="42.87054" lon="-0.22908">
        <ele>1617.2</ele>
        <time>2021-08-06T13:54:02Z</time>
      </trkpt>
      <trkpt lat="42.87079" lon="-0.22892">
        <ele>1615.4</ele>
        <time>2021-08-06T13:54:27Z</time>
      </trkpt>
      <trkpt lat="42.87106" lon="-0.22887">
        <ele>1613.6</ele>
        <time>2021-08-06T13:54:52Z</time>
      </trkpt>
      <trkpt lat="42.8713" lon="-0.22864">
        <ele>1611.8</ele>
        <time>2021-08-06T13:55:18Z</time>
      </trkpt>
      <trkpt lat="42.87148" lon="-0.22845">
        <ele>1612.4</ele>
        <time>2021-08-06T13:55:40Z</time>
      </trkpt>
      <trkpt lat="42.87169" lon="-0.22829">
        <ele>1614.5</ele>
        <time>2021-08-06T13:56:06Z</time>
      </trkpt>
      <trkpt lat="42.8718" lon="-0.2283">
        <ele>1613.2</ele>
        <time>2021-08-06T13:56:16Z</time>
      </trkpt>
      <trkpt lat="42.87194" lon="-0.22824">
        <ele>1611</ele>
        <time>2021-08-06T13:56:32Z</time>
      </trkpt>
      <trkpt lat="42.87221" lon="-0.22809">
        <ele>1609.4</ele>
        <time>2021-08-06T13:56:59Z</time>
      </trkpt>
      <trkpt lat="42.87246" lon="-0.22797">
        <ele>1606.4</ele>
        <time>2021-08-06T13:57:22Z</time>
      </trkpt>
      <trkpt lat="42.87272" lon="-0.22795">
        <ele>1603.3</ele>
        <time>2021-08-06T13:57:45Z</time>
      </trkpt>
      <trkpt lat="42.87284" lon="-0.22787">
        <ele>1603.2</ele>
        <time>2021-08-06T13:58:05Z</time>
      </trkpt>
      <trkpt lat="42.87289" lon="-0.22785">
        <ele>1603.4</ele>
        <time>2021-08-06T13:58:24Z</time>
      </trkpt>
      <trkpt lat="42.87297" lon="-0.22779">
        <ele>1603.8</ele>
        <time>2021-08-06T13:58:33Z</time>
      </trkpt>
      <trkpt lat="42.87312" lon="-0.2277">
        <ele>1603.4</ele>
        <time>2021-08-06T13:58:50Z</time>
      </trkpt>
      <trkpt lat="42.87317" lon="-0.22768">
        <ele>1603.3</ele>
        <time>2021-08-06T13:58:56Z</time>
      </trkpt>
      <trkpt lat="42.87343" lon="-0.22756">
        <ele>1601.4</ele>
        <time>2021-08-06T13:59:19Z</time>
      </trkpt>
      <trkpt lat="42.87353" lon="-0.2275">
        <ele>1600.9</ele>
        <time>2021-08-06T13:59:31Z</time>
      </trkpt>
      <trkpt lat="42.87364" lon="-0.22739">
        <ele>1604.1</ele>
        <time>2021-08-06T13:59:46Z</time>
      </trkpt>
      <trkpt lat="42.87375" lon="-0.22742">
        <ele>1604.6</ele>
        <time>2021-08-06T14:00:05Z</time>
      </trkpt>
      <trkpt lat="42.87377" lon="-0.22741">
        <ele>1604.6</ele>
        <time>2021-08-06T14:00:07Z</time>
      </trkpt>
      <trkpt lat="42.8738" lon="-0.22736">
        <ele>1604.3</ele>
        <time>2021-08-06T14:00:11Z</time>
      </trkpt>
      <trkpt lat="42.87394" lon="-0.22747">
        <ele>1602.8</ele>
        <time>2021-08-06T14:00:32Z</time>
      </trkpt>
      <trkpt lat="42.87407" lon="-0.22747">
        <ele>1601.3</ele>
        <time>2021-08-06T14:00:51Z</time>
      </trkpt>
      <trkpt lat="42.87427" lon="-0.22734">
        <ele>1601</ele>
        <time>2021-08-06T14:01:15Z</time>
      </trkpt>
      <trkpt lat="42.8743" lon="-0.22733">
        <ele>1600.5</ele>
        <time>2021-08-06T14:01:18Z</time>
      </trkpt>
      <trkpt lat="42.87442" lon="-0.22724">
        <ele>1598.2</ele>
        <time>2021-08-06T14:01:36Z</time>
      </trkpt>
      <trkpt lat="42.8747" lon="-0.22709">
        <ele>1595.2</ele>
        <time>2021-08-06T14:02:02Z</time>
      </trkpt>
      <trkpt lat="42.87486" lon="-0.2272">
        <ele>1592.4</ele>
        <time>2021-08-06T14:02:25Z</time>
      </trkpt>
      <trkpt lat="42.87494" lon="-0.2272">
        <ele>1591.1</ele>
        <time>2021-08-06T14:02:35Z</time>
      </trkpt>
      <trkpt lat="42.875" lon="-0.22714">
        <ele>1590.3</ele>
        <time>2021-08-06T14:02:40Z</time>
      </trkpt>
      <trkpt lat="42.87505" lon="-0.22713">
        <ele>1589.5</ele>
        <time>2021-08-06T14:02:44Z</time>
      </trkpt>
      <trkpt lat="42.87511" lon="-0.22724">
        <ele>1586.1</ele>
        <time>2021-08-06T14:02:56Z</time>
      </trkpt>
      <trkpt lat="42.87526" lon="-0.22721">
        <ele>1583</ele>
        <time>2021-08-06T14:03:14Z</time>
      </trkpt>
      <trkpt lat="42.87535" lon="-0.22715">
        <ele>1580.2</ele>
        <time>2021-08-06T14:03:25Z</time>
      </trkpt>
      <trkpt lat="42.87549" lon="-0.22699">
        <ele>1576.8</ele>
        <time>2021-08-06T14:03:42Z</time>
      </trkpt>
      <trkpt lat="42.87555" lon="-0.22692">
        <ele>1575.4</ele>
        <time>2021-08-06T14:03:50Z</time>
      </trkpt>
      <trkpt lat="42.87563" lon="-0.22682">
        <ele>1572.6</ele>
        <time>2021-08-06T14:04:02Z</time>
      </trkpt>
      <trkpt lat="42.87566" lon="-0.22672">
        <ele>1571.7</ele>
        <time>2021-08-06T14:04:09Z</time>
      </trkpt>
      <trkpt lat="42.87569" lon="-0.22672">
        <ele>1569</ele>
        <time>2021-08-06T14:04:23Z</time>
      </trkpt>
      <trkpt lat="42.87575" lon="-0.22675">
        <ele>1567.5</ele>
        <time>2021-08-06T14:04:43Z</time>
      </trkpt>
      <trkpt lat="42.87581" lon="-0.22667">
        <ele>1566.6</ele>
        <time>2021-08-06T14:04:51Z</time>
      </trkpt>
      <trkpt lat="42.87585" lon="-0.22661">
        <ele>1566.3</ele>
        <time>2021-08-06T14:04:56Z</time>
      </trkpt>
      <trkpt lat="42.87596" lon="-0.22657">
        <ele>1564.5</ele>
        <time>2021-08-06T14:05:08Z</time>
      </trkpt>
      <trkpt lat="42.87606" lon="-0.22665">
        <ele>1561</ele>
        <time>2021-08-06T14:05:20Z</time>
      </trkpt>
      <trkpt lat="42.87621" lon="-0.22658">
        <ele>1558.4</ele>
        <time>2021-08-06T14:05:38Z</time>
      </trkpt>
      <trkpt lat="42.87628" lon="-0.22654">
        <ele>1557.7</ele>
        <time>2021-08-06T14:05:48Z</time>
      </trkpt>
      <trkpt lat="42.87649" lon="-0.22667">
        <ele>1555.5</ele>
        <time>2021-08-06T14:06:06Z</time>
      </trkpt>
      <trkpt lat="42.87655" lon="-0.22671">
        <ele>1555.3</ele>
        <time>2021-08-06T14:06:10Z</time>
      </trkpt>
      <trkpt lat="42.87664" lon="-0.22675">
        <ele>1554.9</ele>
        <time>2021-08-06T14:06:17Z</time>
      </trkpt>
      <trkpt lat="42.87681" lon="-0.22693">
        <ele>1554</ele>
        <time>2021-08-06T14:06:35Z</time>
      </trkpt>
      <trkpt lat="42.877" lon="-0.22707">
        <ele>1553.7</ele>
        <time>2021-08-06T14:06:52Z</time>
      </trkpt>
      <trkpt lat="42.87702" lon="-0.22709">
        <ele>1553.8</ele>
        <time>2021-08-06T14:06:55Z</time>
      </trkpt>
      <trkpt lat="42.8772" lon="-0.2272">
        <ele>1553.4</ele>
        <time>2021-08-06T14:07:15Z</time>
      </trkpt>
      <trkpt lat="42.87733" lon="-0.22728">
        <ele>1551.9</ele>
        <time>2021-08-06T14:07:29Z</time>
      </trkpt>
      <trkpt lat="42.8774" lon="-0.22724">
        <ele>1551.9</ele>
        <time>2021-08-06T14:07:45Z</time>
      </trkpt>
      <trkpt lat="42.87756" lon="-0.22723">
        <ele>1550.8</ele>
        <time>2021-08-06T14:08:07Z</time>
      </trkpt>
      <trkpt lat="42.87782" lon="-0.22733">
        <ele>1548.1</ele>
        <time>2021-08-06T14:08:32Z</time>
      </trkpt>
      <trkpt lat="42.87795" lon="-0.2274">
        <ele>1547.1</ele>
        <time>2021-08-06T14:08:48Z</time>
      </trkpt>
      <trkpt lat="42.8781" lon="-0.22743">
        <ele>1546.8</ele>
        <time>2021-08-06T14:09:01Z</time>
      </trkpt>
      <trkpt lat="42.87838" lon="-0.22739">
        <ele>1546.7</ele>
        <time>2021-08-06T14:09:30Z</time>
      </trkpt>
      <trkpt lat="42.87854" lon="-0.22725">
        <ele>1546.8</ele>
        <time>2021-08-06T14:09:56Z</time>
      </trkpt>
      <trkpt lat="42.87864" lon="-0.22718">
        <ele>1546.3</ele>
        <time>2021-08-06T14:10:08Z</time>
      </trkpt>
      <trkpt lat="42.8789" lon="-0.22684">
        <ele>1544.7</ele>
        <time>2021-08-06T14:10:37Z</time>
      </trkpt>
      <trkpt lat="42.87912" lon="-0.22688">
        <ele>1544.6</ele>
        <time>2021-08-06T14:10:54Z</time>
      </trkpt>
      <trkpt lat="42.87919" lon="-0.22691">
        <ele>1544.7</ele>
        <time>2021-08-06T14:11:04Z</time>
      </trkpt>
      <trkpt lat="42.87933" lon="-0.22688">
        <ele>1546.1</ele>
        <time>2021-08-06T14:11:23Z</time>
      </trkpt>
      <trkpt lat="42.87938" lon="-0.22689">
        <ele>1547</ele>
        <time>2021-08-06T14:11:29Z</time>
      </trkpt>
      <trkpt lat="42.8795" lon="-0.2269">
        <ele>1547.9</ele>
        <time>2021-08-06T14:11:40Z</time>
      </trkpt>
      <trkpt lat="42.87976" lon="-0.22663">
        <ele>1544.9</ele>
        <time>2021-08-06T14:12:12Z</time>
      </trkpt>
      <trkpt lat="42.87993" lon="-0.22654">
        <ele>1541.9</ele>
        <time>2021-08-06T14:12:30Z</time>
      </trkpt>
      <trkpt lat="42.88019" lon="-0.22655">
        <ele>1538.7</ele>
        <time>2021-08-06T14:12:57Z</time>
      </trkpt>
      <trkpt lat="42.88027" lon="-0.22657">
        <ele>1537.5</ele>
        <time>2021-08-06T14:13:03Z</time>
      </trkpt>
      <trkpt lat="42.88042" lon="-0.22659">
        <ele>1534.2</ele>
        <time>2021-08-06T14:13:20Z</time>
      </trkpt>
      <trkpt lat="42.8808" lon="-0.22664">
        <ele>1532.2</ele>
        <time>2021-08-06T14:13:48Z</time>
      </trkpt>
      <trkpt lat="42.88113" lon="-0.22658">
        <ele>1532.4</ele>
        <time>2021-08-06T14:14:18Z</time>
      </trkpt>
      <trkpt lat="42.88136" lon="-0.22653">
        <ele>1529.3</ele>
        <time>2021-08-06T14:14:38Z</time>
      </trkpt>
      <trkpt lat="42.88173" lon="-0.22651">
        <ele>1527.1</ele>
        <time>2021-08-06T14:15:12Z</time>
      </trkpt>
      <trkpt lat="42.88192" lon="-0.22641">
        <ele>1529.1</ele>
        <time>2021-08-06T14:15:39Z</time>
      </trkpt>
      <trkpt lat="42.88197" lon="-0.22639">
        <ele>1532.1</ele>
        <time>2021-08-06T14:15:52Z</time>
      </trkpt>
      <trkpt lat="42.88197" lon="-0.22648">
        <ele>1532.9</ele>
        <time>2021-08-06T14:16:17Z</time>
      </trkpt>
      <trkpt lat="42.88199" lon="-0.22647">
        <ele>1532.7</ele>
        <time>2021-08-06T14:16:47Z</time>
      </trkpt>
      <trkpt lat="42.88197" lon="-0.22647">
        <ele>1532.4</ele>
        <time>2021-08-06T14:17:23Z</time>
      </trkpt>
      <trkpt lat="42.88199" lon="-0.2265">
        <ele>1531.7</ele>
        <time>2021-08-06T14:18:02Z</time>
      </trkpt>
      <trkpt lat="42.88219" lon="-0.22661">
        <ele>1528.7</ele>
        <time>2021-08-06T14:18:24Z</time>
      </trkpt>
      <trkpt lat="42.88245" lon="-0.22665">
        <ele>1525.6</ele>
        <time>2021-08-06T14:18:48Z</time>
      </trkpt>
      <trkpt lat="42.88259" lon="-0.22668">
        <ele>1522.5</ele>
        <time>2021-08-06T14:19:01Z</time>
      </trkpt>
      <trkpt lat="42.88273" lon="-0.22662">
        <ele>1519.2</ele>
        <time>2021-08-06T14:19:13Z</time>
      </trkpt>
      <trkpt lat="42.88277" lon="-0.22658">
        <ele>1518.9</ele>
        <time>2021-08-06T14:19:16Z</time>
      </trkpt>
      <trkpt lat="42.88297" lon="-0.22651">
        <ele>1515.7</ele>
        <time>2021-08-06T14:19:33Z</time>
      </trkpt>
      <trkpt lat="42.88326" lon="-0.22634">
        <ele>1512.7</ele>
        <time>2021-08-06T14:19:58Z</time>
      </trkpt>
      <trkpt lat="42.88344" lon="-0.22633">
        <ele>1509.5</ele>
        <time>2021-08-06T14:20:14Z</time>
      </trkpt>
      <trkpt lat="42.88359" lon="-0.22627">
        <ele>1506.2</ele>
        <time>2021-08-06T14:20:28Z</time>
      </trkpt>
      <trkpt lat="42.88371" lon="-0.22635">
        <ele>1503.2</ele>
        <time>2021-08-06T14:20:40Z</time>
      </trkpt>
      <trkpt lat="42.88379" lon="-0.22635">
        <ele>1500.2</ele>
        <time>2021-08-06T14:20:49Z</time>
      </trkpt>
      <trkpt lat="42.88387" lon="-0.22636">
        <ele>1496.8</ele>
        <time>2021-08-06T14:21:01Z</time>
      </trkpt>
      <trkpt lat="42.88392" lon="-0.22639">
        <ele>1495.3</ele>
        <time>2021-08-06T14:21:06Z</time>
      </trkpt>
      <trkpt lat="42.88391" lon="-0.22645">
        <ele>1494</ele>
        <time>2021-08-06T14:21:10Z</time>
      </trkpt>
      <trkpt lat="42.88391" lon="-0.2265">
        <ele>1491.8</ele>
        <time>2021-08-06T14:21:39Z</time>
      </trkpt>
      <trkpt lat="42.88407" lon="-0.22645">
        <ele>1489.3</ele>
        <time>2021-08-06T14:22:07Z</time>
      </trkpt>
      <trkpt lat="42.88433" lon="-0.22627">
        <ele>1486.2</ele>
        <time>2021-08-06T14:22:36Z</time>
      </trkpt>
      <trkpt lat="42.88429" lon="-0.22646">
        <ele>1482.9</ele>
        <time>2021-08-06T14:22:53Z</time>
      </trkpt>
      <trkpt lat="42.88429" lon="-0.22647">
        <ele>1482.7</ele>
        <time>2021-08-06T14:22:54Z</time>
      </trkpt>
      <trkpt lat="42.88413" lon="-0.22651">
        <ele>1482.1</ele>
        <time>2021-08-06T14:22:57Z</time>
      </trkpt>
      <trkpt lat="42.88413" lon="-0.22663">
        <ele>1478.7</ele>
        <time>2021-08-06T14:23:17Z</time>
      </trkpt>
      <trkpt lat="42.88435" lon="-0.22645">
        <ele>1475.6</ele>
        <time>2021-08-06T14:23:33Z</time>
      </trkpt>
      <trkpt lat="42.88446" lon="-0.22632">
        <ele>1474.1</ele>
        <time>2021-08-06T14:23:41Z</time>
      </trkpt>
      <trkpt lat="42.88463" lon="-0.22623">
        <ele>1470.7</ele>
        <time>2021-08-06T14:23:54Z</time>
      </trkpt>
      <trkpt lat="42.88487" lon="-0.22617">
        <ele>1467.6</ele>
        <time>2021-08-06T14:24:16Z</time>
      </trkpt>
      <trkpt lat="42.88494" lon="-0.22607">
        <ele>1464.4</ele>
        <time>2021-08-06T14:24:30Z</time>
      </trkpt>
      <trkpt lat="42.88513" lon="-0.22596">
        <ele>1461.1</ele>
        <time>2021-08-06T14:24:44Z</time>
      </trkpt>
      <trkpt lat="42.88521" lon="-0.22605">
        <ele>1458.1</ele>
        <time>2021-08-06T14:24:57Z</time>
      </trkpt>
      <trkpt lat="42.88515" lon="-0.2262">
        <ele>1455</ele>
        <time>2021-08-06T14:25:11Z</time>
      </trkpt>
      <trkpt lat="42.88514" lon="-0.22637">
        <ele>1452</ele>
        <time>2021-08-06T14:25:25Z</time>
      </trkpt>
      <trkpt lat="42.88514" lon="-0.22636">
        <ele>1451.6</ele>
        <time>2021-08-06T14:25:26Z</time>
      </trkpt>
      <trkpt lat="42.88523" lon="-0.22629">
        <ele>1448.2</ele>
        <time>2021-08-06T14:25:41Z</time>
      </trkpt>
      <trkpt lat="42.88537" lon="-0.22622">
        <ele>1445.1</ele>
        <time>2021-08-06T14:25:57Z</time>
      </trkpt>
      <trkpt lat="42.88543" lon="-0.22638">
        <ele>1442.1</ele>
        <time>2021-08-06T14:26:12Z</time>
      </trkpt>
      <trkpt lat="42.88533" lon="-0.22674">
        <ele>1439</ele>
        <time>2021-08-06T14:26:32Z</time>
      </trkpt>
      <trkpt lat="42.88533" lon="-0.22681">
        <ele>1435.9</ele>
        <time>2021-08-06T14:26:45Z</time>
      </trkpt>
      <trkpt lat="42.88534" lon="-0.22677">
        <ele>1434.4</ele>
        <time>2021-08-06T14:26:50Z</time>
      </trkpt>
      <trkpt lat="42.88527" lon="-0.22667">
        <ele>1431</ele>
        <time>2021-08-06T14:27:13Z</time>
      </trkpt>
      <trkpt lat="42.88538" lon="-0.22662">
        <ele>1427.7</ele>
        <time>2021-08-06T14:27:28Z</time>
      </trkpt>
      <trkpt lat="42.88562" lon="-0.22656">
        <ele>1424.9</ele>
        <time>2021-08-06T14:27:41Z</time>
      </trkpt>
      <trkpt lat="42.88593" lon="-0.22625">
        <ele>1421.7</ele>
        <time>2021-08-06T14:28:01Z</time>
      </trkpt>
      <trkpt lat="42.88604" lon="-0.22616">
        <ele>1418.6</ele>
        <time>2021-08-06T14:28:13Z</time>
      </trkpt>
      <trkpt lat="42.88617" lon="-0.22604">
        <ele>1415.4</ele>
        <time>2021-08-06T14:28:27Z</time>
      </trkpt>
      <trkpt lat="42.88633" lon="-0.22587">
        <ele>1412.3</ele>
        <time>2021-08-06T14:28:43Z</time>
      </trkpt>
      <trkpt lat="42.88645" lon="-0.22586">
        <ele>1409.2</ele>
        <time>2021-08-06T14:28:55Z</time>
      </trkpt>
      <trkpt lat="42.88658" lon="-0.22601">
        <ele>1405.8</ele>
        <time>2021-08-06T14:29:05Z</time>
      </trkpt>
      <trkpt lat="42.88663" lon="-0.22613">
        <ele>1402.4</ele>
        <time>2021-08-06T14:29:15Z</time>
      </trkpt>
      <trkpt lat="42.8866" lon="-0.22629">
        <ele>1399.3</ele>
        <time>2021-08-06T14:29:24Z</time>
      </trkpt>
      <trkpt lat="42.88658" lon="-0.2263">
        <ele>1398.9</ele>
        <time>2021-08-06T14:29:25Z</time>
      </trkpt>
      <trkpt lat="42.88641" lon="-0.22657">
        <ele>1395.5</ele>
        <time>2021-08-06T14:29:39Z</time>
      </trkpt>
      <trkpt lat="42.88631" lon="-0.22683">
        <ele>1392.3</ele>
        <time>2021-08-06T14:29:57Z</time>
      </trkpt>
      <trkpt lat="42.88619" lon="-0.22697">
        <ele>1389.1</ele>
        <time>2021-08-06T14:30:11Z</time>
      </trkpt>
      <trkpt lat="42.88613" lon="-0.22711">
        <ele>1386.1</ele>
        <time>2021-08-06T14:30:25Z</time>
      </trkpt>
      <trkpt lat="42.88623" lon="-0.22697">
        <ele>1382.8</ele>
        <time>2021-08-06T14:30:35Z</time>
      </trkpt>
      <trkpt lat="42.88633" lon="-0.22693">
        <ele>1381.9</ele>
        <time>2021-08-06T14:30:39Z</time>
      </trkpt>
      <trkpt lat="42.8865" lon="-0.22683">
        <ele>1378.5</ele>
        <time>2021-08-06T14:30:52Z</time>
      </trkpt>
      <trkpt lat="42.8866" lon="-0.22675">
        <ele>1375.4</ele>
        <time>2021-08-06T14:31:07Z</time>
      </trkpt>
      <trkpt lat="42.8867" lon="-0.22687">
        <ele>1372.3</ele>
        <time>2021-08-06T14:31:21Z</time>
      </trkpt>
      <trkpt lat="42.88687" lon="-0.22695">
        <ele>1369.3</ele>
        <time>2021-08-06T14:31:38Z</time>
      </trkpt>
      <trkpt lat="42.88698" lon="-0.22703">
        <ele>1367.1</ele>
        <time>2021-08-06T14:31:50Z</time>
      </trkpt>
      <trkpt lat="42.88678" lon="-0.22707">
        <ele>1363.4</ele>
        <time>2021-08-06T14:32:03Z</time>
      </trkpt>
      <trkpt lat="42.88669" lon="-0.22709">
        <ele>1362.1</ele>
        <time>2021-08-06T14:32:11Z</time>
      </trkpt>
      <trkpt lat="42.88655" lon="-0.22728">
        <ele>1358.8</ele>
        <time>2021-08-06T14:32:27Z</time>
      </trkpt>
      <trkpt lat="42.8865" lon="-0.22743">
        <ele>1355.8</ele>
        <time>2021-08-06T14:32:40Z</time>
      </trkpt>
      <trkpt lat="42.88651" lon="-0.22739">
        <ele>1354.2</ele>
        <time>2021-08-06T14:32:46Z</time>
      </trkpt>
      <trkpt lat="42.88673" lon="-0.22737">
        <ele>1351</ele>
        <time>2021-08-06T14:33:01Z</time>
      </trkpt>
      <trkpt lat="42.88676" lon="-0.22736">
        <ele>1350.5</ele>
        <time>2021-08-06T14:33:03Z</time>
      </trkpt>
      <trkpt lat="42.88674" lon="-0.22745">
        <ele>1346.8</ele>
        <time>2021-08-06T14:33:18Z</time>
      </trkpt>
      <trkpt lat="42.88673" lon="-0.22751">
        <ele>1344.9</ele>
        <time>2021-08-06T14:33:23Z</time>
      </trkpt>
      <trkpt lat="42.88675" lon="-0.22772">
        <ele>1341.4</ele>
        <time>2021-08-06T14:33:37Z</time>
      </trkpt>
      <trkpt lat="42.88675" lon="-0.22776">
        <ele>1341.1</ele>
        <time>2021-08-06T14:33:40Z</time>
      </trkpt>
      <trkpt lat="42.88674" lon="-0.22801">
        <ele>1340</ele>
        <time>2021-08-06T14:34:02Z</time>
      </trkpt>
      <trkpt lat="42.88676" lon="-0.22807">
        <ele>1340</ele>
        <time>2021-08-06T14:34:25Z</time>
      </trkpt>
      <trkpt lat="42.88676" lon="-0.22807">
        <ele>1340.8</ele>
        <time>2021-08-06T14:36:11Z</time>
      </trkpt>
      <trkpt lat="42.88677" lon="-0.22807">
        <ele>1340.8</ele>
        <time>2021-08-06T14:39:02Z</time>
      </trkpt>
      <trkpt lat="42.88677" lon="-0.22807">
        <ele>1340.8</ele>
        <time>2021-08-06T14:39:31Z</time>
      </trkpt>
      <trkpt lat="42.88682" lon="-0.2281">
        <ele>1340.8</ele>
        <time>2021-08-06T14:39:49Z</time>
      </trkpt>
      <trkpt lat="42.88697" lon="-0.22825">
        <ele>1340.1</ele>
        <time>2021-08-06T14:40:12Z</time>
      </trkpt>
      <trkpt lat="42.88718" lon="-0.22842">
        <ele>1338.1</ele>
        <time>2021-08-06T14:40:39Z</time>
      </trkpt>
      <trkpt lat="42.88725" lon="-0.22844">
        <ele>1338.2</ele>
        <time>2021-08-06T14:40:45Z</time>
      </trkpt>
      <trkpt lat="42.88756" lon="-0.22851">
        <ele>1336.7</ele>
        <time>2021-08-06T14:41:14Z</time>
      </trkpt>
      <trkpt lat="42.88783" lon="-0.22866">
        <ele>1334.9</ele>
        <time>2021-08-06T14:41:40Z</time>
      </trkpt>
      <trkpt lat="42.88799" lon="-0.22887">
        <ele>1332.1</ele>
        <time>2021-08-06T14:42:04Z</time>
      </trkpt>
      <trkpt lat="42.88813" lon="-0.22893">
        <ele>1329.5</ele>
        <time>2021-08-06T14:42:24Z</time>
      </trkpt>
      <trkpt lat="42.88821" lon="-0.22889">
        <ele>1328.2</ele>
        <time>2021-08-06T14:42:33Z</time>
      </trkpt>
      <trkpt lat="42.88833" lon="-0.22887">
        <ele>1326.3</ele>
        <time>2021-08-06T14:42:43Z</time>
      </trkpt>
      <trkpt lat="42.88836" lon="-0.22893">
        <ele>1325.6</ele>
        <time>2021-08-06T14:42:47Z</time>
      </trkpt>
      <trkpt lat="42.88847" lon="-0.22902">
        <ele>1324.2</ele>
        <time>2021-08-06T14:43:02Z</time>
      </trkpt>
      <trkpt lat="42.88852" lon="-0.22902">
        <ele>1324</ele>
        <time>2021-08-06T14:43:06Z</time>
      </trkpt>
      <trkpt lat="42.88878" lon="-0.22878">
        <ele>1322.7</ele>
        <time>2021-08-06T14:43:32Z</time>
      </trkpt>
      <trkpt lat="42.88887" lon="-0.22872">
        <ele>1321.3</ele>
        <time>2021-08-06T14:43:40Z</time>
      </trkpt>
      <trkpt lat="42.88907" lon="-0.22861">
        <ele>1318.2</ele>
        <time>2021-08-06T14:43:59Z</time>
      </trkpt>
      <trkpt lat="42.88924" lon="-0.22837">
        <ele>1316.1</ele>
        <time>2021-08-06T14:44:20Z</time>
      </trkpt>
      <trkpt lat="42.8893" lon="-0.22827">
        <ele>1315.3</ele>
        <time>2021-08-06T14:44:28Z</time>
      </trkpt>
      <trkpt lat="42.88954" lon="-0.2281">
        <ele>1312.4</ele>
        <time>2021-08-06T14:44:49Z</time>
      </trkpt>
      <trkpt lat="42.88973" lon="-0.22798">
        <ele>1310.1</ele>
        <time>2021-08-06T14:45:05Z</time>
      </trkpt>
      <trkpt lat="42.88992" lon="-0.22787">
        <ele>1307.8</ele>
        <time>2021-08-06T14:45:22Z</time>
      </trkpt>
      <trkpt lat="42.89008" lon="-0.22786">
        <ele>1306.4</ele>
        <time>2021-08-06T14:45:37Z</time>
      </trkpt>
      <trkpt lat="42.89032" lon="-0.22795">
        <ele>1303.4</ele>
        <time>2021-08-06T14:45:57Z</time>
      </trkpt>
      <trkpt lat="42.89055" lon="-0.22791">
        <ele>1300.5</ele>
        <time>2021-08-06T14:46:16Z</time>
      </trkpt>
      <trkpt lat="42.89071" lon="-0.22783">
        <ele>1298</ele>
        <time>2021-08-06T14:46:30Z</time>
      </trkpt>
      <trkpt lat="42.89093" lon="-0.22772">
        <ele>1295.7</ele>
        <time>2021-08-06T14:46:49Z</time>
      </trkpt>
      <trkpt lat="42.89106" lon="-0.22766">
        <ele>1294.2</ele>
        <time>2021-08-06T14:47:00Z</time>
      </trkpt>
      <trkpt lat="42.89122" lon="-0.22749">
        <ele>1292</ele>
        <time>2021-08-06T14:47:17Z</time>
      </trkpt>
      <trkpt lat="42.89136" lon="-0.22732">
        <ele>1291</ele>
        <time>2021-08-06T14:47:33Z</time>
      </trkpt>
      <trkpt lat="42.89148" lon="-0.22713">
        <ele>1290.3</ele>
        <time>2021-08-06T14:47:48Z</time>
      </trkpt>
      <trkpt lat="42.89163" lon="-0.227">
        <ele>1288.3</ele>
        <time>2021-08-06T14:48:06Z</time>
      </trkpt>
      <trkpt lat="42.89165" lon="-0.22699">
        <ele>1287.8</ele>
        <time>2021-08-06T14:48:30Z</time>
      </trkpt>
      <trkpt lat="42.89185" lon="-0.22686">
        <ele>1287.7</ele>
        <time>2021-08-06T14:48:56Z</time>
      </trkpt>
      <trkpt lat="42.89226" lon="-0.22658">
        <ele>1287.9</ele>
        <time>2021-08-06T14:49:31Z</time>
      </trkpt>
      <trkpt lat="42.89262" lon="-0.22634">
        <ele>1287.9</ele>
        <time>2021-08-06T14:50:03Z</time>
      </trkpt>
      <trkpt lat="42.89283" lon="-0.22625">
        <ele>1287.6</ele>
        <time>2021-08-06T14:50:22Z</time>
      </trkpt>
      <trkpt lat="42.89289" lon="-0.22621">
        <ele>1287</ele>
        <time>2021-08-06T14:50:44Z</time>
      </trkpt>
      <trkpt lat="42.89309" lon="-0.22607">
        <ele>1286.2</ele>
        <time>2021-08-06T14:51:09Z</time>
      </trkpt>
      <trkpt lat="42.89309" lon="-0.22607">
        <ele>1285.2</ele>
        <time>2021-08-06T14:51:29Z</time>
      </trkpt>
      <trkpt lat="42.89323" lon="-0.22596">
        <ele>1284.4</ele>
        <time>2021-08-06T14:51:48Z</time>
      </trkpt>
      <trkpt lat="42.89339" lon="-0.22589">
        <ele>1282.6</ele>
        <time>2021-08-06T14:52:15Z</time>
      </trkpt>
      <trkpt lat="42.89374" lon="-0.22569">
        <ele>1281.5</ele>
        <time>2021-08-06T14:52:46Z</time>
      </trkpt>
      <trkpt lat="42.89403" lon="-0.2255">
        <ele>1280.9</ele>
        <time>2021-08-06T14:53:14Z</time>
      </trkpt>
      <trkpt lat="42.8941" lon="-0.22543">
        <ele>1280.6</ele>
        <time>2021-08-06T14:53:23Z</time>
      </trkpt>
      <trkpt lat="42.89431" lon="-0.22526">
        <ele>1279.6</ele>
        <time>2021-08-06T14:53:45Z</time>
      </trkpt>
      <trkpt lat="42.89453" lon="-0.22526">
        <ele>1276.5</ele>
        <time>2021-08-06T14:54:02Z</time>
      </trkpt>
      <trkpt lat="42.89475" lon="-0.22528">
        <ele>1273.5</ele>
        <time>2021-08-06T14:54:22Z</time>
      </trkpt>
      <trkpt lat="42.89485" lon="-0.22531">
        <ele>1271.3</ele>
        <time>2021-08-06T14:54:37Z</time>
      </trkpt>
      <trkpt lat="42.89486" lon="-0.22531">
        <ele>1271.3</ele>
        <time>2021-08-06T14:54:38Z</time>
      </trkpt>
      <trkpt lat="42.89511" lon="-0.22524">
        <ele>1268.2</ele>
        <time>2021-08-06T14:55:01Z</time>
      </trkpt>
      <trkpt lat="42.89536" lon="-0.22506">
        <ele>1265.2</ele>
        <time>2021-08-06T14:55:24Z</time>
      </trkpt>
      <trkpt lat="42.89557" lon="-0.22509">
        <ele>1262.2</ele>
        <time>2021-08-06T14:55:43Z</time>
      </trkpt>
      <trkpt lat="42.89558" lon="-0.22509">
        <ele>1262</ele>
        <time>2021-08-06T14:55:44Z</time>
      </trkpt>
      <trkpt lat="42.89574" lon="-0.22506">
        <ele>1260</ele>
        <time>2021-08-06T14:55:58Z</time>
      </trkpt>
      <trkpt lat="42.89594" lon="-0.22495">
        <ele>1257.9</ele>
        <time>2021-08-06T14:56:18Z</time>
      </trkpt>
      <trkpt lat="42.8961" lon="-0.22484">
        <ele>1255.4</ele>
        <time>2021-08-06T14:56:34Z</time>
      </trkpt>
      <trkpt lat="42.89627" lon="-0.2247">
        <ele>1253</ele>
        <time>2021-08-06T14:56:53Z</time>
      </trkpt>
      <trkpt lat="42.89629" lon="-0.22468">
        <ele>1252.4</ele>
        <time>2021-08-06T14:57:05Z</time>
      </trkpt>
      <trkpt lat="42.89634" lon="-0.22466">
        <ele>1252.3</ele>
        <time>2021-08-06T14:57:09Z</time>
      </trkpt>
      <trkpt lat="42.89656" lon="-0.2245">
        <ele>1249.3</ele>
        <time>2021-08-06T14:57:31Z</time>
      </trkpt>
      <trkpt lat="42.8967" lon="-0.22423">
        <ele>1246.5</ele>
        <time>2021-08-06T14:57:51Z</time>
      </trkpt>
      <trkpt lat="42.89676" lon="-0.22406">
        <ele>1243.5</ele>
        <time>2021-08-06T14:58:04Z</time>
      </trkpt>
      <trkpt lat="42.89677" lon="-0.22401">
        <ele>1242.9</ele>
        <time>2021-08-06T14:58:08Z</time>
      </trkpt>
      <trkpt lat="42.89677" lon="-0.22395">
        <ele>1241.7</ele>
        <time>2021-08-06T14:58:12Z</time>
      </trkpt>
      <trkpt lat="42.89683" lon="-0.2239">
        <ele>1238.9</ele>
        <time>2021-08-06T14:58:24Z</time>
      </trkpt>
      <trkpt lat="42.89685" lon="-0.22389">
        <ele>1238.8</ele>
        <time>2021-08-06T14:58:26Z</time>
      </trkpt>
      <trkpt lat="42.89699" lon="-0.2238">
        <ele>1237.3</ele>
        <time>2021-08-06T14:58:38Z</time>
      </trkpt>
      <trkpt lat="42.89719" lon="-0.2237">
        <ele>1234.6</ele>
        <time>2021-08-06T14:58:55Z</time>
      </trkpt>
      <trkpt lat="42.89732" lon="-0.22364">
        <ele>1231.6</ele>
        <time>2021-08-06T14:59:06Z</time>
      </trkpt>
      <trkpt lat="42.89749" lon="-0.22357">
        <ele>1228.5</ele>
        <time>2021-08-06T14:59:21Z</time>
      </trkpt>
      <trkpt lat="42.89768" lon="-0.22353">
        <ele>1225.4</ele>
        <time>2021-08-06T14:59:36Z</time>
      </trkpt>
      <trkpt lat="42.89778" lon="-0.22349">
        <ele>1222.2</ele>
        <time>2021-08-06T14:59:45Z</time>
      </trkpt>
      <trkpt lat="42.89784" lon="-0.22348">
        <ele>1220.9</ele>
        <time>2021-08-06T14:59:51Z</time>
      </trkpt>
      <trkpt lat="42.89794" lon="-0.22339">
        <ele>1218.5</ele>
        <time>2021-08-06T15:00:01Z</time>
      </trkpt>
      <trkpt lat="42.89809" lon="-0.22328">
        <ele>1215.3</ele>
        <time>2021-08-06T15:00:16Z</time>
      </trkpt>
      <trkpt lat="42.89814" lon="-0.22323">
        <ele>1214.1</ele>
        <time>2021-08-06T15:00:21Z</time>
      </trkpt>
      <trkpt lat="42.8982" lon="-0.22315">
        <ele>1212.6</ele>
        <time>2021-08-06T15:00:28Z</time>
      </trkpt>
      <trkpt lat="42.89825" lon="-0.22312">
        <ele>1212.3</ele>
        <time>2021-08-06T15:00:32Z</time>
      </trkpt>
      <trkpt lat="42.89832" lon="-0.22308">
        <ele>1211.1</ele>
        <time>2021-08-06T15:00:38Z</time>
      </trkpt>
      <trkpt lat="42.89844" lon="-0.223">
        <ele>1208.7</ele>
        <time>2021-08-06T15:00:50Z</time>
      </trkpt>
      <trkpt lat="42.89863" lon="-0.22289">
        <ele>1205.3</ele>
        <time>2021-08-06T15:01:06Z</time>
      </trkpt>
      <trkpt lat="42.89877" lon="-0.22279">
        <ele>1203.4</ele>
        <time>2021-08-06T15:01:18Z</time>
      </trkpt>
      <trkpt lat="42.89879" lon="-0.22275">
        <ele>1202.9</ele>
        <time>2021-08-06T15:01:22Z</time>
      </trkpt>
      <trkpt lat="42.89883" lon="-0.22273">
        <ele>1202.4</ele>
        <time>2021-08-06T15:01:28Z</time>
      </trkpt>
      <trkpt lat="42.89888" lon="-0.22275">
        <ele>1201.8</ele>
        <time>2021-08-06T15:01:32Z</time>
      </trkpt>
      <trkpt lat="42.89908" lon="-0.22256">
        <ele>1200.4</ele>
        <time>2021-08-06T15:01:51Z</time>
      </trkpt>
      <trkpt lat="42.89918" lon="-0.22251">
        <ele>1199.1</ele>
        <time>2021-08-06T15:01:59Z</time>
      </trkpt>
      <trkpt lat="42.89928" lon="-0.22251">
        <ele>1197.9</ele>
        <time>2021-08-06T15:02:07Z</time>
      </trkpt>
      <trkpt lat="42.89947" lon="-0.22238">
        <ele>1197.3</ele>
        <time>2021-08-06T15:02:24Z</time>
      </trkpt>
      <trkpt lat="42.89959" lon="-0.22216">
        <ele>1197.8</ele>
        <time>2021-08-06T15:02:38Z</time>
      </trkpt>
      <trkpt lat="42.89972" lon="-0.22191">
        <ele>1197.5</ele>
        <time>2021-08-06T15:02:54Z</time>
      </trkpt>
      <trkpt lat="42.89993" lon="-0.22168">
        <ele>1197.1</ele>
        <time>2021-08-06T15:03:13Z</time>
      </trkpt>
      <trkpt lat="42.90013" lon="-0.22149">
        <ele>1196.1</ele>
        <time>2021-08-06T15:03:30Z</time>
      </trkpt>
      <trkpt lat="42.90035" lon="-0.2213">
        <ele>1195.1</ele>
        <time>2021-08-06T15:03:49Z</time>
      </trkpt>
      <trkpt lat="42.90059" lon="-0.2211">
        <ele>1193.7</ele>
        <time>2021-08-06T15:04:09Z</time>
      </trkpt>
      <trkpt lat="42.90067" lon="-0.22104">
        <ele>1193.8</ele>
        <time>2021-08-06T15:04:15Z</time>
      </trkpt>
      <trkpt lat="42.90071" lon="-0.22098">
        <ele>1193.9</ele>
        <time>2021-08-06T15:04:19Z</time>
      </trkpt>
      <trkpt lat="42.90095" lon="-0.22076">
        <ele>1192.6</ele>
        <time>2021-08-06T15:04:39Z</time>
      </trkpt>
      <trkpt lat="42.90121" lon="-0.22056">
        <ele>1192</ele>
        <time>2021-08-06T15:05:00Z</time>
      </trkpt>
      <trkpt lat="42.90139" lon="-0.22038">
        <ele>1191.4</ele>
        <time>2021-08-06T15:05:16Z</time>
      </trkpt>
      <trkpt lat="42.90155" lon="-0.2202">
        <ele>1190.5</ele>
        <time>2021-08-06T15:05:31Z</time>
      </trkpt>
      <trkpt lat="42.90174" lon="-0.21997">
        <ele>1189.2</ele>
        <time>2021-08-06T15:05:49Z</time>
      </trkpt>
      <trkpt lat="42.90181" lon="-0.21991">
        <ele>1188.6</ele>
        <time>2021-08-06T15:06:00Z</time>
      </trkpt>
      <trkpt lat="42.90185" lon="-0.21987">
        <ele>1188.6</ele>
        <time>2021-08-06T15:06:04Z</time>
      </trkpt>
      <trkpt lat="42.9021" lon="-0.21967">
        <ele>1187.4</ele>
        <time>2021-08-06T15:06:26Z</time>
      </trkpt>
      <trkpt lat="42.90215" lon="-0.21957">
        <ele>1187.2</ele>
        <time>2021-08-06T15:06:33Z</time>
      </trkpt>
      <trkpt lat="42.90225" lon="-0.21948">
        <ele>1187.1</ele>
        <time>2021-08-06T15:06:42Z</time>
      </trkpt>
      <trkpt lat="42.90247" lon="-0.21928">
        <ele>1187.1</ele>
        <time>2021-08-06T15:07:03Z</time>
      </trkpt>
      <trkpt lat="42.90267" lon="-0.21904">
        <ele>1186.6</ele>
        <time>2021-08-06T15:07:23Z</time>
      </trkpt>
      <trkpt lat="42.90268" lon="-0.21901">
        <ele>1186.6</ele>
        <time>2021-08-06T15:07:25Z</time>
      </trkpt>
      <trkpt lat="42.90273" lon="-0.2189">
        <ele>1186.8</ele>
        <time>2021-08-06T15:07:33Z</time>
      </trkpt>
      <trkpt lat="42.90284" lon="-0.21858">
        <ele>1187.8</ele>
        <time>2021-08-06T15:07:54Z</time>
      </trkpt>
      <trkpt lat="42.90287" lon="-0.21843">
        <ele>1188.3</ele>
        <time>2021-08-06T15:08:09Z</time>
      </trkpt>
      <trkpt lat="42.90288" lon="-0.21841">
        <ele>1188.3</ele>
        <time>2021-08-06T15:08:11Z</time>
      </trkpt>
      <trkpt lat="42.9029" lon="-0.21837">
        <ele>1188.3</ele>
        <time>2021-08-06T15:08:13Z</time>
      </trkpt>
      <trkpt lat="42.90291" lon="-0.21834">
        <ele>1188.3</ele>
        <time>2021-08-06T15:08:15Z</time>
      </trkpt>
      <trkpt lat="42.90301" lon="-0.21805">
        <ele>1188.4</ele>
        <time>2021-08-06T15:08:32Z</time>
      </trkpt>
      <trkpt lat="42.90313" lon="-0.21776">
        <ele>1188.9</ele>
        <time>2021-08-06T15:08:49Z</time>
      </trkpt>
      <trkpt lat="42.90321" lon="-0.21755">
        <ele>1189</ele>
        <time>2021-08-06T15:09:02Z</time>
      </trkpt>
      <trkpt lat="42.9033" lon="-0.21737">
        <ele>1188.7</ele>
        <time>2021-08-06T15:09:13Z</time>
      </trkpt>
      <trkpt lat="42.90353" lon="-0.21708">
        <ele>1187.4</ele>
        <time>2021-08-06T15:09:35Z</time>
      </trkpt>
      <trkpt lat="42.90374" lon="-0.21691">
        <ele>1186.7</ele>
        <time>2021-08-06T15:09:52Z</time>
      </trkpt>
      <trkpt lat="42.90396" lon="-0.21676">
        <ele>1186.3</ele>
        <time>2021-08-06T15:10:11Z</time>
      </trkpt>
      <trkpt lat="42.90416" lon="-0.21667">
        <ele>1185.6</ele>
        <time>2021-08-06T15:10:27Z</time>
      </trkpt>
      <trkpt lat="42.90436" lon="-0.21657">
        <ele>1184.7</ele>
        <time>2021-08-06T15:10:44Z</time>
      </trkpt>
      <trkpt lat="42.90454" lon="-0.21638">
        <ele>1184.2</ele>
        <time>2021-08-06T15:11:01Z</time>
      </trkpt>
      <trkpt lat="42.90454" lon="-0.21637">
        <ele>1184.2</ele>
        <time>2021-08-06T15:11:02Z</time>
      </trkpt>
      <trkpt lat="42.90455" lon="-0.21626">
        <ele>1184.4</ele>
        <time>2021-08-06T15:11:08Z</time>
      </trkpt>
      <trkpt lat="42.90454" lon="-0.21596">
        <ele>1184.8</ele>
        <time>2021-08-06T15:11:26Z</time>
      </trkpt>
      <trkpt lat="42.90469" lon="-0.21568">
        <ele>1185.2</ele>
        <time>2021-08-06T15:11:45Z</time>
      </trkpt>
      <trkpt lat="42.90486" lon="-0.21554">
        <ele>1184.4</ele>
        <time>2021-08-06T15:12:00Z</time>
      </trkpt>
      <trkpt lat="42.90504" lon="-0.21536">
        <ele>1184.3</ele>
        <time>2021-08-06T15:12:16Z</time>
      </trkpt>
      <trkpt lat="42.90524" lon="-0.21504">
        <ele>1184.9</ele>
        <time>2021-08-06T15:12:39Z</time>
      </trkpt>
      <trkpt lat="42.90533" lon="-0.21474">
        <ele>1184.5</ele>
        <time>2021-08-06T15:12:56Z</time>
      </trkpt>
      <trkpt lat="42.90533" lon="-0.21443">
        <ele>1183.8</ele>
        <time>2021-08-06T15:13:13Z</time>
      </trkpt>
      <trkpt lat="42.90538" lon="-0.21415">
        <ele>1183.8</ele>
        <time>2021-08-06T15:13:28Z</time>
      </trkpt>
      <trkpt lat="42.9054" lon="-0.21383">
        <ele>1184.1</ele>
        <time>2021-08-06T15:13:46Z</time>
      </trkpt>
    </trkseg>
  </trk>
</gpx>